﻿<?xml version="1.0" encoding="utf-8" standalone="yes"?>
<gpx version="1.0" creator="CanWay - http://www.canwaygps.com" xmlns:xsi="http://www.w3.org/2001/XMLSchema-instance" xmlns="http://www.topografix.com/GPX/1/0" xsi:schemaLocation="http://www.topografix.com/GPX/1/0 http://www.topografix.com/GPX/1/0/gpx.xsd">
<time>2023-05-14T21:31:26Z</time>
<bounds minlat="47.339786" minlon="8.766103" maxlat="47.364472" maxlon="8.797871" />
<trk>
<name>Pfäffikersee</name>
<trkseg>
<trkpt lat="47.362768" lon="8.767091">
<ele>523.0</ele>
<time>2003-07-19T07:52:25Z</time>
<speed>0.0</speed>
</trkpt>
<trkpt lat="47.362769" lon="8.767139">
<ele>527.0</ele>
<time>2003-07-19T07:52:30Z</time>
<speed>0.0</speed>
</trkpt>
<trkpt lat="47.362775" lon="8.767172">
<ele>523.7</ele>
<time>2003-07-19T07:52:35Z</time>
<speed>0.0</speed>
</trkpt>
<trkpt lat="47.362780" lon="8.767187">
<ele>523.1</ele>
<time>2003-07-19T07:52:40Z</time>
<speed>0.0</speed>
</trkpt>
<trkpt lat="47.362781" lon="8.767189">
<ele>521.7</ele>
<time>2003-07-19T07:52:45Z</time>
<speed>0.0</speed>
</trkpt>
<trkpt lat="47.362745" lon="8.767199">
<ele>529.5</ele>
<time>2003-07-19T07:52:51Z</time>
<speed>0.0</speed>
</trkpt>
<trkpt lat="47.362657" lon="8.767137">
<ele>534.3</ele>
<time>2003-07-19T07:52:56Z</time>
<speed>0.3</speed>
</trkpt>
<trkpt lat="47.362628" lon="8.767124">
<ele>530.6</ele>
<time>2003-07-19T07:53:01Z</time>
<speed>0.0</speed>
</trkpt>
<trkpt lat="47.362628" lon="8.767124">
<ele>530.6</ele>
<time>2003-07-19T07:53:06Z</time>
<speed>0.0</speed>
</trkpt>
<trkpt lat="47.362546" lon="8.767095">
<ele>532.1</ele>
<time>2003-07-19T07:53:11Z</time>
<speed>0.0</speed>
</trkpt>
<trkpt lat="47.362540" lon="8.767093">
<ele>532.8</ele>
<time>2003-07-19T07:53:16Z</time>
<speed>0.0</speed>
</trkpt>
<trkpt lat="47.362476" lon="8.767081">
<ele>533.9</ele>
<time>2003-07-19T07:53:21Z</time>
<speed>0.6</speed>
</trkpt>
<trkpt lat="47.362420" lon="8.767058">
<ele>534.2</ele>
<time>2003-07-19T07:53:26Z</time>
<speed>0.6</speed>
</trkpt>
<trkpt lat="47.362375" lon="8.767063">
<ele>534.8</ele>
<time>2003-07-19T07:53:31Z</time>
<speed>1.1</speed>
</trkpt>
<trkpt lat="47.362318" lon="8.767053">
<ele>535.2</ele>
<time>2003-07-19T07:53:36Z</time>
<speed>0.8</speed>
</trkpt>
<trkpt lat="47.362298" lon="8.767049">
<ele>535.8</ele>
<time>2003-07-19T07:53:41Z</time>
<speed>0.8</speed>
</trkpt>
<trkpt lat="47.362241" lon="8.767037">
<ele>537.6</ele>
<time>2003-07-19T07:53:46Z</time>
<speed>1.1</speed>
</trkpt>
<trkpt lat="47.362183" lon="8.767040">
<ele>538.1</ele>
<time>2003-07-19T07:53:51Z</time>
<speed>1.4</speed>
</trkpt>
<trkpt lat="47.362132" lon="8.767029">
<ele>539.2</ele>
<time>2003-07-19T07:53:56Z</time>
<speed>1.4</speed>
</trkpt>
<trkpt lat="47.362060" lon="8.767044">
<ele>539.8</ele>
<time>2003-07-19T07:54:01Z</time>
<speed>1.4</speed>
</trkpt>
<trkpt lat="47.361994" lon="8.767075">
<ele>538.3</ele>
<time>2003-07-19T07:54:06Z</time>
<speed>1.4</speed>
</trkpt>
<trkpt lat="47.361923" lon="8.767089">
<ele>538.9</ele>
<time>2003-07-19T07:54:11Z</time>
<speed>1.4</speed>
</trkpt>
<trkpt lat="47.361857" lon="8.767105">
<ele>538.8</ele>
<time>2003-07-19T07:54:16Z</time>
<speed>1.4</speed>
</trkpt>
<trkpt lat="47.361792" lon="8.767121">
<ele>538.6</ele>
<time>2003-07-19T07:54:21Z</time>
<speed>1.4</speed>
</trkpt>
<trkpt lat="47.361733" lon="8.767152">
<ele>537.9</ele>
<time>2003-07-19T07:54:26Z</time>
<speed>1.4</speed>
</trkpt>
<trkpt lat="47.361667" lon="8.767168">
<ele>537.8</ele>
<time>2003-07-19T07:54:31Z</time>
<speed>1.4</speed>
</trkpt>
<trkpt lat="47.361602" lon="8.767182">
<ele>539.1</ele>
<time>2003-07-19T07:54:36Z</time>
<speed>1.4</speed>
</trkpt>
<trkpt lat="47.361537" lon="8.767198">
<ele>539.0</ele>
<time>2003-07-19T07:54:41Z</time>
<speed>1.4</speed>
</trkpt>
<trkpt lat="47.361477" lon="8.767227">
<ele>539.7</ele>
<time>2003-07-19T07:54:46Z</time>
<speed>0.8</speed>
</trkpt>
<trkpt lat="47.361418" lon="8.767244">
<ele>540.3</ele>
<time>2003-07-19T07:54:51Z</time>
<speed>1.1</speed>
</trkpt>
<trkpt lat="47.361365" lon="8.767262">
<ele>540.2</ele>
<time>2003-07-19T07:54:56Z</time>
<speed>1.4</speed>
</trkpt>
<trkpt lat="47.361287" lon="8.767276">
<ele>540.1</ele>
<time>2003-07-19T07:55:01Z</time>
<speed>1.4</speed>
</trkpt>
<trkpt lat="47.361228" lon="8.767292">
<ele>540.7</ele>
<time>2003-07-19T07:55:06Z</time>
<speed>1.1</speed>
</trkpt>
<trkpt lat="47.361176" lon="8.767310">
<ele>540.6</ele>
<time>2003-07-19T07:55:11Z</time>
<speed>1.4</speed>
</trkpt>
<trkpt lat="47.361104" lon="8.767326">
<ele>539.7</ele>
<time>2003-07-19T07:55:16Z</time>
<speed>1.1</speed>
</trkpt>
<trkpt lat="47.361034" lon="8.767327">
<ele>540.2</ele>
<time>2003-07-19T07:55:21Z</time>
<speed>1.1</speed>
</trkpt>
<trkpt lat="47.360981" lon="8.767345">
<ele>540.1</ele>
<time>2003-07-19T07:55:26Z</time>
<speed>1.4</speed>
</trkpt>
<trkpt lat="47.360911" lon="8.767333">
<ele>540.5</ele>
<time>2003-07-19T07:55:31Z</time>
<speed>1.1</speed>
</trkpt>
<trkpt lat="47.360860" lon="8.767338">
<ele>540.3</ele>
<time>2003-07-19T07:55:36Z</time>
<speed>1.1</speed>
</trkpt>
<trkpt lat="47.360779" lon="8.767313">
<ele>539.1</ele>
<time>2003-07-19T07:55:41Z</time>
<speed>1.7</speed>
</trkpt>
<trkpt lat="47.360715" lon="8.767316">
<ele>538.8</ele>
<time>2003-07-19T07:55:46Z</time>
<speed>0.8</speed>
</trkpt>
<trkpt lat="47.360658" lon="8.767308">
<ele>537.8</ele>
<time>2003-07-19T07:55:51Z</time>
<speed>1.1</speed>
</trkpt>
<trkpt lat="47.360601" lon="8.767298">
<ele>538.2</ele>
<time>2003-07-19T07:55:56Z</time>
<speed>0.8</speed>
</trkpt>
<trkpt lat="47.360533" lon="8.767259">
<ele>538.4</ele>
<time>2003-07-19T07:56:01Z</time>
<speed>1.4</speed>
</trkpt>
<trkpt lat="47.360472" lon="8.767221">
<ele>539.2</ele>
<time>2003-07-19T07:56:06Z</time>
<speed>1.4</speed>
</trkpt>
<trkpt lat="47.360411" lon="8.767170">
<ele>540.0</ele>
<time>2003-07-19T07:56:11Z</time>
<speed>1.7</speed>
</trkpt>
<trkpt lat="47.360355" lon="8.767146">
<ele>540.3</ele>
<time>2003-07-19T07:56:16Z</time>
<speed>0.8</speed>
</trkpt>
<trkpt lat="47.360293" lon="8.767123">
<ele>539.9</ele>
<time>2003-07-19T07:56:21Z</time>
<speed>1.7</speed>
</trkpt>
<trkpt lat="47.360225" lon="8.767085">
<ele>540.0</ele>
<time>2003-07-19T07:56:26Z</time>
<speed>1.4</speed>
</trkpt>
<trkpt lat="47.360163" lon="8.767062">
<ele>539.6</ele>
<time>2003-07-19T07:56:31Z</time>
<speed>1.1</speed>
</trkpt>
<trkpt lat="47.360107" lon="8.767039">
<ele>539.9</ele>
<time>2003-07-19T07:56:36Z</time>
<speed>0.8</speed>
</trkpt>
<trkpt lat="47.360045" lon="8.767016">
<ele>539.4</ele>
<time>2003-07-19T07:56:41Z</time>
<speed>1.1</speed>
</trkpt>
<trkpt lat="47.359978" lon="8.766964">
<ele>539.5</ele>
<time>2003-07-19T07:56:46Z</time>
<speed>1.4</speed>
</trkpt>
<trkpt lat="47.359921" lon="8.766954">
<ele>539.9</ele>
<time>2003-07-19T07:56:51Z</time>
<speed>1.4</speed>
</trkpt>
<trkpt lat="47.359898" lon="8.767002">
<ele>540.9</ele>
<time>2003-07-19T07:56:56Z</time>
<speed>1.1</speed>
</trkpt>
<trkpt lat="47.359880" lon="8.767081">
<ele>540.0</ele>
<time>2003-07-19T07:57:01Z</time>
<speed>0.8</speed>
</trkpt>
<trkpt lat="47.359875" lon="8.767148">
<ele>539.2</ele>
<time>2003-07-19T07:57:06Z</time>
<speed>0.8</speed>
</trkpt>
<trkpt lat="47.359862" lon="8.767255">
<ele>537.8</ele>
<time>2003-07-19T07:57:11Z</time>
<speed>1.1</speed>
</trkpt>
<trkpt lat="47.359847" lon="8.767360">
<ele>537.9</ele>
<time>2003-07-19T07:57:16Z</time>
<speed>1.1</speed>
</trkpt>
<trkpt lat="47.359834" lon="8.767451">
<ele>537.9</ele>
<time>2003-07-19T07:57:21Z</time>
<speed>1.1</speed>
</trkpt>
<trkpt lat="47.359822" lon="8.767530">
<ele>537.8</ele>
<time>2003-07-19T07:57:26Z</time>
<speed>1.4</speed>
</trkpt>
<trkpt lat="47.359815" lon="8.767621">
<ele>538.5</ele>
<time>2003-07-19T07:57:31Z</time>
<speed>1.1</speed>
</trkpt>
<trkpt lat="47.359808" lon="8.767713">
<ele>539.2</ele>
<time>2003-07-19T07:57:36Z</time>
<speed>0.8</speed>
</trkpt>
<trkpt lat="47.359801" lon="8.767804">
<ele>540.0</ele>
<time>2003-07-19T07:57:41Z</time>
<speed>1.1</speed>
</trkpt>
<trkpt lat="47.359787" lon="8.767909">
<ele>540.1</ele>
<time>2003-07-19T07:57:46Z</time>
<speed>1.4</speed>
</trkpt>
<trkpt lat="47.359773" lon="8.768016">
<ele>538.7</ele>
<time>2003-07-19T07:57:51Z</time>
<speed>1.4</speed>
</trkpt>
<trkpt lat="47.359766" lon="8.768109">
<ele>538.1</ele>
<time>2003-07-19T07:57:56Z</time>
<speed>1.4</speed>
</trkpt>
<trkpt lat="47.359760" lon="8.768203">
<ele>537.4</ele>
<time>2003-07-19T07:58:01Z</time>
<speed>1.4</speed>
</trkpt>
<trkpt lat="47.359759" lon="8.768296">
<ele>537.4</ele>
<time>2003-07-19T07:58:06Z</time>
<speed>1.4</speed>
</trkpt>
<trkpt lat="47.359786" lon="8.768368">
<ele>537.4</ele>
<time>2003-07-19T07:58:11Z</time>
<speed>1.4</speed>
</trkpt>
<trkpt lat="47.359862" lon="8.768382">
<ele>536.4</ele>
<time>2003-07-19T07:58:16Z</time>
<speed>1.4</speed>
</trkpt>
<trkpt lat="47.359933" lon="8.768381">
<ele>536.0</ele>
<time>2003-07-19T07:58:21Z</time>
<speed>1.4</speed>
</trkpt>
<trkpt lat="47.360005" lon="8.768352">
<ele>536.7</ele>
<time>2003-07-19T07:58:26Z</time>
<speed>1.4</speed>
</trkpt>
<trkpt lat="47.360069" lon="8.768349">
<ele>536.9</ele>
<time>2003-07-19T07:58:31Z</time>
<speed>1.4</speed>
</trkpt>
<trkpt lat="47.360146" lon="8.768348">
<ele>537.2</ele>
<time>2003-07-19T07:58:36Z</time>
<speed>1.4</speed>
</trkpt>
<trkpt lat="47.360198" lon="8.768343">
<ele>537.4</ele>
<time>2003-07-19T07:58:41Z</time>
<speed>1.4</speed>
</trkpt>
<trkpt lat="47.360257" lon="8.768327">
<ele>536.8</ele>
<time>2003-07-19T07:58:46Z</time>
<speed>0.8</speed>
</trkpt>
<trkpt lat="47.360327" lon="8.768339">
<ele>536.5</ele>
<time>2003-07-19T07:58:51Z</time>
<speed>1.7</speed>
</trkpt>
<trkpt lat="47.360394" lon="8.768377">
<ele>536.3</ele>
<time>2003-07-19T07:58:56Z</time>
<speed>1.1</speed>
</trkpt>
<trkpt lat="47.360448" lon="8.768427">
<ele>536.2</ele>
<time>2003-07-19T07:59:01Z</time>
<speed>1.4</speed>
</trkpt>
<trkpt lat="47.360502" lon="8.768474">
<ele>537.5</ele>
<time>2003-07-19T07:59:06Z</time>
<speed>1.4</speed>
</trkpt>
<trkpt lat="47.360556" lon="8.768523">
<ele>537.4</ele>
<time>2003-07-19T07:59:11Z</time>
<speed>1.4</speed>
</trkpt>
<trkpt lat="47.360608" lon="8.768599">
<ele>537.6</ele>
<time>2003-07-19T07:59:16Z</time>
<speed>1.4</speed>
</trkpt>
<trkpt lat="47.360670" lon="8.768637">
<ele>536.7</ele>
<time>2003-07-19T07:59:21Z</time>
<speed>1.4</speed>
</trkpt>
<trkpt lat="47.360722" lon="8.768713">
<ele>536.8</ele>
<time>2003-07-19T07:59:26Z</time>
<speed>1.4</speed>
</trkpt>
<trkpt lat="47.360776" lon="8.768762">
<ele>536.7</ele>
<time>2003-07-19T07:59:31Z</time>
<speed>1.4</speed>
</trkpt>
<trkpt lat="47.360842" lon="8.768813">
<ele>536.7</ele>
<time>2003-07-19T07:59:36Z</time>
<speed>1.4</speed>
</trkpt>
<trkpt lat="47.360896" lon="8.768863">
<ele>536.6</ele>
<time>2003-07-19T07:59:41Z</time>
<speed>1.4</speed>
</trkpt>
<trkpt lat="47.360950" lon="8.768912">
<ele>536.5</ele>
<time>2003-07-19T07:59:46Z</time>
<speed>1.4</speed>
</trkpt>
<trkpt lat="47.361002" lon="8.768987">
<ele>536.6</ele>
<time>2003-07-19T07:59:51Z</time>
<speed>1.4</speed>
</trkpt>
<trkpt lat="47.361049" lon="8.769048">
<ele>537.3</ele>
<time>2003-07-19T07:59:56Z</time>
<speed>1.4</speed>
</trkpt>
<trkpt lat="47.361108" lon="8.769112">
<ele>536.6</ele>
<time>2003-07-19T08:00:01Z</time>
<speed>1.4</speed>
</trkpt>
<trkpt lat="47.361162" lon="8.769162">
<ele>536.5</ele>
<time>2003-07-19T08:00:06Z</time>
<speed>1.1</speed>
</trkpt>
<trkpt lat="47.361215" lon="8.769224">
<ele>536.5</ele>
<time>2003-07-19T08:00:11Z</time>
<speed>1.4</speed>
</trkpt>
<trkpt lat="47.361268" lon="8.769286">
<ele>536.5</ele>
<time>2003-07-19T08:00:16Z</time>
<speed>1.4</speed>
</trkpt>
<trkpt lat="47.361323" lon="8.769336">
<ele>536.4</ele>
<time>2003-07-19T08:00:21Z</time>
<speed>1.4</speed>
</trkpt>
<trkpt lat="47.361368" lon="8.769409">
<ele>537.2</ele>
<time>2003-07-19T08:00:26Z</time>
<speed>1.4</speed>
</trkpt>
<trkpt lat="47.361414" lon="8.769485">
<ele>536.6</ele>
<time>2003-07-19T08:00:31Z</time>
<speed>1.1</speed>
</trkpt>
<trkpt lat="47.361441" lon="8.769556">
<ele>536.6</ele>
<time>2003-07-19T08:00:36Z</time>
<speed>1.4</speed>
</trkpt>
<trkpt lat="47.361465" lon="8.769654">
<ele>536.8</ele>
<time>2003-07-19T08:00:41Z</time>
<speed>1.1</speed>
</trkpt>
<trkpt lat="47.361478" lon="8.769749">
<ele>536.9</ele>
<time>2003-07-19T08:00:46Z</time>
<speed>1.4</speed>
</trkpt>
<trkpt lat="47.361489" lon="8.769858">
<ele>537.1</ele>
<time>2003-07-19T08:00:51Z</time>
<speed>1.4</speed>
</trkpt>
<trkpt lat="47.361480" lon="8.769976">
<ele>538.0</ele>
<time>2003-07-19T08:00:57Z</time>
<speed>1.4</speed>
</trkpt>
<trkpt lat="47.361479" lon="8.770069">
<ele>538.1</ele>
<time>2003-07-19T08:01:02Z</time>
<speed>1.1</speed>
</trkpt>
<trkpt lat="47.361490" lon="8.770178">
<ele>538.3</ele>
<time>2003-07-19T08:01:07Z</time>
<speed>1.4</speed>
</trkpt>
<trkpt lat="47.361515" lon="8.770278">
<ele>537.1</ele>
<time>2003-07-19T08:01:12Z</time>
<speed>1.4</speed>
</trkpt>
<trkpt lat="47.361549" lon="8.770351">
<ele>536.4</ele>
<time>2003-07-19T08:01:17Z</time>
<speed>1.1</speed>
</trkpt>
<trkpt lat="47.361589" lon="8.770412">
<ele>536.3</ele>
<time>2003-07-19T08:01:22Z</time>
<speed>1.4</speed>
</trkpt>
<trkpt lat="47.361661" lon="8.770478">
<ele>535.7</ele>
<time>2003-07-19T08:01:28Z</time>
<speed>1.4</speed>
</trkpt>
<trkpt lat="47.361735" lon="8.770516">
<ele>536.4</ele>
<time>2003-07-19T08:01:33Z</time>
<speed>1.7</speed>
</trkpt>
<trkpt lat="47.361802" lon="8.770568">
<ele>536.3</ele>
<time>2003-07-19T08:01:38Z</time>
<speed>1.4</speed>
</trkpt>
<trkpt lat="47.361856" lon="8.770617">
<ele>536.2</ele>
<time>2003-07-19T08:01:43Z</time>
<speed>1.7</speed>
</trkpt>
<trkpt lat="47.361916" lon="8.770666">
<ele>536.9</ele>
<time>2003-07-19T08:01:48Z</time>
<speed>1.4</speed>
</trkpt>
<trkpt lat="47.361977" lon="8.770705">
<ele>536.0</ele>
<time>2003-07-19T08:01:53Z</time>
<speed>1.4</speed>
</trkpt>
<trkpt lat="47.362040" lon="8.770728">
<ele>536.4</ele>
<time>2003-07-19T08:01:58Z</time>
<speed>1.4</speed>
</trkpt>
<trkpt lat="47.362101" lon="8.770764">
<ele>537.0</ele>
<time>2003-07-19T08:02:03Z</time>
<speed>1.7</speed>
</trkpt>
<trkpt lat="47.362162" lon="8.770802">
<ele>536.1</ele>
<time>2003-07-19T08:02:08Z</time>
<speed>1.4</speed>
</trkpt>
<trkpt lat="47.362216" lon="8.770852">
<ele>536.0</ele>
<time>2003-07-19T08:02:13Z</time>
<speed>1.7</speed>
</trkpt>
<trkpt lat="47.362277" lon="8.770888">
<ele>536.5</ele>
<time>2003-07-19T08:02:18Z</time>
<speed>1.4</speed>
</trkpt>
<trkpt lat="47.362325" lon="8.770937">
<ele>535.7</ele>
<time>2003-07-19T08:02:23Z</time>
<speed>1.4</speed>
</trkpt>
<trkpt lat="47.362379" lon="8.770987">
<ele>535.6</ele>
<time>2003-07-19T08:02:28Z</time>
<speed>1.4</speed>
</trkpt>
<trkpt lat="47.362420" lon="8.771047">
<ele>535.6</ele>
<time>2003-07-19T08:02:33Z</time>
<speed>1.1</speed>
</trkpt>
<trkpt lat="47.362473" lon="8.771111">
<ele>534.2</ele>
<time>2003-07-19T08:02:38Z</time>
<speed>1.4</speed>
</trkpt>
<trkpt lat="47.362512" lon="8.771198">
<ele>534.3</ele>
<time>2003-07-19T08:02:43Z</time>
<speed>1.4</speed>
</trkpt>
<trkpt lat="47.362549" lon="8.771296">
<ele>536.0</ele>
<time>2003-07-19T08:02:48Z</time>
<speed>1.1</speed>
</trkpt>
<trkpt lat="47.362596" lon="8.771358">
<ele>535.2</ele>
<time>2003-07-19T08:02:53Z</time>
<speed>1.1</speed>
</trkpt>
<trkpt lat="47.362614" lon="8.771454">
<ele>536.1</ele>
<time>2003-07-19T08:02:58Z</time>
<speed>1.4</speed>
</trkpt>
<trkpt lat="47.362652" lon="8.771540">
<ele>536.3</ele>
<time>2003-07-19T08:03:03Z</time>
<speed>1.1</speed>
</trkpt>
<trkpt lat="47.362670" lon="8.771651">
<ele>535.8</ele>
<time>2003-07-19T08:03:08Z</time>
<speed>1.4</speed>
</trkpt>
<trkpt lat="47.362695" lon="8.771736">
<ele>535.9</ele>
<time>2003-07-19T08:03:13Z</time>
<speed>1.4</speed>
</trkpt>
<trkpt lat="47.362708" lon="8.771831">
<ele>536.0</ele>
<time>2003-07-19T08:03:18Z</time>
<speed>0.8</speed>
</trkpt>
<trkpt lat="47.362721" lon="8.771914">
<ele>536.0</ele>
<time>2003-07-19T08:03:23Z</time>
<speed>1.4</speed>
</trkpt>
<trkpt lat="47.362733" lon="8.772009">
<ele>536.1</ele>
<time>2003-07-19T08:03:28Z</time>
<speed>0.8</speed>
</trkpt>
<trkpt lat="47.362745" lon="8.772105">
<ele>536.3</ele>
<time>2003-07-19T08:03:33Z</time>
<speed>1.4</speed>
</trkpt>
<trkpt lat="47.362737" lon="8.772210">
<ele>537.1</ele>
<time>2003-07-19T08:03:38Z</time>
<speed>1.4</speed>
</trkpt>
<trkpt lat="47.362742" lon="8.772303">
<ele>537.9</ele>
<time>2003-07-19T08:03:43Z</time>
<speed>1.4</speed>
</trkpt>
<trkpt lat="47.362742" lon="8.772397">
<ele>537.9</ele>
<time>2003-07-19T08:03:48Z</time>
<speed>0.8</speed>
</trkpt>
<trkpt lat="47.362755" lon="8.772479">
<ele>538.0</ele>
<time>2003-07-19T08:03:53Z</time>
<speed>1.1</speed>
</trkpt>
<trkpt lat="47.362754" lon="8.772573">
<ele>538.0</ele>
<time>2003-07-19T08:03:58Z</time>
<speed>1.4</speed>
</trkpt>
<trkpt lat="47.362746" lon="8.772678">
<ele>538.8</ele>
<time>2003-07-19T08:04:03Z</time>
<speed>1.4</speed>
</trkpt>
<trkpt lat="47.362745" lon="8.772784">
<ele>539.0</ele>
<time>2003-07-19T08:04:08Z</time>
<speed>1.1</speed>
</trkpt>
<trkpt lat="47.362758" lon="8.772867">
<ele>539.0</ele>
<time>2003-07-19T08:04:13Z</time>
<speed>1.1</speed>
</trkpt>
<trkpt lat="47.362770" lon="8.772962">
<ele>539.1</ele>
<time>2003-07-19T08:04:18Z</time>
<speed>1.4</speed>
</trkpt>
<trkpt lat="47.362781" lon="8.773071">
<ele>539.3</ele>
<time>2003-07-19T08:04:23Z</time>
<speed>1.4</speed>
</trkpt>
<trkpt lat="47.362793" lon="8.773167">
<ele>539.5</ele>
<time>2003-07-19T08:04:28Z</time>
<speed>1.1</speed>
</trkpt>
<trkpt lat="47.362792" lon="8.773273">
<ele>539.6</ele>
<time>2003-07-19T08:04:33Z</time>
<speed>1.4</speed>
</trkpt>
<trkpt lat="47.362798" lon="8.773369">
<ele>539.0</ele>
<time>2003-07-19T08:04:38Z</time>
<speed>1.1</speed>
</trkpt>
<trkpt lat="47.362797" lon="8.773463">
<ele>539.1</ele>
<time>2003-07-19T08:04:43Z</time>
<speed>1.1</speed>
</trkpt>
<trkpt lat="47.362789" lon="8.773567">
<ele>539.9</ele>
<time>2003-07-19T08:04:48Z</time>
<speed>1.7</speed>
</trkpt>
<trkpt lat="47.362788" lon="8.773674">
<ele>540.0</ele>
<time>2003-07-19T08:04:53Z</time>
<speed>1.1</speed>
</trkpt>
<trkpt lat="47.362806" lon="8.773772">
<ele>539.5</ele>
<time>2003-07-19T08:04:58Z</time>
<speed>1.1</speed>
</trkpt>
<trkpt lat="47.362839" lon="8.773843">
<ele>540.2</ele>
<time>2003-07-19T08:05:03Z</time>
<speed>1.4</speed>
</trkpt>
<trkpt lat="47.362891" lon="8.773934">
<ele>539.0</ele>
<time>2003-07-19T08:05:08Z</time>
<speed>1.4</speed>
</trkpt>
<trkpt lat="47.362938" lon="8.773996">
<ele>538.3</ele>
<time>2003-07-19T08:05:13Z</time>
<speed>1.4</speed>
</trkpt>
<trkpt lat="47.362998" lon="8.774045">
<ele>538.9</ele>
<time>2003-07-19T08:05:18Z</time>
<speed>1.1</speed>
</trkpt>
<trkpt lat="47.363053" lon="8.774082">
<ele>538.7</ele>
<time>2003-07-19T08:05:23Z</time>
<speed>1.1</speed>
</trkpt>
<trkpt lat="47.363121" lon="8.774122">
<ele>537.2</ele>
<time>2003-07-19T08:05:28Z</time>
<speed>1.4</speed>
</trkpt>
<trkpt lat="47.363183" lon="8.774147">
<ele>536.2</ele>
<time>2003-07-19T08:05:33Z</time>
<speed>1.4</speed>
</trkpt>
<trkpt lat="47.363245" lon="8.774183">
<ele>536.8</ele>
<time>2003-07-19T08:05:38Z</time>
<speed>1.4</speed>
</trkpt>
<trkpt lat="47.363313" lon="8.774209">
<ele>536.5</ele>
<time>2003-07-19T08:05:43Z</time>
<speed>1.4</speed>
</trkpt>
<trkpt lat="47.363374" lon="8.774245">
<ele>537.1</ele>
<time>2003-07-19T08:05:48Z</time>
<speed>1.1</speed>
</trkpt>
<trkpt lat="47.363434" lon="8.774294">
<ele>537.7</ele>
<time>2003-07-19T08:05:53Z</time>
<speed>1.4</speed>
</trkpt>
<trkpt lat="47.363490" lon="8.774330">
<ele>537.5</ele>
<time>2003-07-19T08:05:58Z</time>
<speed>0.8</speed>
</trkpt>
<trkpt lat="47.363537" lon="8.774380">
<ele>536.7</ele>
<time>2003-07-19T08:06:03Z</time>
<speed>1.1</speed>
</trkpt>
<trkpt lat="47.363584" lon="8.774442">
<ele>536.0</ele>
<time>2003-07-19T08:06:08Z</time>
<speed>1.1</speed>
</trkpt>
<trkpt lat="47.363631" lon="8.774503">
<ele>536.6</ele>
<time>2003-07-19T08:06:13Z</time>
<speed>1.1</speed>
</trkpt>
<trkpt lat="47.363677" lon="8.774578">
<ele>536.0</ele>
<time>2003-07-19T08:06:18Z</time>
<speed>1.1</speed>
</trkpt>
<trkpt lat="47.363730" lon="8.774641">
<ele>536.0</ele>
<time>2003-07-19T08:06:23Z</time>
<speed>1.1</speed>
</trkpt>
<trkpt lat="47.363768" lon="8.774727">
<ele>536.2</ele>
<time>2003-07-19T08:06:28Z</time>
<speed>1.1</speed>
</trkpt>
<trkpt lat="47.363808" lon="8.774801">
<ele>536.2</ele>
<time>2003-07-19T08:06:33Z</time>
<speed>1.1</speed>
</trkpt>
<trkpt lat="47.363834" lon="8.774872">
<ele>536.2</ele>
<time>2003-07-19T08:06:38Z</time>
<speed>1.1</speed>
</trkpt>
<trkpt lat="47.363855" lon="8.774942">
<ele>536.8</ele>
<time>2003-07-19T08:06:43Z</time>
<speed>0.6</speed>
</trkpt>
<trkpt lat="47.363859" lon="8.774970">
<ele>536.4</ele>
<time>2003-07-19T08:06:48Z</time>
<speed>0.0</speed>
</trkpt>
<trkpt lat="47.363859" lon="8.774970">
<ele>536.4</ele>
<time>2003-07-19T08:06:53Z</time>
<speed>0.0</speed>
</trkpt>
<trkpt lat="47.363859" lon="8.774970">
<ele>536.4</ele>
<time>2003-07-19T08:06:58Z</time>
<speed>0.0</speed>
</trkpt>
<trkpt lat="47.363859" lon="8.774970">
<ele>536.4</ele>
<time>2003-07-19T08:07:03Z</time>
<speed>0.0</speed>
</trkpt>
<trkpt lat="47.363859" lon="8.774970">
<ele>536.4</ele>
<time>2003-07-19T08:07:08Z</time>
<speed>0.0</speed>
</trkpt>
<trkpt lat="47.363859" lon="8.774970">
<ele>536.4</ele>
<time>2003-07-19T08:07:13Z</time>
<speed>0.0</speed>
</trkpt>
<trkpt lat="47.363865" lon="8.774970">
<ele>537.1</ele>
<time>2003-07-19T08:07:18Z</time>
<speed>0.0</speed>
</trkpt>
<trkpt lat="47.363865" lon="8.774970">
<ele>537.1</ele>
<time>2003-07-19T08:07:23Z</time>
<speed>0.0</speed>
</trkpt>
<trkpt lat="47.363865" lon="8.774970">
<ele>537.1</ele>
<time>2003-07-19T08:07:28Z</time>
<speed>0.0</speed>
</trkpt>
<trkpt lat="47.363865" lon="8.774970">
<ele>537.1</ele>
<time>2003-07-19T08:07:33Z</time>
<speed>0.0</speed>
</trkpt>
<trkpt lat="47.363865" lon="8.774970">
<ele>537.1</ele>
<time>2003-07-19T08:07:38Z</time>
<speed>0.0</speed>
</trkpt>
<trkpt lat="47.363865" lon="8.774970">
<ele>537.1</ele>
<time>2003-07-19T08:07:43Z</time>
<speed>0.3</speed>
</trkpt>
<trkpt lat="47.363862" lon="8.775009">
<ele>537.4</ele>
<time>2003-07-19T08:07:48Z</time>
<speed>0.8</speed>
</trkpt>
<trkpt lat="47.363877" lon="8.775065">
<ele>537.2</ele>
<time>2003-07-19T08:07:53Z</time>
<speed>1.1</speed>
</trkpt>
<trkpt lat="47.363900" lon="8.775109">
<ele>537.7</ele>
<time>2003-07-19T08:07:58Z</time>
<speed>0.0</speed>
</trkpt>
<trkpt lat="47.363900" lon="8.775109">
<ele>537.7</ele>
<time>2003-07-19T08:08:03Z</time>
<speed>0.3</speed>
</trkpt>
<trkpt lat="47.363927" lon="8.775167">
<ele>537.6</ele>
<time>2003-07-19T08:08:08Z</time>
<speed>1.1</speed>
</trkpt>
<trkpt lat="47.363947" lon="8.775252">
<ele>536.9</ele>
<time>2003-07-19T08:08:13Z</time>
<speed>1.4</speed>
</trkpt>
<trkpt lat="47.363974" lon="8.775323">
<ele>536.9</ele>
<time>2003-07-19T08:08:18Z</time>
<speed>1.1</speed>
</trkpt>
<trkpt lat="47.363992" lon="8.775421">
<ele>536.3</ele>
<time>2003-07-19T08:08:23Z</time>
<speed>1.4</speed>
</trkpt>
<trkpt lat="47.364017" lon="8.775518">
<ele>536.5</ele>
<time>2003-07-19T08:08:28Z</time>
<speed>1.1</speed>
</trkpt>
<trkpt lat="47.364043" lon="8.775603">
<ele>536.6</ele>
<time>2003-07-19T08:08:33Z</time>
<speed>1.1</speed>
</trkpt>
<trkpt lat="47.364075" lon="8.775687">
<ele>537.4</ele>
<time>2003-07-19T08:08:38Z</time>
<speed>1.1</speed>
</trkpt>
<trkpt lat="47.364100" lon="8.775772">
<ele>537.5</ele>
<time>2003-07-19T08:08:43Z</time>
<speed>1.1</speed>
</trkpt>
<trkpt lat="47.364140" lon="8.775845">
<ele>537.6</ele>
<time>2003-07-19T08:08:48Z</time>
<speed>1.4</speed>
</trkpt>
<trkpt lat="47.364193" lon="8.775908">
<ele>537.6</ele>
<time>2003-07-19T08:08:53Z</time>
<speed>1.1</speed>
</trkpt>
<trkpt lat="47.364206" lon="8.775990">
<ele>537.6</ele>
<time>2003-07-19T08:08:58Z</time>
<speed>1.1</speed>
</trkpt>
<trkpt lat="47.364211" lon="8.776084">
<ele>538.4</ele>
<time>2003-07-19T08:09:03Z</time>
<speed>1.1</speed>
</trkpt>
<trkpt lat="47.364224" lon="8.776180">
<ele>538.5</ele>
<time>2003-07-19T08:09:08Z</time>
<speed>1.1</speed>
</trkpt>
<trkpt lat="47.364243" lon="8.776264">
<ele>537.8</ele>
<time>2003-07-19T08:09:13Z</time>
<speed>1.1</speed>
</trkpt>
<trkpt lat="47.364261" lon="8.776360">
<ele>538.7</ele>
<time>2003-07-19T08:09:18Z</time>
<speed>1.4</speed>
</trkpt>
<trkpt lat="47.364287" lon="8.776444">
<ele>538.8</ele>
<time>2003-07-19T08:09:23Z</time>
<speed>1.1</speed>
</trkpt>
<trkpt lat="47.364309" lon="8.776503">
<ele>537.9</ele>
<time>2003-07-19T08:09:28Z</time>
<speed>0.6</speed>
</trkpt>
<trkpt lat="47.364328" lon="8.776585">
<ele>538.7</ele>
<time>2003-07-19T08:09:33Z</time>
<speed>0.8</speed>
</trkpt>
<trkpt lat="47.364330" lon="8.776653">
<ele>538.5</ele>
<time>2003-07-19T08:09:38Z</time>
<speed>0.8</speed>
</trkpt>
<trkpt lat="47.364349" lon="8.776737">
<ele>537.9</ele>
<time>2003-07-19T08:09:43Z</time>
<speed>1.1</speed>
</trkpt>
<trkpt lat="47.364368" lon="8.776820">
<ele>538.6</ele>
<time>2003-07-19T08:09:48Z</time>
<speed>1.1</speed>
</trkpt>
<trkpt lat="47.364390" lon="8.776878">
<ele>537.8</ele>
<time>2003-07-19T08:09:53Z</time>
<speed>0.6</speed>
</trkpt>
<trkpt lat="47.364395" lon="8.776891">
<ele>538.6</ele>
<time>2003-07-19T08:09:58Z</time>
<speed>0.0</speed>
</trkpt>
<trkpt lat="47.364395" lon="8.776891">
<ele>538.6</ele>
<time>2003-07-19T08:10:03Z</time>
<speed>0.0</speed>
</trkpt>
<trkpt lat="47.364395" lon="8.776891">
<ele>538.6</ele>
<time>2003-07-19T08:10:08Z</time>
<speed>0.0</speed>
</trkpt>
<trkpt lat="47.364389" lon="8.776891">
<ele>537.9</ele>
<time>2003-07-19T08:10:13Z</time>
<speed>0.0</speed>
</trkpt>
<trkpt lat="47.364405" lon="8.776935">
<ele>537.6</ele>
<time>2003-07-19T08:10:18Z</time>
<speed>0.8</speed>
</trkpt>
<trkpt lat="47.364420" lon="8.776991">
<ele>537.4</ele>
<time>2003-07-19T08:10:23Z</time>
<speed>0.6</speed>
</trkpt>
<trkpt lat="47.364420" lon="8.776991">
<ele>537.4</ele>
<time>2003-07-19T08:10:28Z</time>
<speed>0.0</speed>
</trkpt>
<trkpt lat="47.364420" lon="8.776991">
<ele>537.4</ele>
<time>2003-07-19T08:10:33Z</time>
<speed>0.0</speed>
</trkpt>
<trkpt lat="47.364420" lon="8.776991">
<ele>537.4</ele>
<time>2003-07-19T08:10:38Z</time>
<speed>0.0</speed>
</trkpt>
<trkpt lat="47.364420" lon="8.776991">
<ele>537.4</ele>
<time>2003-07-19T08:10:43Z</time>
<speed>0.3</speed>
</trkpt>
<trkpt lat="47.364427" lon="8.776993">
<ele>536.7</ele>
<time>2003-07-19T08:10:48Z</time>
<speed>0.0</speed>
</trkpt>
<trkpt lat="47.364425" lon="8.777019">
<ele>536.9</ele>
<time>2003-07-19T08:10:53Z</time>
<speed>0.0</speed>
</trkpt>
<trkpt lat="47.364425" lon="8.777019">
<ele>536.9</ele>
<time>2003-07-19T08:10:58Z</time>
<speed>0.0</speed>
</trkpt>
<trkpt lat="47.364427" lon="8.777073">
<ele>536.7</ele>
<time>2003-07-19T08:11:03Z</time>
<speed>0.6</speed>
</trkpt>
<trkpt lat="47.364429" lon="8.777126">
<ele>537.8</ele>
<time>2003-07-19T08:11:08Z</time>
<speed>0.8</speed>
</trkpt>
<trkpt lat="47.364431" lon="8.777193">
<ele>537.7</ele>
<time>2003-07-19T08:11:13Z</time>
<speed>0.8</speed>
</trkpt>
<trkpt lat="47.364433" lon="8.777248">
<ele>537.4</ele>
<time>2003-07-19T08:11:18Z</time>
<speed>0.8</speed>
</trkpt>
<trkpt lat="47.364428" lon="8.777313">
<ele>537.9</ele>
<time>2003-07-19T08:11:23Z</time>
<speed>0.8</speed>
</trkpt>
<trkpt lat="47.364430" lon="8.777380">
<ele>537.8</ele>
<time>2003-07-19T08:11:28Z</time>
<speed>0.3</speed>
</trkpt>
<trkpt lat="47.364428" lon="8.777407">
<ele>538.0</ele>
<time>2003-07-19T08:11:33Z</time>
<speed>0.0</speed>
</trkpt>
<trkpt lat="47.364424" lon="8.777461">
<ele>537.0</ele>
<time>2003-07-19T08:11:38Z</time>
<speed>0.8</speed>
</trkpt>
<trkpt lat="47.364419" lon="8.777526">
<ele>537.5</ele>
<time>2003-07-19T08:11:43Z</time>
<speed>0.8</speed>
</trkpt>
<trkpt lat="47.364402" lon="8.777590">
<ele>537.9</ele>
<time>2003-07-19T08:11:48Z</time>
<speed>0.8</speed>
</trkpt>
<trkpt lat="47.364396" lon="8.777655">
<ele>538.5</ele>
<time>2003-07-19T08:11:53Z</time>
<speed>0.0</speed>
</trkpt>
<trkpt lat="47.364374" lon="8.777705">
<ele>538.1</ele>
<time>2003-07-19T08:11:58Z</time>
<speed>1.1</speed>
</trkpt>
<trkpt lat="47.364342" lon="8.777780">
<ele>538.6</ele>
<time>2003-07-19T08:12:03Z</time>
<speed>0.8</speed>
</trkpt>
<trkpt lat="47.364319" lon="8.777843">
<ele>538.3</ele>
<time>2003-07-19T08:12:08Z</time>
<speed>0.8</speed>
</trkpt>
<trkpt lat="47.364308" lon="8.777896">
<ele>538.0</ele>
<time>2003-07-19T08:12:13Z</time>
<speed>0.8</speed>
</trkpt>
<trkpt lat="47.364297" lon="8.777961">
<ele>537.7</ele>
<time>2003-07-19T08:12:18Z</time>
<speed>0.8</speed>
</trkpt>
<trkpt lat="47.364285" lon="8.778039">
<ele>537.6</ele>
<time>2003-07-19T08:12:23Z</time>
<speed>1.1</speed>
</trkpt>
<trkpt lat="47.364280" lon="8.778105">
<ele>538.1</ele>
<time>2003-07-19T08:12:28Z</time>
<speed>0.8</speed>
</trkpt>
<trkpt lat="47.364268" lon="8.778183">
<ele>538.0</ele>
<time>2003-07-19T08:12:33Z</time>
<speed>0.8</speed>
</trkpt>
<trkpt lat="47.364268" lon="8.778264">
<ele>538.0</ele>
<time>2003-07-19T08:12:38Z</time>
<speed>0.8</speed>
</trkpt>
<trkpt lat="47.364256" lon="8.778342">
<ele>537.9</ele>
<time>2003-07-19T08:12:43Z</time>
<speed>0.8</speed>
</trkpt>
<trkpt lat="47.364269" lon="8.778425">
<ele>537.9</ele>
<time>2003-07-19T08:12:48Z</time>
<speed>0.8</speed>
</trkpt>
<trkpt lat="47.364263" lon="8.778503">
<ele>538.5</ele>
<time>2003-07-19T08:12:53Z</time>
<speed>0.8</speed>
</trkpt>
<trkpt lat="47.364251" lon="8.778582">
<ele>538.4</ele>
<time>2003-07-19T08:12:58Z</time>
<speed>1.1</speed>
</trkpt>
<trkpt lat="47.364237" lon="8.778687">
<ele>538.5</ele>
<time>2003-07-19T08:13:03Z</time>
<speed>1.4</speed>
</trkpt>
<trkpt lat="47.364222" lon="8.778804">
<ele>538.7</ele>
<time>2003-07-19T08:13:08Z</time>
<speed>1.1</speed>
</trkpt>
<trkpt lat="47.364234" lon="8.778900">
<ele>538.8</ele>
<time>2003-07-19T08:13:13Z</time>
<speed>1.1</speed>
</trkpt>
<trkpt lat="47.364267" lon="8.778971">
<ele>539.5</ele>
<time>2003-07-19T08:13:18Z</time>
<speed>1.4</speed>
</trkpt>
<trkpt lat="47.364328" lon="8.779008">
<ele>540.0</ele>
<time>2003-07-19T08:13:23Z</time>
<speed>1.1</speed>
</trkpt>
<trkpt lat="47.364374" lon="8.779068">
<ele>540.7</ele>
<time>2003-07-19T08:13:28Z</time>
<speed>1.1</speed>
</trkpt>
<trkpt lat="47.364414" lon="8.779142">
<ele>540.8</ele>
<time>2003-07-19T08:13:33Z</time>
<speed>1.1</speed>
</trkpt>
<trkpt lat="47.364427" lon="8.779224">
<ele>540.8</ele>
<time>2003-07-19T08:13:38Z</time>
<speed>1.1</speed>
</trkpt>
<trkpt lat="47.364447" lon="8.779309">
<ele>540.1</ele>
<time>2003-07-19T08:13:43Z</time>
<speed>1.1</speed>
</trkpt>
<trkpt lat="47.364454" lon="8.779391">
<ele>539.4</ele>
<time>2003-07-19T08:13:48Z</time>
<speed>1.1</speed>
</trkpt>
<trkpt lat="47.364466" lon="8.779487">
<ele>539.5</ele>
<time>2003-07-19T08:13:53Z</time>
<speed>0.8</speed>
</trkpt>
<trkpt lat="47.364472" lon="8.779567">
<ele>540.2</ele>
<time>2003-07-19T08:13:58Z</time>
<speed>0.8</speed>
</trkpt>
<trkpt lat="47.364453" lon="8.779659">
<ele>539.5</ele>
<time>2003-07-19T08:14:03Z</time>
<speed>1.1</speed>
</trkpt>
<trkpt lat="47.364432" lon="8.779762">
<ele>540.2</ele>
<time>2003-07-19T08:14:08Z</time>
<speed>1.1</speed>
</trkpt>
<trkpt lat="47.364426" lon="8.779855">
<ele>539.6</ele>
<time>2003-07-19T08:14:13Z</time>
<speed>1.1</speed>
</trkpt>
<trkpt lat="47.364413" lon="8.779947">
<ele>539.5</ele>
<time>2003-07-19T08:14:18Z</time>
<speed>1.1</speed>
</trkpt>
<trkpt lat="47.364404" lon="8.780051">
<ele>540.4</ele>
<time>2003-07-19T08:14:23Z</time>
<speed>1.1</speed>
</trkpt>
<trkpt lat="47.364392" lon="8.780130">
<ele>540.3</ele>
<time>2003-07-19T08:14:28Z</time>
<speed>1.1</speed>
</trkpt>
<trkpt lat="47.364372" lon="8.780233">
<ele>541.0</ele>
<time>2003-07-19T08:14:33Z</time>
<speed>1.4</speed>
</trkpt>
<trkpt lat="47.364352" lon="8.780324">
<ele>540.3</ele>
<time>2003-07-19T08:14:38Z</time>
<speed>1.1</speed>
</trkpt>
<trkpt lat="47.364333" lon="8.780416">
<ele>539.5</ele>
<time>2003-07-19T08:14:43Z</time>
<speed>1.1</speed>
</trkpt>
<trkpt lat="47.364313" lon="8.780505">
<ele>540.2</ele>
<time>2003-07-19T08:14:48Z</time>
<speed>1.4</speed>
</trkpt>
<trkpt lat="47.364281" lon="8.780595">
<ele>539.4</ele>
<time>2003-07-19T08:14:53Z</time>
<speed>1.1</speed>
</trkpt>
<trkpt lat="47.364256" lon="8.780684">
<ele>539.3</ele>
<time>2003-07-19T08:14:58Z</time>
<speed>1.4</speed>
</trkpt>
<trkpt lat="47.364231" lon="8.780761">
<ele>539.1</ele>
<time>2003-07-19T08:15:03Z</time>
<speed>1.1</speed>
</trkpt>
<trkpt lat="47.364193" lon="8.780835">
<ele>538.9</ele>
<time>2003-07-19T08:15:08Z</time>
<speed>1.1</speed>
</trkpt>
<trkpt lat="47.364162" lon="8.780925">
<ele>538.0</ele>
<time>2003-07-19T08:15:13Z</time>
<speed>1.1</speed>
</trkpt>
<trkpt lat="47.364131" lon="8.780986">
<ele>538.4</ele>
<time>2003-07-19T08:15:18Z</time>
<speed>0.8</speed>
</trkpt>
<trkpt lat="47.364094" lon="8.781061">
<ele>538.2</ele>
<time>2003-07-19T08:15:23Z</time>
<speed>1.4</speed>
</trkpt>
<trkpt lat="47.364051" lon="8.781120">
<ele>538.5</ele>
<time>2003-07-19T08:15:28Z</time>
<speed>1.1</speed>
</trkpt>
<trkpt lat="47.364007" lon="8.781192">
<ele>538.9</ele>
<time>2003-07-19T08:15:33Z</time>
<speed>1.4</speed>
</trkpt>
<trkpt lat="47.363966" lon="8.781226">
<ele>539.0</ele>
<time>2003-07-19T08:15:38Z</time>
<speed>0.0</speed>
</trkpt>
<trkpt lat="47.363966" lon="8.781226">
<ele>539.0</ele>
<time>2003-07-19T08:15:43Z</time>
<speed>0.0</speed>
</trkpt>
<trkpt lat="47.363944" lon="8.781263">
<ele>538.5</ele>
<time>2003-07-19T08:15:48Z</time>
<speed>1.1</speed>
</trkpt>
<trkpt lat="47.363901" lon="8.781322">
<ele>538.9</ele>
<time>2003-07-19T08:15:53Z</time>
<speed>1.1</speed>
</trkpt>
<trkpt lat="47.363857" lon="8.781395">
<ele>539.3</ele>
<time>2003-07-19T08:15:58Z</time>
<speed>1.4</speed>
</trkpt>
<trkpt lat="47.363808" lon="8.781454">
<ele>538.9</ele>
<time>2003-07-19T08:16:03Z</time>
<speed>1.1</speed>
</trkpt>
<trkpt lat="47.363759" lon="8.781513">
<ele>538.4</ele>
<time>2003-07-19T08:16:08Z</time>
<speed>1.4</speed>
</trkpt>
<trkpt lat="47.363704" lon="8.781571">
<ele>538.7</ele>
<time>2003-07-19T08:16:13Z</time>
<speed>1.4</speed>
</trkpt>
<trkpt lat="47.363661" lon="8.781632">
<ele>537.6</ele>
<time>2003-07-19T08:16:18Z</time>
<speed>1.4</speed>
</trkpt>
<trkpt lat="47.363599" lon="8.781687">
<ele>538.5</ele>
<time>2003-07-19T08:16:23Z</time>
<speed>1.4</speed>
</trkpt>
<trkpt lat="47.363544" lon="8.781745">
<ele>538.8</ele>
<time>2003-07-19T08:16:28Z</time>
<speed>1.1</speed>
</trkpt>
<trkpt lat="47.363495" lon="8.781804">
<ele>538.4</ele>
<time>2003-07-19T08:16:33Z</time>
<speed>1.4</speed>
</trkpt>
<trkpt lat="47.363445" lon="8.781876">
<ele>538.0</ele>
<time>2003-07-19T08:16:38Z</time>
<speed>1.1</speed>
</trkpt>
<trkpt lat="47.363402" lon="8.781936">
<ele>538.4</ele>
<time>2003-07-19T08:16:43Z</time>
<speed>1.4</speed>
</trkpt>
<trkpt lat="47.363358" lon="8.782010">
<ele>537.4</ele>
<time>2003-07-19T08:16:48Z</time>
<speed>1.4</speed>
</trkpt>
<trkpt lat="47.363309" lon="8.782068">
<ele>538.4</ele>
<time>2003-07-19T08:16:53Z</time>
<speed>1.1</speed>
</trkpt>
<trkpt lat="47.363266" lon="8.782127">
<ele>538.7</ele>
<time>2003-07-19T08:16:58Z</time>
<speed>1.1</speed>
</trkpt>
<trkpt lat="47.363204" lon="8.782182">
<ele>539.6</ele>
<time>2003-07-19T08:17:04Z</time>
<speed>0.8</speed>
</trkpt>
<trkpt lat="47.363149" lon="8.782226">
<ele>539.8</ele>
<time>2003-07-19T08:17:09Z</time>
<speed>1.1</speed>
</trkpt>
<trkpt lat="47.363099" lon="8.782284">
<ele>540.7</ele>
<time>2003-07-19T08:17:14Z</time>
<speed>1.4</speed>
</trkpt>
<trkpt lat="47.363031" lon="8.782339">
<ele>540.9</ele>
<time>2003-07-19T08:17:19Z</time>
<speed>1.1</speed>
</trkpt>
<trkpt lat="47.362988" lon="8.782398">
<ele>541.3</ele>
<time>2003-07-19T08:17:24Z</time>
<speed>1.1</speed>
</trkpt>
<trkpt lat="47.362945" lon="8.782473">
<ele>540.3</ele>
<time>2003-07-19T08:17:29Z</time>
<speed>0.8</speed>
</trkpt>
<trkpt lat="47.362902" lon="8.782534">
<ele>539.2</ele>
<time>2003-07-19T08:17:34Z</time>
<speed>1.1</speed>
</trkpt>
<trkpt lat="47.362859" lon="8.782592">
<ele>540.9</ele>
<time>2003-07-19T08:17:39Z</time>
<speed>0.8</speed>
</trkpt>
<trkpt lat="47.362805" lon="8.782638">
<ele>539.6</ele>
<time>2003-07-19T08:17:44Z</time>
<speed>1.1</speed>
</trkpt>
<trkpt lat="47.362737" lon="8.782693">
<ele>539.8</ele>
<time>2003-07-19T08:17:49Z</time>
<speed>1.1</speed>
</trkpt>
<trkpt lat="47.362681" lon="8.782750">
<ele>540.1</ele>
<time>2003-07-19T08:17:54Z</time>
<speed>1.1</speed>
</trkpt>
<trkpt lat="47.362625" lon="8.782808">
<ele>540.3</ele>
<time>2003-07-19T08:17:59Z</time>
<speed>1.4</speed>
</trkpt>
<trkpt lat="47.362570" lon="8.782865">
<ele>540.6</ele>
<time>2003-07-19T08:18:04Z</time>
<speed>1.4</speed>
</trkpt>
<trkpt lat="47.362514" lon="8.782922">
<ele>540.8</ele>
<time>2003-07-19T08:18:09Z</time>
<speed>1.4</speed>
</trkpt>
<trkpt lat="47.362459" lon="8.782980">
<ele>541.1</ele>
<time>2003-07-19T08:18:14Z</time>
<speed>1.1</speed>
</trkpt>
<trkpt lat="47.362410" lon="8.783039">
<ele>540.7</ele>
<time>2003-07-19T08:18:19Z</time>
<speed>1.1</speed>
</trkpt>
<trkpt lat="47.362361" lon="8.783098">
<ele>540.3</ele>
<time>2003-07-19T08:18:24Z</time>
<speed>1.1</speed>
</trkpt>
<trkpt lat="47.362299" lon="8.783154">
<ele>541.2</ele>
<time>2003-07-19T08:18:29Z</time>
<speed>1.4</speed>
</trkpt>
<trkpt lat="47.362243" lon="8.783211">
<ele>541.4</ele>
<time>2003-07-19T08:18:34Z</time>
<speed>1.4</speed>
</trkpt>
<trkpt lat="47.362177" lon="8.783240">
<ele>541.4</ele>
<time>2003-07-19T08:18:39Z</time>
<speed>1.4</speed>
</trkpt>
<trkpt lat="47.362121" lon="8.783297">
<ele>541.7</ele>
<time>2003-07-19T08:18:44Z</time>
<speed>1.1</speed>
</trkpt>
<trkpt lat="47.362059" lon="8.783353">
<ele>542.6</ele>
<time>2003-07-19T08:18:49Z</time>
<speed>1.4</speed>
</trkpt>
<trkpt lat="47.362004" lon="8.783410">
<ele>542.8</ele>
<time>2003-07-19T08:18:54Z</time>
<speed>1.4</speed>
</trkpt>
<trkpt lat="47.361947" lon="8.783481">
<ele>543.2</ele>
<time>2003-07-19T08:18:59Z</time>
<speed>1.4</speed>
</trkpt>
<trkpt lat="47.361886" lon="8.783523">
<ele>544.0</ele>
<time>2003-07-19T08:19:04Z</time>
<speed>1.4</speed>
</trkpt>
<trkpt lat="47.361832" lon="8.783554">
<ele>544.1</ele>
<time>2003-07-19T08:19:09Z</time>
<speed>1.1</speed>
</trkpt>
<trkpt lat="47.361772" lon="8.783598">
<ele>543.5</ele>
<time>2003-07-19T08:19:14Z</time>
<speed>1.1</speed>
</trkpt>
<trkpt lat="47.361723" lon="8.783642">
<ele>544.4</ele>
<time>2003-07-19T08:19:19Z</time>
<speed>1.1</speed>
</trkpt>
<trkpt lat="47.361664" lon="8.783674">
<ele>543.7</ele>
<time>2003-07-19T08:19:24Z</time>
<speed>1.4</speed>
</trkpt>
<trkpt lat="47.361610" lon="8.783705">
<ele>543.7</ele>
<time>2003-07-19T08:19:29Z</time>
<speed>1.1</speed>
</trkpt>
<trkpt lat="47.361555" lon="8.783749">
<ele>543.9</ele>
<time>2003-07-19T08:19:34Z</time>
<speed>1.1</speed>
</trkpt>
<trkpt lat="47.361501" lon="8.783793">
<ele>544.0</ele>
<time>2003-07-19T08:19:39Z</time>
<speed>1.4</speed>
</trkpt>
<trkpt lat="47.361451" lon="8.783866">
<ele>543.7</ele>
<time>2003-07-19T08:19:44Z</time>
<speed>1.1</speed>
</trkpt>
<trkpt lat="47.361412" lon="8.783953">
<ele>543.6</ele>
<time>2003-07-19T08:19:49Z</time>
<speed>1.4</speed>
</trkpt>
<trkpt lat="47.361380" lon="8.784041">
<ele>544.1</ele>
<time>2003-07-19T08:19:54Z</time>
<speed>1.4</speed>
</trkpt>
<trkpt lat="47.361354" lon="8.784130">
<ele>544.1</ele>
<time>2003-07-19T08:19:59Z</time>
<speed>1.4</speed>
</trkpt>
<trkpt lat="47.361341" lon="8.784222">
<ele>544.1</ele>
<time>2003-07-19T08:20:04Z</time>
<speed>1.1</speed>
</trkpt>
<trkpt lat="47.361314" lon="8.784324">
<ele>544.1</ele>
<time>2003-07-19T08:20:09Z</time>
<speed>1.4</speed>
</trkpt>
<trkpt lat="47.361295" lon="8.784414">
<ele>544.7</ele>
<time>2003-07-19T08:20:14Z</time>
<speed>1.1</speed>
</trkpt>
<trkpt lat="47.361293" lon="8.784519">
<ele>546.3</ele>
<time>2003-07-19T08:20:19Z</time>
<speed>1.1</speed>
</trkpt>
<trkpt lat="47.361291" lon="8.784625">
<ele>546.5</ele>
<time>2003-07-19T08:20:24Z</time>
<speed>0.8</speed>
</trkpt>
<trkpt lat="47.361310" lon="8.784723">
<ele>545.9</ele>
<time>2003-07-19T08:20:29Z</time>
<speed>1.1</speed>
</trkpt>
<trkpt lat="47.361329" lon="8.784807">
<ele>545.3</ele>
<time>2003-07-19T08:20:34Z</time>
<speed>1.1</speed>
</trkpt>
<trkpt lat="47.361342" lon="8.784890">
<ele>545.3</ele>
<time>2003-07-19T08:20:39Z</time>
<speed>0.8</speed>
</trkpt>
<trkpt lat="47.361354" lon="8.784986">
<ele>545.4</ele>
<time>2003-07-19T08:20:44Z</time>
<speed>0.8</speed>
</trkpt>
<trkpt lat="47.361362" lon="8.785068">
<ele>544.7</ele>
<time>2003-07-19T08:20:49Z</time>
<speed>0.8</speed>
</trkpt>
<trkpt lat="47.361355" lon="8.785162">
<ele>544.0</ele>
<time>2003-07-19T08:20:54Z</time>
<speed>0.8</speed>
</trkpt>
<trkpt lat="47.361340" lon="8.785279">
<ele>544.2</ele>
<time>2003-07-19T08:20:59Z</time>
<speed>0.8</speed>
</trkpt>
<trkpt lat="47.361320" lon="8.785371">
<ele>543.4</ele>
<time>2003-07-19T08:21:04Z</time>
<speed>0.8</speed>
</trkpt>
<trkpt lat="47.361309" lon="8.785436">
<ele>543.2</ele>
<time>2003-07-19T08:21:09Z</time>
<speed>0.8</speed>
</trkpt>
<trkpt lat="47.361294" lon="8.785554">
<ele>543.4</ele>
<time>2003-07-19T08:21:14Z</time>
<speed>0.8</speed>
</trkpt>
<trkpt lat="47.361288" lon="8.785633">
<ele>544.0</ele>
<time>2003-07-19T08:21:19Z</time>
<speed>0.8</speed>
</trkpt>
<trkpt lat="47.361289" lon="8.785713">
<ele>544.0</ele>
<time>2003-07-19T08:21:24Z</time>
<speed>0.6</speed>
</trkpt>
<trkpt lat="47.361274" lon="8.785816">
<ele>545.5</ele>
<time>2003-07-19T08:21:29Z</time>
<speed>0.8</speed>
</trkpt>
<trkpt lat="47.361259" lon="8.785918">
<ele>547.0</ele>
<time>2003-07-19T08:21:34Z</time>
<speed>1.4</speed>
</trkpt>
<trkpt lat="47.361266" lon="8.785999">
<ele>547.7</ele>
<time>2003-07-19T08:21:39Z</time>
<speed>0.8</speed>
</trkpt>
<trkpt lat="47.361299" lon="8.786072">
<ele>547.0</ele>
<time>2003-07-19T08:21:44Z</time>
<speed>1.1</speed>
</trkpt>
<trkpt lat="47.361318" lon="8.786170">
<ele>546.4</ele>
<time>2003-07-19T08:21:49Z</time>
<speed>1.1</speed>
</trkpt>
<trkpt lat="47.361350" lon="8.786259">
<ele>544.4</ele>
<time>2003-07-19T08:21:54Z</time>
<speed>1.1</speed>
</trkpt>
<trkpt lat="47.361370" lon="8.786341">
<ele>545.2</ele>
<time>2003-07-19T08:21:59Z</time>
<speed>1.1</speed>
</trkpt>
<trkpt lat="47.361389" lon="8.786426">
<ele>544.6</ele>
<time>2003-07-19T08:22:04Z</time>
<speed>1.1</speed>
</trkpt>
<trkpt lat="47.361394" lon="8.786532">
<ele>545.4</ele>
<time>2003-07-19T08:22:09Z</time>
<speed>1.1</speed>
</trkpt>
<trkpt lat="47.361415" lon="8.786604">
<ele>544.7</ele>
<time>2003-07-19T08:22:14Z</time>
<speed>1.4</speed>
</trkpt>
<trkpt lat="47.361439" lon="8.786702">
<ele>544.9</ele>
<time>2003-07-19T08:22:19Z</time>
<speed>1.1</speed>
</trkpt>
<trkpt lat="47.361445" lon="8.786797">
<ele>544.3</ele>
<time>2003-07-19T08:22:24Z</time>
<speed>1.1</speed>
</trkpt>
<trkpt lat="47.361432" lon="8.786889">
<ele>544.3</ele>
<time>2003-07-19T08:22:29Z</time>
<speed>1.4</speed>
</trkpt>
<trkpt lat="47.361418" lon="8.786993">
<ele>544.3</ele>
<time>2003-07-19T08:22:34Z</time>
<speed>1.1</speed>
</trkpt>
<trkpt lat="47.361381" lon="8.787053">
<ele>545.4</ele>
<time>2003-07-19T08:22:39Z</time>
<speed>1.1</speed>
</trkpt>
<trkpt lat="47.361337" lon="8.787125">
<ele>545.8</ele>
<time>2003-07-19T08:22:44Z</time>
<speed>1.1</speed>
</trkpt>
<trkpt lat="47.361287" lon="8.787196">
<ele>546.9</ele>
<time>2003-07-19T08:22:49Z</time>
<speed>1.1</speed>
</trkpt>
<trkpt lat="47.361255" lon="8.787270">
<ele>547.4</ele>
<time>2003-07-19T08:22:54Z</time>
<speed>1.1</speed>
</trkpt>
<trkpt lat="47.361217" lon="8.787342">
<ele>548.6</ele>
<time>2003-07-19T08:22:59Z</time>
<speed>1.1</speed>
</trkpt>
<trkpt lat="47.361180" lon="8.787415">
<ele>549.7</ele>
<time>2003-07-19T08:23:04Z</time>
<speed>1.4</speed>
</trkpt>
<trkpt lat="47.361142" lon="8.787487">
<ele>550.9</ele>
<time>2003-07-19T08:23:09Z</time>
<speed>1.1</speed>
</trkpt>
<trkpt lat="47.361100" lon="8.787533">
<ele>551.1</ele>
<time>2003-07-19T08:23:14Z</time>
<speed>1.1</speed>
</trkpt>
<trkpt lat="47.361044" lon="8.787606">
<ele>550.0</ele>
<time>2003-07-19T08:23:19Z</time>
<speed>1.1</speed>
</trkpt>
<trkpt lat="47.360996" lon="8.787652">
<ele>549.5</ele>
<time>2003-07-19T08:23:24Z</time>
<speed>0.8</speed>
</trkpt>
<trkpt lat="47.360940" lon="8.787709">
<ele>549.8</ele>
<time>2003-07-19T08:23:29Z</time>
<speed>1.1</speed>
</trkpt>
<trkpt lat="47.360898" lon="8.787756">
<ele>550.0</ele>
<time>2003-07-19T08:23:34Z</time>
<speed>1.1</speed>
</trkpt>
<trkpt lat="47.360837" lon="8.787800">
<ele>549.4</ele>
<time>2003-07-19T08:23:39Z</time>
<speed>1.1</speed>
</trkpt>
<trkpt lat="47.360792" lon="8.787885">
<ele>549.9</ele>
<time>2003-07-19T08:23:44Z</time>
<speed>1.4</speed>
</trkpt>
<trkpt lat="47.360737" lon="8.787943">
<ele>550.2</ele>
<time>2003-07-19T08:23:49Z</time>
<speed>1.4</speed>
</trkpt>
<trkpt lat="47.360688" lon="8.788004">
<ele>548.4</ele>
<time>2003-07-19T08:23:54Z</time>
<speed>1.4</speed>
</trkpt>
<trkpt lat="47.360633" lon="8.788061">
<ele>548.6</ele>
<time>2003-07-19T08:23:59Z</time>
<speed>1.1</speed>
</trkpt>
<trkpt lat="47.360577" lon="8.788119">
<ele>548.9</ele>
<time>2003-07-19T08:24:04Z</time>
<speed>1.4</speed>
</trkpt>
<trkpt lat="47.360522" lon="8.788176">
<ele>549.1</ele>
<time>2003-07-19T08:24:09Z</time>
<speed>1.4</speed>
</trkpt>
<trkpt lat="47.360473" lon="8.788220">
<ele>550.0</ele>
<time>2003-07-19T08:24:14Z</time>
<speed>1.4</speed>
</trkpt>
<trkpt lat="47.360405" lon="8.788276">
<ele>550.2</ele>
<time>2003-07-19T08:24:19Z</time>
<speed>1.1</speed>
</trkpt>
<trkpt lat="47.360349" lon="8.788333">
<ele>550.4</ele>
<time>2003-07-19T08:24:24Z</time>
<speed>1.4</speed>
</trkpt>
<trkpt lat="47.360315" lon="8.788368">
<ele>549.9</ele>
<time>2003-07-19T08:24:29Z</time>
<speed>1.4</speed>
</trkpt>
<trkpt lat="47.360253" lon="8.788425">
<ele>549.4</ele>
<time>2003-07-19T08:24:34Z</time>
<speed>1.1</speed>
</trkpt>
<trkpt lat="47.360191" lon="8.788481">
<ele>550.3</ele>
<time>2003-07-19T08:24:39Z</time>
<speed>1.4</speed>
</trkpt>
<trkpt lat="47.360142" lon="8.788540">
<ele>549.9</ele>
<time>2003-07-19T08:24:44Z</time>
<speed>1.1</speed>
</trkpt>
<trkpt lat="47.360093" lon="8.788599">
<ele>549.5</ele>
<time>2003-07-19T08:24:49Z</time>
<speed>1.4</speed>
</trkpt>
<trkpt lat="47.360044" lon="8.788659">
<ele>549.1</ele>
<time>2003-07-19T08:24:54Z</time>
<speed>1.1</speed>
</trkpt>
<trkpt lat="47.359995" lon="8.788718">
<ele>548.7</ele>
<time>2003-07-19T08:24:59Z</time>
<speed>1.4</speed>
</trkpt>
<trkpt lat="47.359933" lon="8.788775">
<ele>548.2</ele>
<time>2003-07-19T08:25:04Z</time>
<speed>1.4</speed>
</trkpt>
<trkpt lat="47.359879" lon="8.788822">
<ele>546.9</ele>
<time>2003-07-19T08:25:09Z</time>
<speed>1.1</speed>
</trkpt>
<trkpt lat="47.359824" lon="8.788879">
<ele>547.2</ele>
<time>2003-07-19T08:25:14Z</time>
<speed>1.4</speed>
</trkpt>
<trkpt lat="47.359767" lon="8.788949">
<ele>547.5</ele>
<time>2003-07-19T08:25:19Z</time>
<speed>1.1</speed>
</trkpt>
<trkpt lat="47.359718" lon="8.789009">
<ele>547.1</ele>
<time>2003-07-19T08:25:24Z</time>
<speed>1.4</speed>
</trkpt>
<trkpt lat="47.359675" lon="8.789070">
<ele>546.0</ele>
<time>2003-07-19T08:25:29Z</time>
<speed>1.1</speed>
</trkpt>
<trkpt lat="47.359632" lon="8.789142">
<ele>546.4</ele>
<time>2003-07-19T08:25:34Z</time>
<speed>1.4</speed>
</trkpt>
<trkpt lat="47.359588" lon="8.789217">
<ele>545.5</ele>
<time>2003-07-19T08:25:39Z</time>
<speed>1.1</speed>
</trkpt>
<trkpt lat="47.359551" lon="8.789291">
<ele>545.2</ele>
<time>2003-07-19T08:25:44Z</time>
<speed>1.1</speed>
</trkpt>
<trkpt lat="47.359519" lon="8.789366">
<ele>545.7</ele>
<time>2003-07-19T08:25:49Z</time>
<speed>1.1</speed>
</trkpt>
<trkpt lat="47.359469" lon="8.789436">
<ele>546.8</ele>
<time>2003-07-19T08:25:54Z</time>
<speed>1.4</speed>
</trkpt>
<trkpt lat="47.359432" lon="8.789498">
<ele>546.4</ele>
<time>2003-07-19T08:25:59Z</time>
<speed>1.4</speed>
</trkpt>
<trkpt lat="47.359376" lon="8.789568">
<ele>546.8</ele>
<time>2003-07-19T08:26:04Z</time>
<speed>1.4</speed>
</trkpt>
<trkpt lat="47.359332" lon="8.789640">
<ele>547.2</ele>
<time>2003-07-19T08:26:09Z</time>
<speed>1.4</speed>
</trkpt>
<trkpt lat="47.359288" lon="8.789713">
<ele>547.6</ele>
<time>2003-07-19T08:26:14Z</time>
<speed>1.1</speed>
</trkpt>
<trkpt lat="47.359231" lon="8.789783">
<ele>548.0</ele>
<time>2003-07-19T08:26:19Z</time>
<speed>1.4</speed>
</trkpt>
<trkpt lat="47.359188" lon="8.789842">
<ele>548.3</ele>
<time>2003-07-19T08:26:24Z</time>
<speed>1.4</speed>
</trkpt>
<trkpt lat="47.359144" lon="8.789915">
<ele>548.7</ele>
<time>2003-07-19T08:26:29Z</time>
<speed>1.1</speed>
</trkpt>
<trkpt lat="47.359095" lon="8.789974">
<ele>548.3</ele>
<time>2003-07-19T08:26:34Z</time>
<speed>1.1</speed>
</trkpt>
<trkpt lat="47.359057" lon="8.790062">
<ele>548.2</ele>
<time>2003-07-19T08:26:39Z</time>
<speed>1.4</speed>
</trkpt>
<trkpt lat="47.359001" lon="8.790119">
<ele>548.4</ele>
<time>2003-07-19T08:26:44Z</time>
<speed>1.1</speed>
</trkpt>
<trkpt lat="47.358958" lon="8.790178">
<ele>548.8</ele>
<time>2003-07-19T08:26:49Z</time>
<speed>1.1</speed>
</trkpt>
<trkpt lat="47.358908" lon="8.790251">
<ele>548.4</ele>
<time>2003-07-19T08:26:54Z</time>
<speed>1.4</speed>
</trkpt>
<trkpt lat="47.358871" lon="8.790325">
<ele>548.2</ele>
<time>2003-07-19T08:26:59Z</time>
<speed>1.4</speed>
</trkpt>
<trkpt lat="47.358828" lon="8.790385">
<ele>548.5</ele>
<time>2003-07-19T08:27:04Z</time>
<speed>1.1</speed>
</trkpt>
<trkpt lat="47.358771" lon="8.790455">
<ele>548.9</ele>
<time>2003-07-19T08:27:09Z</time>
<speed>1.4</speed>
</trkpt>
<trkpt lat="47.358721" lon="8.790525">
<ele>550.0</ele>
<time>2003-07-19T08:27:14Z</time>
<speed>1.1</speed>
</trkpt>
<trkpt lat="47.358665" lon="8.790583">
<ele>550.2</ele>
<time>2003-07-19T08:27:19Z</time>
<speed>1.4</speed>
</trkpt>
<trkpt lat="47.358622" lon="8.790642">
<ele>550.5</ele>
<time>2003-07-19T08:27:24Z</time>
<speed>1.4</speed>
</trkpt>
<trkpt lat="47.358579" lon="8.790701">
<ele>550.9</ele>
<time>2003-07-19T08:27:29Z</time>
<speed>1.4</speed>
</trkpt>
<trkpt lat="47.358523" lon="8.790772">
<ele>551.2</ele>
<time>2003-07-19T08:27:34Z</time>
<speed>1.4</speed>
</trkpt>
<trkpt lat="47.358485" lon="8.790844">
<ele>552.4</ele>
<time>2003-07-19T08:27:39Z</time>
<speed>1.4</speed>
</trkpt>
<trkpt lat="47.358441" lon="8.790917">
<ele>552.8</ele>
<time>2003-07-19T08:27:44Z</time>
<speed>1.1</speed>
</trkpt>
<trkpt lat="47.358397" lon="8.790989">
<ele>553.2</ele>
<time>2003-07-19T08:27:49Z</time>
<speed>1.1</speed>
</trkpt>
<trkpt lat="47.358360" lon="8.791063">
<ele>553.0</ele>
<time>2003-07-19T08:27:54Z</time>
<speed>1.1</speed>
</trkpt>
<trkpt lat="47.358327" lon="8.791151">
<ele>553.6</ele>
<time>2003-07-19T08:27:59Z</time>
<speed>1.1</speed>
</trkpt>
<trkpt lat="47.358296" lon="8.791225">
<ele>554.1</ele>
<time>2003-07-19T08:28:04Z</time>
<speed>1.1</speed>
</trkpt>
<trkpt lat="47.358265" lon="8.791300">
<ele>554.5</ele>
<time>2003-07-19T08:28:09Z</time>
<speed>1.1</speed>
</trkpt>
<trkpt lat="47.358221" lon="8.791374">
<ele>553.6</ele>
<time>2003-07-19T08:28:14Z</time>
<speed>1.1</speed>
</trkpt>
<trkpt lat="47.358178" lon="8.791434">
<ele>553.9</ele>
<time>2003-07-19T08:28:19Z</time>
<speed>1.4</speed>
</trkpt>
<trkpt lat="47.358135" lon="8.791508">
<ele>552.9</ele>
<time>2003-07-19T08:28:24Z</time>
<speed>1.1</speed>
</trkpt>
<trkpt lat="47.358092" lon="8.791569">
<ele>551.8</ele>
<time>2003-07-19T08:28:29Z</time>
<speed>1.1</speed>
</trkpt>
<trkpt lat="47.358055" lon="8.791644">
<ele>551.6</ele>
<time>2003-07-19T08:28:34Z</time>
<speed>1.4</speed>
</trkpt>
<trkpt lat="47.358011" lon="8.791716">
<ele>552.0</ele>
<time>2003-07-19T08:28:39Z</time>
<speed>1.1</speed>
</trkpt>
<trkpt lat="47.357961" lon="8.791789">
<ele>551.7</ele>
<time>2003-07-19T08:28:44Z</time>
<speed>1.4</speed>
</trkpt>
<trkpt lat="47.357917" lon="8.791861">
<ele>552.1</ele>
<time>2003-07-19T08:28:49Z</time>
<speed>1.4</speed>
</trkpt>
<trkpt lat="47.357873" lon="8.791935">
<ele>551.1</ele>
<time>2003-07-19T08:28:54Z</time>
<speed>1.4</speed>
</trkpt>
<trkpt lat="47.357836" lon="8.792010">
<ele>550.9</ele>
<time>2003-07-19T08:28:59Z</time>
<speed>1.4</speed>
</trkpt>
<trkpt lat="47.357798" lon="8.792084">
<ele>550.6</ele>
<time>2003-07-19T08:29:04Z</time>
<speed>1.4</speed>
</trkpt>
<trkpt lat="47.357761" lon="8.792159">
<ele>550.4</ele>
<time>2003-07-19T08:29:09Z</time>
<speed>1.1</speed>
</trkpt>
<trkpt lat="47.357716" lon="8.792244">
<ele>550.9</ele>
<time>2003-07-19T08:29:14Z</time>
<speed>1.4</speed>
</trkpt>
<trkpt lat="47.357680" lon="8.792306">
<ele>550.5</ele>
<time>2003-07-19T08:29:19Z</time>
<speed>1.1</speed>
</trkpt>
<trkpt lat="47.357642" lon="8.792380">
<ele>550.3</ele>
<time>2003-07-19T08:29:24Z</time>
<speed>1.1</speed>
</trkpt>
<trkpt lat="47.357603" lon="8.792466">
<ele>551.6</ele>
<time>2003-07-19T08:29:29Z</time>
<speed>1.1</speed>
</trkpt>
<trkpt lat="47.357559" lon="8.792553">
<ele>550.7</ele>
<time>2003-07-19T08:29:34Z</time>
<speed>1.4</speed>
</trkpt>
<trkpt lat="47.357527" lon="8.792628">
<ele>551.2</ele>
<time>2003-07-19T08:29:39Z</time>
<speed>1.1</speed>
</trkpt>
<trkpt lat="47.357484" lon="8.792702">
<ele>550.2</ele>
<time>2003-07-19T08:29:44Z</time>
<speed>1.4</speed>
</trkpt>
<trkpt lat="47.357452" lon="8.792791">
<ele>549.4</ele>
<time>2003-07-19T08:29:49Z</time>
<speed>1.1</speed>
</trkpt>
<trkpt lat="47.357414" lon="8.792879">
<ele>549.2</ele>
<time>2003-07-19T08:29:54Z</time>
<speed>1.4</speed>
</trkpt>
<trkpt lat="47.357376" lon="8.792953">
<ele>549.0</ele>
<time>2003-07-19T08:29:59Z</time>
<speed>1.1</speed>
</trkpt>
<trkpt lat="47.357339" lon="8.793028">
<ele>548.7</ele>
<time>2003-07-19T08:30:04Z</time>
<speed>1.4</speed>
</trkpt>
<trkpt lat="47.357300" lon="8.793115">
<ele>548.6</ele>
<time>2003-07-19T08:30:09Z</time>
<speed>1.1</speed>
</trkpt>
<trkpt lat="47.357256" lon="8.793188">
<ele>549.0</ele>
<time>2003-07-19T08:30:14Z</time>
<speed>1.4</speed>
</trkpt>
<trkpt lat="47.357208" lon="8.793234">
<ele>548.5</ele>
<time>2003-07-19T08:30:19Z</time>
<speed>1.1</speed>
</trkpt>
<trkpt lat="47.357135" lon="8.793276">
<ele>547.9</ele>
<time>2003-07-19T08:30:24Z</time>
<speed>1.4</speed>
</trkpt>
<trkpt lat="47.357070" lon="8.793292">
<ele>547.7</ele>
<time>2003-07-19T08:30:29Z</time>
<speed>1.1</speed>
</trkpt>
<trkpt lat="47.357006" lon="8.793295">
<ele>547.5</ele>
<time>2003-07-19T08:30:34Z</time>
<speed>1.4</speed>
</trkpt>
<trkpt lat="47.356940" lon="8.793311">
<ele>547.4</ele>
<time>2003-07-19T08:30:39Z</time>
<speed>1.4</speed>
</trkpt>
<trkpt lat="47.356869" lon="8.793327">
<ele>546.5</ele>
<time>2003-07-19T08:30:44Z</time>
<speed>1.4</speed>
</trkpt>
<trkpt lat="47.356811" lon="8.793345">
<ele>545.7</ele>
<time>2003-07-19T08:30:49Z</time>
<speed>1.4</speed>
</trkpt>
<trkpt lat="47.356745" lon="8.793361">
<ele>545.6</ele>
<time>2003-07-19T08:30:54Z</time>
<speed>1.4</speed>
</trkpt>
<trkpt lat="47.356669" lon="8.793362">
<ele>545.3</ele>
<time>2003-07-19T08:30:59Z</time>
<speed>1.4</speed>
</trkpt>
<trkpt lat="47.356603" lon="8.793378">
<ele>545.2</ele>
<time>2003-07-19T08:31:04Z</time>
<speed>1.4</speed>
</trkpt>
<trkpt lat="47.356538" lon="8.793394">
<ele>545.1</ele>
<time>2003-07-19T08:31:09Z</time>
<speed>1.1</speed>
</trkpt>
<trkpt lat="47.356473" lon="8.793411">
<ele>544.9</ele>
<time>2003-07-19T08:31:14Z</time>
<speed>1.4</speed>
</trkpt>
<trkpt lat="47.356403" lon="8.793413">
<ele>544.0</ele>
<time>2003-07-19T08:31:19Z</time>
<speed>1.4</speed>
</trkpt>
<trkpt lat="47.356344" lon="8.793430">
<ele>544.6</ele>
<time>2003-07-19T08:31:24Z</time>
<speed>1.4</speed>
</trkpt>
<trkpt lat="47.356272" lon="8.793446">
<ele>543.7</ele>
<time>2003-07-19T08:31:29Z</time>
<speed>1.4</speed>
</trkpt>
<trkpt lat="47.356220" lon="8.793464">
<ele>543.7</ele>
<time>2003-07-19T08:31:34Z</time>
<speed>1.4</speed>
</trkpt>
<trkpt lat="47.356143" lon="8.793465">
<ele>543.4</ele>
<time>2003-07-19T08:31:39Z</time>
<speed>1.7</speed>
</trkpt>
<trkpt lat="47.356078" lon="8.793481">
<ele>543.3</ele>
<time>2003-07-19T08:31:44Z</time>
<speed>1.4</speed>
</trkpt>
<trkpt lat="47.356006" lon="8.793495">
<ele>543.8</ele>
<time>2003-07-19T08:31:49Z</time>
<speed>1.7</speed>
</trkpt>
<trkpt lat="47.355941" lon="8.793511">
<ele>543.7</ele>
<time>2003-07-19T08:31:54Z</time>
<speed>1.7</speed>
</trkpt>
<trkpt lat="47.355864" lon="8.793512">
<ele>543.4</ele>
<time>2003-07-19T08:31:59Z</time>
<speed>1.4</speed>
</trkpt>
<trkpt lat="47.355812" lon="8.793530">
<ele>543.3</ele>
<time>2003-07-19T08:32:04Z</time>
<speed>1.4</speed>
</trkpt>
<trkpt lat="47.355740" lon="8.793546">
<ele>542.5</ele>
<time>2003-07-19T08:32:09Z</time>
<speed>1.1</speed>
</trkpt>
<trkpt lat="47.355688" lon="8.793564">
<ele>542.4</ele>
<time>2003-07-19T08:32:14Z</time>
<speed>1.1</speed>
</trkpt>
<trkpt lat="47.355616" lon="8.793578">
<ele>543.0</ele>
<time>2003-07-19T08:32:19Z</time>
<speed>1.4</speed>
</trkpt>
<trkpt lat="47.355551" lon="8.793594">
<ele>542.8</ele>
<time>2003-07-19T08:32:24Z</time>
<speed>1.4</speed>
</trkpt>
<trkpt lat="47.355486" lon="8.793610">
<ele>542.7</ele>
<time>2003-07-19T08:32:29Z</time>
<speed>1.4</speed>
</trkpt>
<trkpt lat="47.355421" lon="8.793626">
<ele>542.6</ele>
<time>2003-07-19T08:32:34Z</time>
<speed>1.4</speed>
</trkpt>
<trkpt lat="47.355355" lon="8.793642">
<ele>542.5</ele>
<time>2003-07-19T08:32:39Z</time>
<speed>1.4</speed>
</trkpt>
<trkpt lat="47.355291" lon="8.793645">
<ele>542.2</ele>
<time>2003-07-19T08:32:44Z</time>
<speed>1.4</speed>
</trkpt>
<trkpt lat="47.355220" lon="8.793659">
<ele>542.8</ele>
<time>2003-07-19T08:32:49Z</time>
<speed>1.1</speed>
</trkpt>
<trkpt lat="47.355167" lon="8.793677">
<ele>542.7</ele>
<time>2003-07-19T08:32:54Z</time>
<speed>0.8</speed>
</trkpt>
<trkpt lat="47.355108" lon="8.793693">
<ele>543.3</ele>
<time>2003-07-19T08:32:59Z</time>
<speed>1.4</speed>
</trkpt>
<trkpt lat="47.355049" lon="8.793711">
<ele>542.5</ele>
<time>2003-07-19T08:33:04Z</time>
<speed>1.1</speed>
</trkpt>
<trkpt lat="47.354978" lon="8.793725">
<ele>543.1</ele>
<time>2003-07-19T08:33:09Z</time>
<speed>1.4</speed>
</trkpt>
<trkpt lat="47.354924" lon="8.793756">
<ele>543.1</ele>
<time>2003-07-19T08:33:14Z</time>
<speed>1.4</speed>
</trkpt>
<trkpt lat="47.354845" lon="8.793783">
<ele>543.1</ele>
<time>2003-07-19T08:33:19Z</time>
<speed>1.4</speed>
</trkpt>
<trkpt lat="47.354792" lon="8.793815">
<ele>543.1</ele>
<time>2003-07-19T08:33:24Z</time>
<speed>1.4</speed>
</trkpt>
<trkpt lat="47.354731" lon="8.793857">
<ele>543.9</ele>
<time>2003-07-19T08:33:29Z</time>
<speed>1.1</speed>
</trkpt>
<trkpt lat="47.354676" lon="8.793901">
<ele>544.1</ele>
<time>2003-07-19T08:33:34Z</time>
<speed>1.1</speed>
</trkpt>
<trkpt lat="47.354622" lon="8.793932">
<ele>544.1</ele>
<time>2003-07-19T08:33:39Z</time>
<speed>1.1</speed>
</trkpt>
<trkpt lat="47.354615" lon="8.793943">
<ele>544.9</ele>
<time>2003-07-19T08:33:44Z</time>
<speed>0.0</speed>
</trkpt>
<trkpt lat="47.354615" lon="8.793943">
<ele>544.9</ele>
<time>2003-07-19T08:33:49Z</time>
<speed>0.0</speed>
</trkpt>
<trkpt lat="47.354615" lon="8.793943">
<ele>544.9</ele>
<time>2003-07-19T08:33:54Z</time>
<speed>0.0</speed>
</trkpt>
<trkpt lat="47.354601" lon="8.793954">
<ele>544.9</ele>
<time>2003-07-19T08:33:59Z</time>
<speed>0.8</speed>
</trkpt>
<trkpt lat="47.354593" lon="8.793980">
<ele>544.4</ele>
<time>2003-07-19T08:34:04Z</time>
<speed>0.0</speed>
</trkpt>
<trkpt lat="47.354581" lon="8.793978">
<ele>544.3</ele>
<time>2003-07-19T08:34:09Z</time>
<speed>1.4</speed>
</trkpt>
<trkpt lat="47.354532" lon="8.794025">
<ele>543.8</ele>
<time>2003-07-19T08:34:14Z</time>
<speed>1.1</speed>
</trkpt>
<trkpt lat="47.354491" lon="8.794071">
<ele>544.0</ele>
<time>2003-07-19T08:34:19Z</time>
<speed>1.1</speed>
</trkpt>
<trkpt lat="47.354442" lon="8.794115">
<ele>544.9</ele>
<time>2003-07-19T08:34:24Z</time>
<speed>1.1</speed>
</trkpt>
<trkpt lat="47.354400" lon="8.794161">
<ele>545.1</ele>
<time>2003-07-19T08:34:29Z</time>
<speed>0.6</speed>
</trkpt>
<trkpt lat="47.354394" lon="8.794159">
<ele>545.8</ele>
<time>2003-07-19T08:34:34Z</time>
<speed>0.0</speed>
</trkpt>
<trkpt lat="47.354394" lon="8.794159">
<ele>545.8</ele>
<time>2003-07-19T08:34:39Z</time>
<speed>0.0</speed>
</trkpt>
<trkpt lat="47.354359" lon="8.794194">
<ele>545.2</ele>
<time>2003-07-19T08:34:44Z</time>
<speed>1.1</speed>
</trkpt>
<trkpt lat="47.354315" lon="8.794267">
<ele>545.7</ele>
<time>2003-07-19T08:34:49Z</time>
<speed>1.1</speed>
</trkpt>
<trkpt lat="47.354260" lon="8.794324">
<ele>545.9</ele>
<time>2003-07-19T08:34:54Z</time>
<speed>1.1</speed>
</trkpt>
<trkpt lat="47.354192" lon="8.794366">
<ele>546.0</ele>
<time>2003-07-19T08:35:00Z</time>
<speed>1.4</speed>
</trkpt>
<trkpt lat="47.354125" lon="8.794409">
<ele>546.1</ele>
<time>2003-07-19T08:35:05Z</time>
<speed>1.1</speed>
</trkpt>
<trkpt lat="47.354072" lon="8.794442">
<ele>544.7</ele>
<time>2003-07-19T08:35:10Z</time>
<speed>1.1</speed>
</trkpt>
<trkpt lat="47.354017" lon="8.794499">
<ele>545.0</ele>
<time>2003-07-19T08:35:15Z</time>
<speed>1.1</speed>
</trkpt>
<trkpt lat="47.353962" lon="8.794543">
<ele>545.1</ele>
<time>2003-07-19T08:35:20Z</time>
<speed>1.4</speed>
</trkpt>
<trkpt lat="47.353916" lon="8.794563">
<ele>544.4</ele>
<time>2003-07-19T08:35:25Z</time>
<speed>0.0</speed>
</trkpt>
<trkpt lat="47.353916" lon="8.794563">
<ele>544.4</ele>
<time>2003-07-19T08:35:30Z</time>
<speed>0.0</speed>
</trkpt>
<trkpt lat="47.353889" lon="8.794585">
<ele>544.5</ele>
<time>2003-07-19T08:35:35Z</time>
<speed>1.1</speed>
</trkpt>
<trkpt lat="47.353833" lon="8.794643">
<ele>544.7</ele>
<time>2003-07-19T08:35:40Z</time>
<speed>1.1</speed>
</trkpt>
<trkpt lat="47.353773" lon="8.794672">
<ele>545.5</ele>
<time>2003-07-19T08:35:45Z</time>
<speed>1.1</speed>
</trkpt>
<trkpt lat="47.353712" lon="8.794716">
<ele>544.9</ele>
<time>2003-07-19T08:35:50Z</time>
<speed>1.1</speed>
</trkpt>
<trkpt lat="47.353652" lon="8.794760">
<ele>544.3</ele>
<time>2003-07-19T08:35:55Z</time>
<speed>1.1</speed>
</trkpt>
<trkpt lat="47.353584" lon="8.794816">
<ele>544.5</ele>
<time>2003-07-19T08:36:00Z</time>
<speed>1.4</speed>
</trkpt>
<trkpt lat="47.353516" lon="8.794858">
<ele>544.6</ele>
<time>2003-07-19T08:36:05Z</time>
<speed>1.4</speed>
</trkpt>
<trkpt lat="47.353456" lon="8.794902">
<ele>544.0</ele>
<time>2003-07-19T08:36:10Z</time>
<speed>1.4</speed>
</trkpt>
<trkpt lat="47.353382" lon="8.794942">
<ele>544.7</ele>
<time>2003-07-19T08:36:15Z</time>
<speed>1.1</speed>
</trkpt>
<trkpt lat="47.353321" lon="8.794986">
<ele>544.1</ele>
<time>2003-07-19T08:36:20Z</time>
<speed>1.4</speed>
</trkpt>
<trkpt lat="47.353254" lon="8.795029">
<ele>544.2</ele>
<time>2003-07-19T08:36:25Z</time>
<speed>1.4</speed>
</trkpt>
<trkpt lat="47.353199" lon="8.795073">
<ele>544.4</ele>
<time>2003-07-19T08:36:30Z</time>
<speed>1.1</speed>
</trkpt>
<trkpt lat="47.353138" lon="8.795130">
<ele>543.9</ele>
<time>2003-07-19T08:36:35Z</time>
<speed>1.1</speed>
</trkpt>
<trkpt lat="47.353083" lon="8.795189">
<ele>542.7</ele>
<time>2003-07-19T08:36:40Z</time>
<speed>1.1</speed>
</trkpt>
<trkpt lat="47.353027" lon="8.795247">
<ele>543.0</ele>
<time>2003-07-19T08:36:45Z</time>
<speed>1.4</speed>
</trkpt>
<trkpt lat="47.352959" lon="8.795302">
<ele>543.2</ele>
<time>2003-07-19T08:36:50Z</time>
<speed>1.1</speed>
</trkpt>
<trkpt lat="47.352904" lon="8.795346">
<ele>543.3</ele>
<time>2003-07-19T08:36:55Z</time>
<speed>1.4</speed>
</trkpt>
<trkpt lat="47.352836" lon="8.795402">
<ele>543.5</ele>
<time>2003-07-19T08:37:00Z</time>
<speed>1.1</speed>
</trkpt>
<trkpt lat="47.352781" lon="8.795459">
<ele>543.8</ele>
<time>2003-07-19T08:37:05Z</time>
<speed>1.4</speed>
</trkpt>
<trkpt lat="47.352731" lon="8.795518">
<ele>543.4</ele>
<time>2003-07-19T08:37:10Z</time>
<speed>1.1</speed>
</trkpt>
<trkpt lat="47.352676" lon="8.795575">
<ele>543.6</ele>
<time>2003-07-19T08:37:15Z</time>
<speed>1.4</speed>
</trkpt>
<trkpt lat="47.352632" lon="8.795648">
<ele>544.0</ele>
<time>2003-07-19T08:37:20Z</time>
<speed>1.1</speed>
</trkpt>
<trkpt lat="47.352590" lon="8.795694">
<ele>544.2</ele>
<time>2003-07-19T08:37:25Z</time>
<speed>1.1</speed>
</trkpt>
<trkpt lat="47.352547" lon="8.795753">
<ele>544.6</ele>
<time>2003-07-19T08:37:30Z</time>
<speed>0.8</speed>
</trkpt>
<trkpt lat="47.352504" lon="8.795813">
<ele>544.9</ele>
<time>2003-07-19T08:37:35Z</time>
<speed>0.8</speed>
</trkpt>
<trkpt lat="47.352443" lon="8.795855">
<ele>545.7</ele>
<time>2003-07-19T08:37:40Z</time>
<speed>0.8</speed>
</trkpt>
<trkpt lat="47.352400" lon="8.795916">
<ele>544.6</ele>
<time>2003-07-19T08:37:45Z</time>
<speed>1.1</speed>
</trkpt>
<trkpt lat="47.352351" lon="8.795976">
<ele>544.2</ele>
<time>2003-07-19T08:37:50Z</time>
<speed>0.8</speed>
</trkpt>
<trkpt lat="47.352300" lon="8.796061">
<ele>544.0</ele>
<time>2003-07-19T08:37:55Z</time>
<speed>1.1</speed>
</trkpt>
<trkpt lat="47.352250" lon="8.796134">
<ele>543.7</ele>
<time>2003-07-19T08:38:00Z</time>
<speed>1.1</speed>
</trkpt>
<trkpt lat="47.352213" lon="8.796208">
<ele>543.4</ele>
<time>2003-07-19T08:38:05Z</time>
<speed>1.1</speed>
</trkpt>
<trkpt lat="47.352181" lon="8.796295">
<ele>544.0</ele>
<time>2003-07-19T08:38:10Z</time>
<speed>1.1</speed>
</trkpt>
<trkpt lat="47.352155" lon="8.796385">
<ele>544.0</ele>
<time>2003-07-19T08:38:15Z</time>
<speed>1.1</speed>
</trkpt>
<trkpt lat="47.352136" lon="8.796461">
<ele>544.5</ele>
<time>2003-07-19T08:38:20Z</time>
<speed>1.1</speed>
</trkpt>
<trkpt lat="47.352123" lon="8.796553">
<ele>544.5</ele>
<time>2003-07-19T08:38:25Z</time>
<speed>1.1</speed>
</trkpt>
<trkpt lat="47.352110" lon="8.796645">
<ele>544.5</ele>
<time>2003-07-19T08:38:30Z</time>
<speed>0.8</speed>
</trkpt>
<trkpt lat="47.352129" lon="8.796729">
<ele>543.8</ele>
<time>2003-07-19T08:38:35Z</time>
<speed>0.8</speed>
</trkpt>
<trkpt lat="47.352141" lon="8.796825">
<ele>544.0</ele>
<time>2003-07-19T08:38:40Z</time>
<speed>1.1</speed>
</trkpt>
<trkpt lat="47.352155" lon="8.796907">
<ele>544.0</ele>
<time>2003-07-19T08:38:45Z</time>
<speed>0.8</speed>
</trkpt>
<trkpt lat="47.352154" lon="8.797001">
<ele>544.0</ele>
<time>2003-07-19T08:38:50Z</time>
<speed>0.6</speed>
</trkpt>
<trkpt lat="47.352158" lon="8.797029">
<ele>543.6</ele>
<time>2003-07-19T08:38:55Z</time>
<speed>0.0</speed>
</trkpt>
<trkpt lat="47.352170" lon="8.797044">
<ele>543.7</ele>
<time>2003-07-19T08:39:00Z</time>
<speed>0.0</speed>
</trkpt>
<trkpt lat="47.352169" lon="8.797057">
<ele>543.8</ele>
<time>2003-07-19T08:39:05Z</time>
<speed>0.3</speed>
</trkpt>
<trkpt lat="47.352174" lon="8.797085">
<ele>543.4</ele>
<time>2003-07-19T08:39:10Z</time>
<speed>0.0</speed>
</trkpt>
<trkpt lat="47.352168" lon="8.797085">
<ele>542.7</ele>
<time>2003-07-19T08:39:15Z</time>
<speed>0.0</speed>
</trkpt>
<trkpt lat="47.352149" lon="8.797068">
<ele>543.2</ele>
<time>2003-07-19T08:39:20Z</time>
<speed>0.6</speed>
</trkpt>
<trkpt lat="47.352149" lon="8.797068">
<ele>543.2</ele>
<time>2003-07-19T08:39:25Z</time>
<speed>0.0</speed>
</trkpt>
<trkpt lat="47.352149" lon="8.797068">
<ele>543.2</ele>
<time>2003-07-19T08:39:30Z</time>
<speed>0.0</speed>
</trkpt>
<trkpt lat="47.352149" lon="8.797068">
<ele>543.2</ele>
<time>2003-07-19T08:39:35Z</time>
<speed>0.0</speed>
</trkpt>
<trkpt lat="47.352149" lon="8.797068">
<ele>543.2</ele>
<time>2003-07-19T08:39:40Z</time>
<speed>0.0</speed>
</trkpt>
<trkpt lat="47.352149" lon="8.797068">
<ele>543.2</ele>
<time>2003-07-19T08:39:45Z</time>
<speed>0.0</speed>
</trkpt>
<trkpt lat="47.352149" lon="8.797068">
<ele>543.2</ele>
<time>2003-07-19T08:39:50Z</time>
<speed>0.0</speed>
</trkpt>
<trkpt lat="47.352149" lon="8.797068">
<ele>543.2</ele>
<time>2003-07-19T08:39:55Z</time>
<speed>0.0</speed>
</trkpt>
<trkpt lat="47.352149" lon="8.797068">
<ele>543.2</ele>
<time>2003-07-19T08:40:00Z</time>
<speed>0.0</speed>
</trkpt>
<trkpt lat="47.352149" lon="8.797068">
<ele>543.2</ele>
<time>2003-07-19T08:40:05Z</time>
<speed>0.0</speed>
</trkpt>
<trkpt lat="47.352149" lon="8.797068">
<ele>543.2</ele>
<time>2003-07-19T08:40:10Z</time>
<speed>0.0</speed>
</trkpt>
<trkpt lat="47.352167" lon="8.797098">
<ele>542.8</ele>
<time>2003-07-19T08:40:15Z</time>
<speed>0.6</speed>
</trkpt>
<trkpt lat="47.352165" lon="8.797111">
<ele>542.9</ele>
<time>2003-07-19T08:40:20Z</time>
<speed>0.3</speed>
</trkpt>
<trkpt lat="47.352126" lon="8.797134">
<ele>541.5</ele>
<time>2003-07-19T08:40:25Z</time>
<speed>0.8</speed>
</trkpt>
<trkpt lat="47.352087" lon="8.797141">
<ele>541.4</ele>
<time>2003-07-19T08:40:30Z</time>
<speed>0.8</speed>
</trkpt>
<trkpt lat="47.352030" lon="8.797130">
<ele>541.8</ele>
<time>2003-07-19T08:40:35Z</time>
<speed>1.1</speed>
</trkpt>
<trkpt lat="47.351961" lon="8.797105">
<ele>542.0</ele>
<time>2003-07-19T08:40:40Z</time>
<speed>1.1</speed>
</trkpt>
<trkpt lat="47.351886" lon="8.797093">
<ele>541.6</ele>
<time>2003-07-19T08:40:45Z</time>
<speed>1.1</speed>
</trkpt>
<trkpt lat="47.351822" lon="8.797083">
<ele>541.3</ele>
<time>2003-07-19T08:40:50Z</time>
<speed>1.4</speed>
</trkpt>
<trkpt lat="47.351753" lon="8.797071">
<ele>541.6</ele>
<time>2003-07-19T08:40:55Z</time>
<speed>1.4</speed>
</trkpt>
<trkpt lat="47.351689" lon="8.797074">
<ele>541.4</ele>
<time>2003-07-19T08:41:00Z</time>
<speed>1.4</speed>
</trkpt>
<trkpt lat="47.351614" lon="8.797049">
<ele>540.9</ele>
<time>2003-07-19T08:41:05Z</time>
<speed>1.4</speed>
</trkpt>
<trkpt lat="47.351551" lon="8.797038">
<ele>540.6</ele>
<time>2003-07-19T08:41:10Z</time>
<speed>1.1</speed>
</trkpt>
<trkpt lat="47.351481" lon="8.797026">
<ele>540.9</ele>
<time>2003-07-19T08:41:15Z</time>
<speed>1.4</speed>
</trkpt>
<trkpt lat="47.351418" lon="8.797016">
<ele>540.6</ele>
<time>2003-07-19T08:41:20Z</time>
<speed>1.1</speed>
</trkpt>
<trkpt lat="47.351358" lon="8.796967">
<ele>539.9</ele>
<time>2003-07-19T08:41:25Z</time>
<speed>1.4</speed>
</trkpt>
<trkpt lat="47.351296" lon="8.796929">
<ele>540.8</ele>
<time>2003-07-19T08:41:30Z</time>
<speed>1.1</speed>
</trkpt>
<trkpt lat="47.351236" lon="8.796879">
<ele>540.2</ele>
<time>2003-07-19T08:41:35Z</time>
<speed>1.4</speed>
</trkpt>
<trkpt lat="47.351174" lon="8.796841">
<ele>541.0</ele>
<time>2003-07-19T08:41:40Z</time>
<speed>1.4</speed>
</trkpt>
<trkpt lat="47.351107" lon="8.796803">
<ele>541.2</ele>
<time>2003-07-19T08:41:45Z</time>
<speed>1.1</speed>
</trkpt>
<trkpt lat="47.351040" lon="8.796751">
<ele>541.2</ele>
<time>2003-07-19T08:41:50Z</time>
<speed>1.1</speed>
</trkpt>
<trkpt lat="47.350980" lon="8.796702">
<ele>540.6</ele>
<time>2003-07-19T08:41:55Z</time>
<speed>1.1</speed>
</trkpt>
<trkpt lat="47.350912" lon="8.796664">
<ele>540.7</ele>
<time>2003-07-19T08:42:00Z</time>
<speed>1.1</speed>
</trkpt>
<trkpt lat="47.350857" lon="8.796627">
<ele>540.9</ele>
<time>2003-07-19T08:42:05Z</time>
<speed>0.8</speed>
</trkpt>
<trkpt lat="47.350796" lon="8.796591">
<ele>540.3</ele>
<time>2003-07-19T08:42:10Z</time>
<speed>1.1</speed>
</trkpt>
<trkpt lat="47.350728" lon="8.796553">
<ele>540.5</ele>
<time>2003-07-19T08:42:15Z</time>
<speed>1.1</speed>
</trkpt>
<trkpt lat="47.350664" lon="8.796556">
<ele>540.3</ele>
<time>2003-07-19T08:42:20Z</time>
<speed>1.4</speed>
</trkpt>
<trkpt lat="47.350599" lon="8.796572">
<ele>540.1</ele>
<time>2003-07-19T08:42:25Z</time>
<speed>1.4</speed>
</trkpt>
<trkpt lat="47.350553" lon="8.796590">
<ele>540.8</ele>
<time>2003-07-19T08:42:30Z</time>
<speed>0.3</speed>
</trkpt>
<trkpt lat="47.350513" lon="8.796610">
<ele>540.8</ele>
<time>2003-07-19T08:42:35Z</time>
<speed>1.1</speed>
</trkpt>
<trkpt lat="47.350447" lon="8.796639">
<ele>540.8</ele>
<time>2003-07-19T08:42:40Z</time>
<speed>1.4</speed>
</trkpt>
<trkpt lat="47.350381" lon="8.796655">
<ele>540.7</ele>
<time>2003-07-19T08:42:45Z</time>
<speed>1.4</speed>
</trkpt>
<trkpt lat="47.350315" lon="8.796684">
<ele>540.7</ele>
<time>2003-07-19T08:42:50Z</time>
<speed>1.4</speed>
</trkpt>
<trkpt lat="47.350250" lon="8.796700">
<ele>540.5</ele>
<time>2003-07-19T08:42:55Z</time>
<speed>1.1</speed>
</trkpt>
<trkpt lat="47.350184" lon="8.796729">
<ele>540.5</ele>
<time>2003-07-19T08:43:00Z</time>
<speed>1.4</speed>
</trkpt>
<trkpt lat="47.350117" lon="8.796756">
<ele>541.9</ele>
<time>2003-07-19T08:43:05Z</time>
<speed>1.4</speed>
</trkpt>
<trkpt lat="47.350058" lon="8.796787">
<ele>541.2</ele>
<time>2003-07-19T08:43:10Z</time>
<speed>1.4</speed>
</trkpt>
<trkpt lat="47.350009" lon="8.796847">
<ele>540.8</ele>
<time>2003-07-19T08:43:15Z</time>
<speed>1.1</speed>
</trkpt>
<trkpt lat="47.349954" lon="8.796891">
<ele>540.9</ele>
<time>2003-07-19T08:43:20Z</time>
<speed>1.1</speed>
</trkpt>
<trkpt lat="47.349918" lon="8.796952">
<ele>540.6</ele>
<time>2003-07-19T08:43:25Z</time>
<speed>1.4</speed>
</trkpt>
<trkpt lat="47.349862" lon="8.797010">
<ele>540.9</ele>
<time>2003-07-19T08:43:30Z</time>
<speed>1.1</speed>
</trkpt>
<trkpt lat="47.349813" lon="8.797069">
<ele>540.4</ele>
<time>2003-07-19T08:43:35Z</time>
<speed>1.4</speed>
</trkpt>
<trkpt lat="47.349764" lon="8.797128">
<ele>540.0</ele>
<time>2003-07-19T08:43:40Z</time>
<speed>1.4</speed>
</trkpt>
<trkpt lat="47.349708" lon="8.797186">
<ele>540.3</ele>
<time>2003-07-19T08:43:45Z</time>
<speed>1.4</speed>
</trkpt>
<trkpt lat="47.349659" lon="8.797245">
<ele>539.9</ele>
<time>2003-07-19T08:43:50Z</time>
<speed>1.1</speed>
</trkpt>
<trkpt lat="47.349605" lon="8.797289">
<ele>540.0</ele>
<time>2003-07-19T08:43:55Z</time>
<speed>1.4</speed>
</trkpt>
<trkpt lat="47.349549" lon="8.797346">
<ele>540.3</ele>
<time>2003-07-19T08:44:00Z</time>
<speed>1.4</speed>
</trkpt>
<trkpt lat="47.349494" lon="8.797406">
<ele>539.1</ele>
<time>2003-07-19T08:44:05Z</time>
<speed>1.4</speed>
</trkpt>
<trkpt lat="47.349431" lon="8.797474">
<ele>540.1</ele>
<time>2003-07-19T08:44:10Z</time>
<speed>1.4</speed>
</trkpt>
<trkpt lat="47.349376" lon="8.797518">
<ele>540.3</ele>
<time>2003-07-19T08:44:15Z</time>
<speed>1.4</speed>
</trkpt>
<trkpt lat="47.349326" lon="8.797591">
<ele>540.0</ele>
<time>2003-07-19T08:44:20Z</time>
<speed>1.4</speed>
</trkpt>
<trkpt lat="47.349271" lon="8.797648">
<ele>540.2</ele>
<time>2003-07-19T08:44:25Z</time>
<speed>1.4</speed>
</trkpt>
<trkpt lat="47.349215" lon="8.797705">
<ele>540.5</ele>
<time>2003-07-19T08:44:30Z</time>
<speed>1.4</speed>
</trkpt>
<trkpt lat="47.349166" lon="8.797765">
<ele>540.1</ele>
<time>2003-07-19T08:44:35Z</time>
<speed>1.4</speed>
</trkpt>
<trkpt lat="47.349111" lon="8.797809">
<ele>540.2</ele>
<time>2003-07-19T08:44:40Z</time>
<speed>1.1</speed>
</trkpt>
<trkpt lat="47.349057" lon="8.797855">
<ele>539.0</ele>
<time>2003-07-19T08:44:45Z</time>
<speed>1.1</speed>
</trkpt>
<trkpt lat="47.348992" lon="8.797871">
<ele>538.8</ele>
<time>2003-07-19T08:44:50Z</time>
<speed>1.4</speed>
</trkpt>
<trkpt lat="47.348929" lon="8.797863">
<ele>537.1</ele>
<time>2003-07-19T08:44:55Z</time>
<speed>1.1</speed>
</trkpt>
<trkpt lat="47.348865" lon="8.797864">
<ele>538.3</ele>
<time>2003-07-19T08:45:00Z</time>
<speed>1.1</speed>
</trkpt>
<trkpt lat="47.348801" lon="8.797867">
<ele>538.1</ele>
<time>2003-07-19T08:45:05Z</time>
<speed>1.1</speed>
</trkpt>
<trkpt lat="47.348731" lon="8.797855">
<ele>538.4</ele>
<time>2003-07-19T08:45:10Z</time>
<speed>1.4</speed>
</trkpt>
<trkpt lat="47.348663" lon="8.797816">
<ele>538.5</ele>
<time>2003-07-19T08:45:15Z</time>
<speed>1.4</speed>
</trkpt>
<trkpt lat="47.348595" lon="8.797791">
<ele>538.8</ele>
<time>2003-07-19T08:45:20Z</time>
<speed>1.1</speed>
</trkpt>
<trkpt lat="47.348531" lon="8.797781">
<ele>538.4</ele>
<time>2003-07-19T08:45:25Z</time>
<speed>1.4</speed>
</trkpt>
<trkpt lat="47.348476" lon="8.797745">
<ele>538.6</ele>
<time>2003-07-19T08:45:30Z</time>
<speed>1.1</speed>
</trkpt>
<trkpt lat="47.348415" lon="8.797709">
<ele>538.1</ele>
<time>2003-07-19T08:45:35Z</time>
<speed>1.4</speed>
</trkpt>
<trkpt lat="47.348361" lon="8.797659">
<ele>538.2</ele>
<time>2003-07-19T08:45:40Z</time>
<speed>1.4</speed>
</trkpt>
<trkpt lat="47.348301" lon="8.797610">
<ele>537.6</ele>
<time>2003-07-19T08:45:45Z</time>
<speed>1.4</speed>
</trkpt>
<trkpt lat="47.348241" lon="8.797560">
<ele>536.9</ele>
<time>2003-07-19T08:45:50Z</time>
<speed>1.4</speed>
</trkpt>
<trkpt lat="47.348174" lon="8.797509">
<ele>537.0</ele>
<time>2003-07-19T08:45:55Z</time>
<speed>1.4</speed>
</trkpt>
<trkpt lat="47.348120" lon="8.797460">
<ele>537.0</ele>
<time>2003-07-19T08:46:00Z</time>
<speed>1.4</speed>
</trkpt>
<trkpt lat="47.348053" lon="8.797421">
<ele>537.2</ele>
<time>2003-07-19T08:46:05Z</time>
<speed>1.4</speed>
</trkpt>
<trkpt lat="47.348005" lon="8.797374">
<ele>536.6</ele>
<time>2003-07-19T08:46:10Z</time>
<speed>1.1</speed>
</trkpt>
<trkpt lat="47.347951" lon="8.797325">
<ele>536.7</ele>
<time>2003-07-19T08:46:15Z</time>
<speed>1.4</speed>
</trkpt>
<trkpt lat="47.347890" lon="8.797288">
<ele>536.2</ele>
<time>2003-07-19T08:46:20Z</time>
<speed>1.4</speed>
</trkpt>
<trkpt lat="47.347820" lon="8.797276">
<ele>536.5</ele>
<time>2003-07-19T08:46:25Z</time>
<speed>1.1</speed>
</trkpt>
<trkpt lat="47.347808" lon="8.797274">
<ele>536.4</ele>
<time>2003-07-19T08:46:30Z</time>
<speed>0.0</speed>
</trkpt>
<trkpt lat="47.347808" lon="8.797274">
<ele>536.4</ele>
<time>2003-07-19T08:46:35Z</time>
<speed>0.0</speed>
</trkpt>
<trkpt lat="47.347781" lon="8.797283">
<ele>536.4</ele>
<time>2003-07-19T08:46:40Z</time>
<speed>1.1</speed>
</trkpt>
<trkpt lat="47.347716" lon="8.797299">
<ele>536.3</ele>
<time>2003-07-19T08:46:45Z</time>
<speed>1.1</speed>
</trkpt>
<trkpt lat="47.347652" lon="8.797302">
<ele>536.1</ele>
<time>2003-07-19T08:46:50Z</time>
<speed>1.1</speed>
</trkpt>
<trkpt lat="47.347593" lon="8.797318">
<ele>536.7</ele>
<time>2003-07-19T08:46:55Z</time>
<speed>1.1</speed>
</trkpt>
<trkpt lat="47.347517" lon="8.797304">
<ele>537.7</ele>
<time>2003-07-19T08:47:00Z</time>
<speed>1.4</speed>
</trkpt>
<trkpt lat="47.347446" lon="8.797305">
<ele>538.1</ele>
<time>2003-07-19T08:47:05Z</time>
<speed>1.1</speed>
</trkpt>
<trkpt lat="47.347389" lon="8.797295">
<ele>538.5</ele>
<time>2003-07-19T08:47:10Z</time>
<speed>1.4</speed>
</trkpt>
<trkpt lat="47.347325" lon="8.797298">
<ele>538.3</ele>
<time>2003-07-19T08:47:15Z</time>
<speed>1.1</speed>
</trkpt>
<trkpt lat="47.347262" lon="8.797288">
<ele>538.0</ele>
<time>2003-07-19T08:47:20Z</time>
<speed>1.4</speed>
</trkpt>
<trkpt lat="47.347192" lon="8.797278">
<ele>536.9</ele>
<time>2003-07-19T08:47:25Z</time>
<speed>1.1</speed>
</trkpt>
<trkpt lat="47.347154" lon="8.797270">
<ele>538.1</ele>
<time>2003-07-19T08:47:30Z</time>
<speed>0.8</speed>
</trkpt>
<trkpt lat="47.347090" lon="8.797273">
<ele>537.9</ele>
<time>2003-07-19T08:47:35Z</time>
<speed>1.1</speed>
</trkpt>
<trkpt lat="47.347032" lon="8.797278">
<ele>537.0</ele>
<time>2003-07-19T08:47:40Z</time>
<speed>1.1</speed>
</trkpt>
<trkpt lat="47.346968" lon="8.797281">
<ele>536.8</ele>
<time>2003-07-19T08:47:45Z</time>
<speed>1.4</speed>
</trkpt>
<trkpt lat="47.346897" lon="8.797281">
<ele>537.2</ele>
<time>2003-07-19T08:47:50Z</time>
<speed>1.1</speed>
</trkpt>
<trkpt lat="47.346827" lon="8.797282">
<ele>537.7</ele>
<time>2003-07-19T08:47:55Z</time>
<speed>1.1</speed>
</trkpt>
<trkpt lat="47.346757" lon="8.797270">
<ele>538.0</ele>
<time>2003-07-19T08:48:00Z</time>
<speed>1.1</speed>
</trkpt>
<trkpt lat="47.346691" lon="8.797299">
<ele>538.0</ele>
<time>2003-07-19T08:48:05Z</time>
<speed>1.4</speed>
</trkpt>
<trkpt lat="47.346626" lon="8.797300">
<ele>539.2</ele>
<time>2003-07-19T08:48:10Z</time>
<speed>0.8</speed>
</trkpt>
<trkpt lat="47.346626" lon="8.797300">
<ele>539.2</ele>
<time>2003-07-19T08:48:15Z</time>
<speed>0.0</speed>
</trkpt>
<trkpt lat="47.346626" lon="8.797300">
<ele>539.2</ele>
<time>2003-07-19T08:48:20Z</time>
<speed>0.0</speed>
</trkpt>
<trkpt lat="47.346586" lon="8.797320">
<ele>539.2</ele>
<time>2003-07-19T08:48:25Z</time>
<speed>1.1</speed>
</trkpt>
<trkpt lat="47.346502" lon="8.797334">
<ele>538.2</ele>
<time>2003-07-19T08:48:30Z</time>
<speed>1.1</speed>
</trkpt>
<trkpt lat="47.346431" lon="8.797350">
<ele>537.4</ele>
<time>2003-07-19T08:48:35Z</time>
<speed>1.4</speed>
</trkpt>
<trkpt lat="47.346379" lon="8.797369">
<ele>537.3</ele>
<time>2003-07-19T08:48:40Z</time>
<speed>1.4</speed>
</trkpt>
<trkpt lat="47.346313" lon="8.797385">
<ele>537.2</ele>
<time>2003-07-19T08:48:45Z</time>
<speed>1.1</speed>
</trkpt>
<trkpt lat="47.346248" lon="8.797401">
<ele>537.1</ele>
<time>2003-07-19T08:48:50Z</time>
<speed>1.1</speed>
</trkpt>
<trkpt lat="47.346177" lon="8.797415">
<ele>537.6</ele>
<time>2003-07-19T08:48:55Z</time>
<speed>1.4</speed>
</trkpt>
<trkpt lat="47.346112" lon="8.797418">
<ele>537.4</ele>
<time>2003-07-19T08:49:00Z</time>
<speed>1.1</speed>
</trkpt>
<trkpt lat="47.346048" lon="8.797421">
<ele>537.2</ele>
<time>2003-07-19T08:49:05Z</time>
<speed>1.1</speed>
</trkpt>
<trkpt lat="47.345999" lon="8.797399">
<ele>536.8</ele>
<time>2003-07-19T08:49:10Z</time>
<speed>0.0</speed>
</trkpt>
<trkpt lat="47.345973" lon="8.797395">
<ele>536.7</ele>
<time>2003-07-19T08:49:15Z</time>
<speed>1.1</speed>
</trkpt>
<trkpt lat="47.345897" lon="8.797396">
<ele>536.4</ele>
<time>2003-07-19T08:49:20Z</time>
<speed>1.1</speed>
</trkpt>
<trkpt lat="47.345839" lon="8.797401">
<ele>535.5</ele>
<time>2003-07-19T08:49:25Z</time>
<speed>1.1</speed>
</trkpt>
<trkpt lat="47.345774" lon="8.797402">
<ele>536.7</ele>
<time>2003-07-19T08:49:30Z</time>
<speed>1.1</speed>
</trkpt>
<trkpt lat="47.345711" lon="8.797392">
<ele>536.4</ele>
<time>2003-07-19T08:49:35Z</time>
<speed>1.1</speed>
</trkpt>
<trkpt lat="47.345641" lon="8.797395">
<ele>535.4</ele>
<time>2003-07-19T08:49:40Z</time>
<speed>1.1</speed>
</trkpt>
<trkpt lat="47.345584" lon="8.797385">
<ele>535.8</ele>
<time>2003-07-19T08:49:45Z</time>
<speed>1.1</speed>
</trkpt>
<trkpt lat="47.345496" lon="8.797371">
<ele>535.3</ele>
<time>2003-07-19T08:49:50Z</time>
<speed>1.1</speed>
</trkpt>
<trkpt lat="47.345438" lon="8.797361">
<ele>535.7</ele>
<time>2003-07-19T08:49:55Z</time>
<speed>0.8</speed>
</trkpt>
<trkpt lat="47.345373" lon="8.797375">
<ele>537.0</ele>
<time>2003-07-19T08:50:00Z</time>
<speed>1.1</speed>
</trkpt>
<trkpt lat="47.345309" lon="8.797378">
<ele>536.8</ele>
<time>2003-07-19T08:50:05Z</time>
<speed>1.1</speed>
</trkpt>
<trkpt lat="47.345247" lon="8.797433">
<ele>537.7</ele>
<time>2003-07-19T08:50:10Z</time>
<speed>1.4</speed>
</trkpt>
<trkpt lat="47.345191" lon="8.797490">
<ele>538.0</ele>
<time>2003-07-19T08:50:15Z</time>
<speed>1.4</speed>
</trkpt>
<trkpt lat="47.345134" lon="8.797560">
<ele>538.3</ele>
<time>2003-07-19T08:50:20Z</time>
<speed>1.4</speed>
</trkpt>
<trkpt lat="47.345092" lon="8.797622">
<ele>537.3</ele>
<time>2003-07-19T08:50:25Z</time>
<speed>1.1</speed>
</trkpt>
<trkpt lat="47.345036" lon="8.797679">
<ele>537.5</ele>
<time>2003-07-19T08:50:30Z</time>
<speed>1.1</speed>
</trkpt>
<trkpt lat="47.344979" lon="8.797684">
<ele>536.6</ele>
<time>2003-07-19T08:50:35Z</time>
<speed>1.1</speed>
</trkpt>
<trkpt lat="47.344918" lon="8.797648">
<ele>536.1</ele>
<time>2003-07-19T08:50:40Z</time>
<speed>1.4</speed>
</trkpt>
<trkpt lat="47.344864" lon="8.797598">
<ele>536.2</ele>
<time>2003-07-19T08:50:45Z</time>
<speed>1.1</speed>
</trkpt>
<trkpt lat="47.344803" lon="8.797547">
<ele>536.9</ele>
<time>2003-07-19T08:50:50Z</time>
<speed>1.4</speed>
</trkpt>
<trkpt lat="47.344748" lon="8.797511">
<ele>537.1</ele>
<time>2003-07-19T08:50:55Z</time>
<speed>1.1</speed>
</trkpt>
<trkpt lat="47.344681" lon="8.797459">
<ele>537.2</ele>
<time>2003-07-19T08:51:00Z</time>
<speed>1.4</speed>
</trkpt>
<trkpt lat="47.344626" lon="8.797423">
<ele>537.4</ele>
<time>2003-07-19T08:51:05Z</time>
<speed>1.1</speed>
</trkpt>
<trkpt lat="47.344565" lon="8.797385">
<ele>538.2</ele>
<time>2003-07-19T08:51:10Z</time>
<speed>1.1</speed>
</trkpt>
<trkpt lat="47.344505" lon="8.797336">
<ele>537.6</ele>
<time>2003-07-19T08:51:15Z</time>
<speed>1.1</speed>
</trkpt>
<trkpt lat="47.344443" lon="8.797297">
<ele>538.5</ele>
<time>2003-07-19T08:51:20Z</time>
<speed>1.4</speed>
</trkpt>
<trkpt lat="47.344389" lon="8.797248">
<ele>538.6</ele>
<time>2003-07-19T08:51:25Z</time>
<speed>1.1</speed>
</trkpt>
<trkpt lat="47.344327" lon="8.797225">
<ele>538.1</ele>
<time>2003-07-19T08:51:30Z</time>
<speed>1.1</speed>
</trkpt>
<trkpt lat="47.344266" lon="8.797173">
<ele>538.9</ele>
<time>2003-07-19T08:51:35Z</time>
<speed>1.1</speed>
</trkpt>
<trkpt lat="47.344205" lon="8.797135">
<ele>539.8</ele>
<time>2003-07-19T08:51:40Z</time>
<speed>0.8</speed>
</trkpt>
<trkpt lat="47.344139" lon="8.797071">
<ele>539.7</ele>
<time>2003-07-19T08:51:45Z</time>
<speed>1.4</speed>
</trkpt>
<trkpt lat="47.344085" lon="8.797021">
<ele>539.8</ele>
<time>2003-07-19T08:51:50Z</time>
<speed>1.1</speed>
</trkpt>
<trkpt lat="47.344030" lon="8.796985">
<ele>540.0</ele>
<time>2003-07-19T08:51:55Z</time>
<speed>1.1</speed>
</trkpt>
<trkpt lat="47.343969" lon="8.796949">
<ele>539.4</ele>
<time>2003-07-19T08:52:00Z</time>
<speed>0.8</speed>
</trkpt>
<trkpt lat="47.343915" lon="8.796899">
<ele>539.5</ele>
<time>2003-07-19T08:52:05Z</time>
<speed>1.1</speed>
</trkpt>
<trkpt lat="47.343855" lon="8.796850">
<ele>538.9</ele>
<time>2003-07-19T08:52:10Z</time>
<speed>1.4</speed>
</trkpt>
<trkpt lat="47.343789" lon="8.796786">
<ele>538.8</ele>
<time>2003-07-19T08:52:15Z</time>
<speed>1.1</speed>
</trkpt>
<trkpt lat="47.343741" lon="8.796751">
<ele>538.4</ele>
<time>2003-07-19T08:52:20Z</time>
<speed>1.1</speed>
</trkpt>
<trkpt lat="47.343686" lon="8.796715">
<ele>538.6</ele>
<time>2003-07-19T08:52:25Z</time>
<speed>1.1</speed>
</trkpt>
<trkpt lat="47.343618" lon="8.796677">
<ele>538.7</ele>
<time>2003-07-19T08:52:30Z</time>
<speed>1.4</speed>
</trkpt>
<trkpt lat="47.343570" lon="8.796629">
<ele>538.1</ele>
<time>2003-07-19T08:52:35Z</time>
<speed>1.1</speed>
</trkpt>
<trkpt lat="47.343507" lon="8.796619">
<ele>537.8</ele>
<time>2003-07-19T08:52:40Z</time>
<speed>1.1</speed>
</trkpt>
<trkpt lat="47.343451" lon="8.796611">
<ele>536.8</ele>
<time>2003-07-19T08:52:45Z</time>
<speed>1.1</speed>
</trkpt>
<trkpt lat="47.343396" lon="8.796575">
<ele>537.0</ele>
<time>2003-07-19T08:52:50Z</time>
<speed>1.1</speed>
</trkpt>
<trkpt lat="47.343335" lon="8.796524">
<ele>537.7</ele>
<time>2003-07-19T08:52:55Z</time>
<speed>1.4</speed>
</trkpt>
<trkpt lat="47.343280" lon="8.796487">
<ele>537.9</ele>
<time>2003-07-19T08:53:00Z</time>
<speed>1.1</speed>
</trkpt>
<trkpt lat="47.343219" lon="8.796436">
<ele>538.7</ele>
<time>2003-07-19T08:53:05Z</time>
<speed>1.1</speed>
</trkpt>
<trkpt lat="47.343158" lon="8.796400">
<ele>538.2</ele>
<time>2003-07-19T08:53:10Z</time>
<speed>1.1</speed>
</trkpt>
<trkpt lat="47.343097" lon="8.796361">
<ele>539.0</ele>
<time>2003-07-19T08:53:15Z</time>
<speed>1.4</speed>
</trkpt>
<trkpt lat="47.343042" lon="8.796325">
<ele>539.2</ele>
<time>2003-07-19T08:53:20Z</time>
<speed>1.1</speed>
</trkpt>
<trkpt lat="47.342980" lon="8.796302">
<ele>538.8</ele>
<time>2003-07-19T08:53:25Z</time>
<speed>1.4</speed>
</trkpt>
<trkpt lat="47.342911" lon="8.796277">
<ele>539.0</ele>
<time>2003-07-19T08:53:30Z</time>
<speed>1.1</speed>
</trkpt>
<trkpt lat="47.342855" lon="8.796253">
<ele>539.4</ele>
<time>2003-07-19T08:53:35Z</time>
<speed>1.1</speed>
</trkpt>
<trkpt lat="47.342792" lon="8.796228">
<ele>540.3</ele>
<time>2003-07-19T08:53:40Z</time>
<speed>1.1</speed>
</trkpt>
<trkpt lat="47.342724" lon="8.796203">
<ele>540.6</ele>
<time>2003-07-19T08:53:45Z</time>
<speed>1.1</speed>
</trkpt>
<trkpt lat="47.342667" lon="8.796180">
<ele>540.9</ele>
<time>2003-07-19T08:53:50Z</time>
<speed>1.1</speed>
</trkpt>
<trkpt lat="47.342611" lon="8.796172">
<ele>539.9</ele>
<time>2003-07-19T08:53:55Z</time>
<speed>1.1</speed>
</trkpt>
<trkpt lat="47.342549" lon="8.796149">
<ele>539.4</ele>
<time>2003-07-19T08:54:00Z</time>
<speed>1.1</speed>
</trkpt>
<trkpt lat="47.342493" lon="8.796125">
<ele>539.7</ele>
<time>2003-07-19T08:54:05Z</time>
<speed>1.1</speed>
</trkpt>
<trkpt lat="47.342431" lon="8.796087">
<ele>540.6</ele>
<time>2003-07-19T08:54:10Z</time>
<speed>1.1</speed>
</trkpt>
<trkpt lat="47.342375" lon="8.796064">
<ele>540.9</ele>
<time>2003-07-19T08:54:15Z</time>
<speed>0.8</speed>
</trkpt>
<trkpt lat="47.342340" lon="8.796017">
<ele>541.8</ele>
<time>2003-07-19T08:54:20Z</time>
<speed>0.3</speed>
</trkpt>
<trkpt lat="47.342338" lon="8.795949">
<ele>542.0</ele>
<time>2003-07-19T08:54:25Z</time>
<speed>1.1</speed>
</trkpt>
<trkpt lat="47.342364" lon="8.795860">
<ele>542.0</ele>
<time>2003-07-19T08:54:30Z</time>
<speed>1.1</speed>
</trkpt>
<trkpt lat="47.342395" lon="8.795785">
<ele>541.5</ele>
<time>2003-07-19T08:54:35Z</time>
<speed>1.4</speed>
</trkpt>
<trkpt lat="47.342428" lon="8.795698">
<ele>540.9</ele>
<time>2003-07-19T08:54:40Z</time>
<speed>1.4</speed>
</trkpt>
<trkpt lat="47.342459" lon="8.795621">
<ele>541.9</ele>
<time>2003-07-19T08:54:45Z</time>
<speed>1.4</speed>
</trkpt>
<trkpt lat="47.342491" lon="8.795534">
<ele>541.3</ele>
<time>2003-07-19T08:54:50Z</time>
<speed>1.1</speed>
</trkpt>
<trkpt lat="47.342523" lon="8.795446">
<ele>540.7</ele>
<time>2003-07-19T08:54:55Z</time>
<speed>1.4</speed>
</trkpt>
<trkpt lat="47.342562" lon="8.795359">
<ele>540.8</ele>
<time>2003-07-19T08:55:00Z</time>
<speed>1.4</speed>
</trkpt>
<trkpt lat="47.342599" lon="8.795284">
<ele>541.1</ele>
<time>2003-07-19T08:55:05Z</time>
<speed>1.4</speed>
</trkpt>
<trkpt lat="47.342644" lon="8.795199">
<ele>540.5</ele>
<time>2003-07-19T08:55:10Z</time>
<speed>1.4</speed>
</trkpt>
<trkpt lat="47.342682" lon="8.795125">
<ele>540.8</ele>
<time>2003-07-19T08:55:15Z</time>
<speed>1.4</speed>
</trkpt>
<trkpt lat="47.342720" lon="8.795037">
<ele>540.9</ele>
<time>2003-07-19T08:55:20Z</time>
<speed>1.4</speed>
</trkpt>
<trkpt lat="47.342745" lon="8.794961">
<ele>541.1</ele>
<time>2003-07-19T08:55:25Z</time>
<speed>1.4</speed>
</trkpt>
<trkpt lat="47.342777" lon="8.794873">
<ele>540.5</ele>
<time>2003-07-19T08:55:30Z</time>
<speed>1.4</speed>
</trkpt>
<trkpt lat="47.342822" lon="8.794788">
<ele>540.0</ele>
<time>2003-07-19T08:55:35Z</time>
<speed>1.4</speed>
</trkpt>
<trkpt lat="47.342861" lon="8.794700">
<ele>540.1</ele>
<time>2003-07-19T08:55:40Z</time>
<speed>1.4</speed>
</trkpt>
<trkpt lat="47.342898" lon="8.794626">
<ele>540.4</ele>
<time>2003-07-19T08:55:45Z</time>
<speed>1.4</speed>
</trkpt>
<trkpt lat="47.342936" lon="8.794538">
<ele>540.5</ele>
<time>2003-07-19T08:55:50Z</time>
<speed>1.4</speed>
</trkpt>
<trkpt lat="47.342974" lon="8.794464">
<ele>540.8</ele>
<time>2003-07-19T08:55:55Z</time>
<speed>1.4</speed>
</trkpt>
<trkpt lat="47.343019" lon="8.794378">
<ele>540.2</ele>
<time>2003-07-19T08:56:00Z</time>
<speed>1.4</speed>
</trkpt>
<trkpt lat="47.343050" lon="8.794304">
<ele>539.7</ele>
<time>2003-07-19T08:56:05Z</time>
<speed>1.1</speed>
</trkpt>
<trkpt lat="47.343094" lon="8.794230">
<ele>540.7</ele>
<time>2003-07-19T08:56:10Z</time>
<speed>1.4</speed>
</trkpt>
<trkpt lat="47.343138" lon="8.794157">
<ele>540.3</ele>
<time>2003-07-19T08:56:15Z</time>
<speed>1.4</speed>
</trkpt>
<trkpt lat="47.343169" lon="8.794068">
<ele>541.1</ele>
<time>2003-07-19T08:56:20Z</time>
<speed>1.1</speed>
</trkpt>
<trkpt lat="47.343200" lon="8.794006">
<ele>540.7</ele>
<time>2003-07-19T08:56:25Z</time>
<speed>1.4</speed>
</trkpt>
<trkpt lat="47.343245" lon="8.793921">
<ele>540.2</ele>
<time>2003-07-19T08:56:30Z</time>
<speed>1.1</speed>
</trkpt>
<trkpt lat="47.343290" lon="8.793835">
<ele>539.7</ele>
<time>2003-07-19T08:56:35Z</time>
<speed>1.4</speed>
</trkpt>
<trkpt lat="47.343329" lon="8.793750">
<ele>538.4</ele>
<time>2003-07-19T08:56:40Z</time>
<speed>1.1</speed>
</trkpt>
<trkpt lat="47.343331" lon="8.793724">
<ele>538.2</ele>
<time>2003-07-19T08:56:45Z</time>
<speed>0.0</speed>
</trkpt>
<trkpt lat="47.343324" lon="8.793722">
<ele>538.9</ele>
<time>2003-07-19T08:56:50Z</time>
<speed>0.3</speed>
</trkpt>
<trkpt lat="47.343331" lon="8.793724">
<ele>538.2</ele>
<time>2003-07-19T08:56:55Z</time>
<speed>0.0</speed>
</trkpt>
<trkpt lat="47.343332" lon="8.793711">
<ele>538.1</ele>
<time>2003-07-19T08:57:00Z</time>
<speed>0.0</speed>
</trkpt>
<trkpt lat="47.343348" lon="8.793658">
<ele>539.1</ele>
<time>2003-07-19T08:57:05Z</time>
<speed>1.1</speed>
</trkpt>
<trkpt lat="47.343368" lon="8.793554">
<ele>539.8</ele>
<time>2003-07-19T08:57:10Z</time>
<speed>1.1</speed>
</trkpt>
<trkpt lat="47.343375" lon="8.793460">
<ele>540.5</ele>
<time>2003-07-19T08:57:15Z</time>
<speed>1.4</speed>
</trkpt>
<trkpt lat="47.343369" lon="8.793365">
<ele>541.1</ele>
<time>2003-07-19T08:57:20Z</time>
<speed>1.1</speed>
</trkpt>
<trkpt lat="47.343369" lon="8.793269">
<ele>542.4</ele>
<time>2003-07-19T08:57:25Z</time>
<speed>1.1</speed>
</trkpt>
<trkpt lat="47.343363" lon="8.793173">
<ele>543.0</ele>
<time>2003-07-19T08:57:30Z</time>
<speed>1.1</speed>
</trkpt>
<trkpt lat="47.343370" lon="8.793080">
<ele>543.7</ele>
<time>2003-07-19T08:57:35Z</time>
<speed>1.1</speed>
</trkpt>
<trkpt lat="47.343378" lon="8.792960">
<ele>544.2</ele>
<time>2003-07-19T08:57:40Z</time>
<speed>1.1</speed>
</trkpt>
<trkpt lat="47.343385" lon="8.792867">
<ele>544.9</ele>
<time>2003-07-19T08:57:45Z</time>
<speed>1.1</speed>
</trkpt>
<trkpt lat="47.343397" lon="8.792788">
<ele>545.0</ele>
<time>2003-07-19T08:57:50Z</time>
<speed>0.8</speed>
</trkpt>
<trkpt lat="47.343398" lon="8.792695">
<ele>544.9</ele>
<time>2003-07-19T08:57:55Z</time>
<speed>0.8</speed>
</trkpt>
<trkpt lat="47.343405" lon="8.792603">
<ele>544.2</ele>
<time>2003-07-19T08:58:00Z</time>
<speed>1.1</speed>
</trkpt>
<trkpt lat="47.343413" lon="8.792498">
<ele>543.4</ele>
<time>2003-07-19T08:58:05Z</time>
<speed>1.4</speed>
</trkpt>
<trkpt lat="47.343421" lon="8.792394">
<ele>542.6</ele>
<time>2003-07-19T08:58:10Z</time>
<speed>1.1</speed>
</trkpt>
<trkpt lat="47.343435" lon="8.792289">
<ele>542.5</ele>
<time>2003-07-19T08:58:15Z</time>
<speed>1.1</speed>
</trkpt>
<trkpt lat="47.343436" lon="8.792196">
<ele>542.4</ele>
<time>2003-07-19T08:58:20Z</time>
<speed>1.1</speed>
</trkpt>
<trkpt lat="47.343430" lon="8.792100">
<ele>543.0</ele>
<time>2003-07-19T08:58:25Z</time>
<speed>1.1</speed>
</trkpt>
<trkpt lat="47.343437" lon="8.791993">
<ele>543.6</ele>
<time>2003-07-19T08:58:30Z</time>
<speed>1.1</speed>
</trkpt>
<trkpt lat="47.343432" lon="8.791900">
<ele>542.8</ele>
<time>2003-07-19T08:58:35Z</time>
<speed>1.1</speed>
</trkpt>
<trkpt lat="47.343432" lon="8.791806">
<ele>542.7</ele>
<time>2003-07-19T08:58:40Z</time>
<speed>1.1</speed>
</trkpt>
<trkpt lat="47.343439" lon="8.791713">
<ele>543.4</ele>
<time>2003-07-19T08:58:45Z</time>
<speed>1.4</speed>
</trkpt>
<trkpt lat="47.343440" lon="8.791621">
<ele>542.0</ele>
<time>2003-07-19T08:58:50Z</time>
<speed>0.8</speed>
</trkpt>
<trkpt lat="47.343426" lon="8.791552">
<ele>542.1</ele>
<time>2003-07-19T08:58:55Z</time>
<speed>0.0</speed>
</trkpt>
<trkpt lat="47.343420" lon="8.791537">
<ele>542.6</ele>
<time>2003-07-19T08:59:00Z</time>
<speed>0.6</speed>
</trkpt>
<trkpt lat="47.343349" lon="8.791474">
<ele>540.4</ele>
<time>2003-07-19T08:59:05Z</time>
<speed>0.8</speed>
</trkpt>
<trkpt lat="47.343268" lon="8.791449">
<ele>539.2</ele>
<time>2003-07-19T08:59:10Z</time>
<speed>1.1</speed>
</trkpt>
<trkpt lat="47.343188" lon="8.791411">
<ele>537.8</ele>
<time>2003-07-19T08:59:15Z</time>
<speed>1.1</speed>
</trkpt>
<trkpt lat="47.343105" lon="8.791410">
<ele>538.2</ele>
<time>2003-07-19T08:59:20Z</time>
<speed>1.4</speed>
</trkpt>
<trkpt lat="47.343035" lon="8.791398">
<ele>538.6</ele>
<time>2003-07-19T08:59:25Z</time>
<speed>1.1</speed>
</trkpt>
<trkpt lat="47.342972" lon="8.791390">
<ele>536.8</ele>
<time>2003-07-19T08:59:30Z</time>
<speed>1.1</speed>
</trkpt>
<trkpt lat="47.342903" lon="8.791377">
<ele>537.2</ele>
<time>2003-07-19T08:59:35Z</time>
<speed>1.1</speed>
</trkpt>
<trkpt lat="47.342833" lon="8.791365">
<ele>537.5</ele>
<time>2003-07-19T08:59:40Z</time>
<speed>1.1</speed>
</trkpt>
<trkpt lat="47.342768" lon="8.791366">
<ele>538.7</ele>
<time>2003-07-19T08:59:45Z</time>
<speed>1.1</speed>
</trkpt>
<trkpt lat="47.342711" lon="8.791356">
<ele>539.1</ele>
<time>2003-07-19T08:59:50Z</time>
<speed>0.8</speed>
</trkpt>
<trkpt lat="47.342644" lon="8.791318">
<ele>539.2</ele>
<time>2003-07-19T08:59:55Z</time>
<speed>1.1</speed>
</trkpt>
<trkpt lat="47.342598" lon="8.791244">
<ele>538.4</ele>
<time>2003-07-19T09:00:00Z</time>
<speed>1.1</speed>
</trkpt>
<trkpt lat="47.342559" lon="8.791171">
<ele>538.4</ele>
<time>2003-07-19T09:00:05Z</time>
<speed>1.4</speed>
</trkpt>
<trkpt lat="47.342521" lon="8.791086">
<ele>536.8</ele>
<time>2003-07-19T09:00:10Z</time>
<speed>1.1</speed>
</trkpt>
<trkpt lat="47.342468" lon="8.791009">
<ele>538.1</ele>
<time>2003-07-19T09:00:15Z</time>
<speed>1.4</speed>
</trkpt>
<trkpt lat="47.342402" lon="8.791038">
<ele>538.1</ele>
<time>2003-07-19T09:00:20Z</time>
<speed>1.4</speed>
</trkpt>
<trkpt lat="47.342354" lon="8.791084">
<ele>537.6</ele>
<time>2003-07-19T09:00:25Z</time>
<speed>1.1</speed>
</trkpt>
<trkpt lat="47.342283" lon="8.791100">
<ele>536.7</ele>
<time>2003-07-19T09:00:30Z</time>
<speed>1.1</speed>
</trkpt>
<trkpt lat="47.342214" lon="8.791090">
<ele>535.7</ele>
<time>2003-07-19T09:00:35Z</time>
<speed>1.4</speed>
</trkpt>
<trkpt lat="47.342144" lon="8.791078">
<ele>536.0</ele>
<time>2003-07-19T09:00:40Z</time>
<speed>1.1</speed>
</trkpt>
<trkpt lat="47.342080" lon="8.791081">
<ele>535.8</ele>
<time>2003-07-19T09:00:45Z</time>
<speed>1.1</speed>
</trkpt>
<trkpt lat="47.342019" lon="8.791123">
<ele>536.6</ele>
<time>2003-07-19T09:00:50Z</time>
<speed>1.4</speed>
</trkpt>
<trkpt lat="47.341965" lon="8.791152">
<ele>538.1</ele>
<time>2003-07-19T09:00:55Z</time>
<speed>0.8</speed>
</trkpt>
<trkpt lat="47.341923" lon="8.791120">
<ele>536.9</ele>
<time>2003-07-19T09:01:00Z</time>
<speed>0.8</speed>
</trkpt>
<trkpt lat="47.341870" lon="8.791060">
<ele>535.5</ele>
<time>2003-07-19T09:01:05Z</time>
<speed>1.1</speed>
</trkpt>
<trkpt lat="47.341824" lon="8.790999">
<ele>534.8</ele>
<time>2003-07-19T09:01:10Z</time>
<speed>1.1</speed>
</trkpt>
<trkpt lat="47.341791" lon="8.790913">
<ele>535.4</ele>
<time>2003-07-19T09:01:15Z</time>
<speed>1.1</speed>
</trkpt>
<trkpt lat="47.341765" lon="8.790841">
<ele>535.4</ele>
<time>2003-07-19T09:01:20Z</time>
<speed>0.3</speed>
</trkpt>
<trkpt lat="47.341766" lon="8.790813">
<ele>536.6</ele>
<time>2003-07-19T09:01:25Z</time>
<speed>0.3</speed>
</trkpt>
<trkpt lat="47.341727" lon="8.790740">
<ele>536.6</ele>
<time>2003-07-19T09:01:30Z</time>
<speed>1.1</speed>
</trkpt>
<trkpt lat="47.341680" lon="8.790679">
<ele>535.9</ele>
<time>2003-07-19T09:01:35Z</time>
<speed>0.8</speed>
</trkpt>
<trkpt lat="47.341647" lon="8.790621">
<ele>535.3</ele>
<time>2003-07-19T09:01:40Z</time>
<speed>0.8</speed>
</trkpt>
<trkpt lat="47.341602" lon="8.790532">
<ele>535.8</ele>
<time>2003-07-19T09:01:45Z</time>
<speed>1.1</speed>
</trkpt>
<trkpt lat="47.341588" lon="8.790463">
<ele>535.9</ele>
<time>2003-07-19T09:01:50Z</time>
<speed>1.1</speed>
</trkpt>
<trkpt lat="47.341544" lon="8.790361">
<ele>536.3</ele>
<time>2003-07-19T09:01:55Z</time>
<speed>1.4</speed>
</trkpt>
<trkpt lat="47.341512" lon="8.790262">
<ele>536.8</ele>
<time>2003-07-19T09:02:00Z</time>
<speed>1.4</speed>
</trkpt>
<trkpt lat="47.341475" lon="8.790162">
<ele>536.6</ele>
<time>2003-07-19T09:02:05Z</time>
<speed>1.4</speed>
</trkpt>
<trkpt lat="47.341444" lon="8.790062">
<ele>537.0</ele>
<time>2003-07-19T09:02:10Z</time>
<speed>1.4</speed>
</trkpt>
<trkpt lat="47.341425" lon="8.789965">
<ele>537.6</ele>
<time>2003-07-19T09:02:15Z</time>
<speed>1.1</speed>
</trkpt>
<trkpt lat="47.341413" lon="8.789869">
<ele>537.5</ele>
<time>2003-07-19T09:02:20Z</time>
<speed>1.1</speed>
</trkpt>
<trkpt lat="47.341394" lon="8.789772">
<ele>538.0</ele>
<time>2003-07-19T09:02:25Z</time>
<speed>1.4</speed>
</trkpt>
<trkpt lat="47.341381" lon="8.789689">
<ele>538.0</ele>
<time>2003-07-19T09:02:30Z</time>
<speed>1.4</speed>
</trkpt>
<trkpt lat="47.341357" lon="8.789576">
<ele>539.1</ele>
<time>2003-07-19T09:02:35Z</time>
<speed>1.4</speed>
</trkpt>
<trkpt lat="47.341338" lon="8.789494">
<ele>538.4</ele>
<time>2003-07-19T09:02:40Z</time>
<speed>1.1</speed>
</trkpt>
<trkpt lat="47.341307" lon="8.789394">
<ele>538.9</ele>
<time>2003-07-19T09:02:45Z</time>
<speed>1.1</speed>
</trkpt>
<trkpt lat="47.341281" lon="8.789310">
<ele>538.8</ele>
<time>2003-07-19T09:02:50Z</time>
<speed>0.8</speed>
</trkpt>
<trkpt lat="47.341261" lon="8.789225">
<ele>539.4</ele>
<time>2003-07-19T09:02:55Z</time>
<speed>1.1</speed>
</trkpt>
<trkpt lat="47.341249" lon="8.789130">
<ele>539.3</ele>
<time>2003-07-19T09:03:00Z</time>
<speed>1.1</speed>
</trkpt>
<trkpt lat="47.341231" lon="8.789032">
<ele>539.8</ele>
<time>2003-07-19T09:03:05Z</time>
<speed>1.1</speed>
</trkpt>
<trkpt lat="47.341219" lon="8.788936">
<ele>539.7</ele>
<time>2003-07-19T09:03:10Z</time>
<speed>0.8</speed>
</trkpt>
<trkpt lat="47.341232" lon="8.788845">
<ele>539.7</ele>
<time>2003-07-19T09:03:15Z</time>
<speed>1.1</speed>
</trkpt>
<trkpt lat="47.341252" lon="8.788742">
<ele>539.0</ele>
<time>2003-07-19T09:03:20Z</time>
<speed>1.4</speed>
</trkpt>
<trkpt lat="47.341272" lon="8.788653">
<ele>538.3</ele>
<time>2003-07-19T09:03:25Z</time>
<speed>1.1</speed>
</trkpt>
<trkpt lat="47.341285" lon="8.788561">
<ele>538.3</ele>
<time>2003-07-19T09:03:30Z</time>
<speed>1.4</speed>
</trkpt>
<trkpt lat="47.341312" lon="8.788459">
<ele>538.3</ele>
<time>2003-07-19T09:03:35Z</time>
<speed>1.4</speed>
</trkpt>
<trkpt lat="47.341331" lon="8.788367">
<ele>539.0</ele>
<time>2003-07-19T09:03:40Z</time>
<speed>1.4</speed>
</trkpt>
<trkpt lat="47.341358" lon="8.788280">
<ele>537.7</ele>
<time>2003-07-19T09:03:45Z</time>
<speed>1.4</speed>
</trkpt>
<trkpt lat="47.341383" lon="8.788205">
<ele>536.5</ele>
<time>2003-07-19T09:03:50Z</time>
<speed>1.4</speed>
</trkpt>
<trkpt lat="47.341410" lon="8.788103">
<ele>536.5</ele>
<time>2003-07-19T09:03:55Z</time>
<speed>1.4</speed>
</trkpt>
<trkpt lat="47.341441" lon="8.788026">
<ele>537.4</ele>
<time>2003-07-19T09:04:00Z</time>
<speed>1.4</speed>
</trkpt>
<trkpt lat="47.341473" lon="8.787939">
<ele>536.8</ele>
<time>2003-07-19T09:04:05Z</time>
<speed>1.1</speed>
</trkpt>
<trkpt lat="47.341510" lon="8.787864">
<ele>537.0</ele>
<time>2003-07-19T09:04:10Z</time>
<speed>1.4</speed>
</trkpt>
<trkpt lat="47.341554" lon="8.787792">
<ele>536.6</ele>
<time>2003-07-19T09:04:15Z</time>
<speed>1.4</speed>
</trkpt>
<trkpt lat="47.341598" lon="8.787720">
<ele>536.2</ele>
<time>2003-07-19T09:04:20Z</time>
<speed>1.4</speed>
</trkpt>
<trkpt lat="47.341648" lon="8.787647">
<ele>536.5</ele>
<time>2003-07-19T09:04:25Z</time>
<speed>1.4</speed>
</trkpt>
<trkpt lat="47.341692" lon="8.787575">
<ele>536.1</ele>
<time>2003-07-19T09:04:30Z</time>
<speed>1.4</speed>
</trkpt>
<trkpt lat="47.341736" lon="8.787502">
<ele>535.6</ele>
<time>2003-07-19T09:04:35Z</time>
<speed>1.4</speed>
</trkpt>
<trkpt lat="47.341775" lon="8.787415">
<ele>535.8</ele>
<time>2003-07-19T09:04:40Z</time>
<speed>1.4</speed>
</trkpt>
<trkpt lat="47.341806" lon="8.787340">
<ele>535.3</ele>
<time>2003-07-19T09:04:45Z</time>
<speed>1.1</speed>
</trkpt>
<trkpt lat="47.341816" lon="8.787288">
<ele>535.6</ele>
<time>2003-07-19T09:04:50Z</time>
<speed>0.0</speed>
</trkpt>
<trkpt lat="47.341838" lon="8.787251">
<ele>536.1</ele>
<time>2003-07-19T09:04:55Z</time>
<speed>1.1</speed>
</trkpt>
<trkpt lat="47.341870" lon="8.787163">
<ele>535.5</ele>
<time>2003-07-19T09:05:00Z</time>
<speed>1.1</speed>
</trkpt>
<trkpt lat="47.341902" lon="8.787076">
<ele>534.9</ele>
<time>2003-07-19T09:05:05Z</time>
<speed>1.4</speed>
</trkpt>
<trkpt lat="47.341922" lon="8.786986">
<ele>534.3</ele>
<time>2003-07-19T09:05:10Z</time>
<speed>1.1</speed>
</trkpt>
<trkpt lat="47.341941" lon="8.786895">
<ele>535.0</ele>
<time>2003-07-19T09:05:15Z</time>
<speed>1.1</speed>
</trkpt>
<trkpt lat="47.341968" lon="8.786792">
<ele>535.0</ele>
<time>2003-07-19T09:05:20Z</time>
<speed>1.1</speed>
</trkpt>
<trkpt lat="47.341980" lon="8.786712">
<ele>536.5</ele>
<time>2003-07-19T09:05:25Z</time>
<speed>0.0</speed>
</trkpt>
<trkpt lat="47.341990" lon="8.786660">
<ele>536.8</ele>
<time>2003-07-19T09:05:30Z</time>
<speed>1.4</speed>
</trkpt>
<trkpt lat="47.341990" lon="8.786579">
<ele>536.9</ele>
<time>2003-07-19T09:05:35Z</time>
<speed>1.1</speed>
</trkpt>
<trkpt lat="47.341996" lon="8.786485">
<ele>537.6</ele>
<time>2003-07-19T09:05:40Z</time>
<speed>1.1</speed>
</trkpt>
<trkpt lat="47.341997" lon="8.786392">
<ele>537.5</ele>
<time>2003-07-19T09:05:45Z</time>
<speed>1.1</speed>
</trkpt>
<trkpt lat="47.342009" lon="8.786313">
<ele>537.6</ele>
<time>2003-07-19T09:05:50Z</time>
<speed>0.8</speed>
</trkpt>
<trkpt lat="47.342010" lon="8.786220">
<ele>537.6</ele>
<time>2003-07-19T09:05:55Z</time>
<speed>0.6</speed>
</trkpt>
<trkpt lat="47.341990" lon="8.786137">
<ele>536.8</ele>
<time>2003-07-19T09:06:00Z</time>
<speed>0.8</speed>
</trkpt>
<trkpt lat="47.341972" lon="8.786040">
<ele>537.4</ele>
<time>2003-07-19T09:06:05Z</time>
<speed>1.4</speed>
</trkpt>
<trkpt lat="47.341967" lon="8.785931">
<ele>537.9</ele>
<time>2003-07-19T09:06:10Z</time>
<speed>0.8</speed>
</trkpt>
<trkpt lat="47.341959" lon="8.785864">
<ele>537.3</ele>
<time>2003-07-19T09:06:15Z</time>
<speed>0.8</speed>
</trkpt>
<trkpt lat="47.341940" lon="8.785781">
<ele>536.5</ele>
<time>2003-07-19T09:06:20Z</time>
<speed>0.8</speed>
</trkpt>
<trkpt lat="47.341914" lon="8.785697">
<ele>536.5</ele>
<time>2003-07-19T09:06:25Z</time>
<speed>1.1</speed>
</trkpt>
<trkpt lat="47.341876" lon="8.785610">
<ele>536.3</ele>
<time>2003-07-19T09:06:30Z</time>
<speed>0.8</speed>
</trkpt>
<trkpt lat="47.341849" lon="8.785539">
<ele>536.3</ele>
<time>2003-07-19T09:06:35Z</time>
<speed>0.0</speed>
</trkpt>
<trkpt lat="47.341838" lon="8.785511">
<ele>536.1</ele>
<time>2003-07-19T09:06:40Z</time>
<speed>0.0</speed>
</trkpt>
<trkpt lat="47.341826" lon="8.785509">
<ele>536.0</ele>
<time>2003-07-19T09:06:45Z</time>
<speed>0.0</speed>
</trkpt>
<trkpt lat="47.341826" lon="8.785509">
<ele>536.0</ele>
<time>2003-07-19T09:06:50Z</time>
<speed>0.0</speed>
</trkpt>
<trkpt lat="47.341826" lon="8.785509">
<ele>536.0</ele>
<time>2003-07-19T09:06:55Z</time>
<speed>0.0</speed>
</trkpt>
<trkpt lat="47.341826" lon="8.785509">
<ele>536.0</ele>
<time>2003-07-19T09:07:00Z</time>
<speed>0.0</speed>
</trkpt>
<trkpt lat="47.341826" lon="8.785509">
<ele>536.0</ele>
<time>2003-07-19T09:07:05Z</time>
<speed>0.0</speed>
</trkpt>
<trkpt lat="47.341826" lon="8.785509">
<ele>536.0</ele>
<time>2003-07-19T09:07:10Z</time>
<speed>0.0</speed>
</trkpt>
<trkpt lat="47.341826" lon="8.785509">
<ele>536.0</ele>
<time>2003-07-19T09:07:15Z</time>
<speed>0.0</speed>
</trkpt>
<trkpt lat="47.341827" lon="8.785495">
<ele>535.9</ele>
<time>2003-07-19T09:07:20Z</time>
<speed>0.0</speed>
</trkpt>
<trkpt lat="47.341821" lon="8.785480">
<ele>536.4</ele>
<time>2003-07-19T09:07:25Z</time>
<speed>0.0</speed>
</trkpt>
<trkpt lat="47.341821" lon="8.785480">
<ele>536.4</ele>
<time>2003-07-19T09:07:30Z</time>
<speed>0.0</speed>
</trkpt>
<trkpt lat="47.341821" lon="8.785480">
<ele>536.4</ele>
<time>2003-07-19T09:07:35Z</time>
<speed>0.0</speed>
</trkpt>
<trkpt lat="47.341821" lon="8.785480">
<ele>536.4</ele>
<time>2003-07-19T09:07:40Z</time>
<speed>0.0</speed>
</trkpt>
<trkpt lat="47.341821" lon="8.785480">
<ele>536.4</ele>
<time>2003-07-19T09:07:45Z</time>
<speed>0.0</speed>
</trkpt>
<trkpt lat="47.341821" lon="8.785480">
<ele>536.4</ele>
<time>2003-07-19T09:07:50Z</time>
<speed>0.0</speed>
</trkpt>
<trkpt lat="47.341821" lon="8.785480">
<ele>536.4</ele>
<time>2003-07-19T09:07:55Z</time>
<speed>0.0</speed>
</trkpt>
<trkpt lat="47.341821" lon="8.785480">
<ele>536.4</ele>
<time>2003-07-19T09:08:00Z</time>
<speed>0.0</speed>
</trkpt>
<trkpt lat="47.341821" lon="8.785480">
<ele>536.4</ele>
<time>2003-07-19T09:08:05Z</time>
<speed>0.0</speed>
</trkpt>
<trkpt lat="47.341821" lon="8.785480">
<ele>536.4</ele>
<time>2003-07-19T09:08:10Z</time>
<speed>0.0</speed>
</trkpt>
<trkpt lat="47.341821" lon="8.785480">
<ele>536.4</ele>
<time>2003-07-19T09:08:15Z</time>
<speed>0.0</speed>
</trkpt>
<trkpt lat="47.341821" lon="8.785480">
<ele>536.4</ele>
<time>2003-07-19T09:08:20Z</time>
<speed>0.0</speed>
</trkpt>
<trkpt lat="47.341815" lon="8.785480">
<ele>535.7</ele>
<time>2003-07-19T09:08:25Z</time>
<speed>0.0</speed>
</trkpt>
<trkpt lat="47.341809" lon="8.785478">
<ele>536.4</ele>
<time>2003-07-19T09:08:30Z</time>
<speed>0.0</speed>
</trkpt>
<trkpt lat="47.341809" lon="8.785478">
<ele>536.4</ele>
<time>2003-07-19T09:08:35Z</time>
<speed>0.0</speed>
</trkpt>
<trkpt lat="47.341803" lon="8.785478">
<ele>535.6</ele>
<time>2003-07-19T09:08:40Z</time>
<speed>0.0</speed>
</trkpt>
<trkpt lat="47.341803" lon="8.785478">
<ele>535.6</ele>
<time>2003-07-19T09:08:45Z</time>
<speed>0.0</speed>
</trkpt>
<trkpt lat="47.341803" lon="8.785478">
<ele>535.6</ele>
<time>2003-07-19T09:08:50Z</time>
<speed>0.0</speed>
</trkpt>
<trkpt lat="47.341803" lon="8.785478">
<ele>535.6</ele>
<time>2003-07-19T09:08:55Z</time>
<speed>0.0</speed>
</trkpt>
<trkpt lat="47.341804" lon="8.785465">
<ele>535.5</ele>
<time>2003-07-19T09:09:00Z</time>
<speed>0.0</speed>
</trkpt>
<trkpt lat="47.341804" lon="8.785465">
<ele>535.5</ele>
<time>2003-07-19T09:09:05Z</time>
<speed>0.0</speed>
</trkpt>
<trkpt lat="47.341794" lon="8.785422">
<ele>536.6</ele>
<time>2003-07-19T09:09:10Z</time>
<speed>1.1</speed>
</trkpt>
<trkpt lat="47.341753" lon="8.785362">
<ele>536.6</ele>
<time>2003-07-19T09:09:15Z</time>
<speed>1.1</speed>
</trkpt>
<trkpt lat="47.341707" lon="8.785286">
<ele>537.3</ele>
<time>2003-07-19T09:09:20Z</time>
<speed>1.4</speed>
</trkpt>
<trkpt lat="47.341655" lon="8.785211">
<ele>537.1</ele>
<time>2003-07-19T09:09:25Z</time>
<speed>1.4</speed>
</trkpt>
<trkpt lat="47.341609" lon="8.785135">
<ele>537.8</ele>
<time>2003-07-19T09:09:30Z</time>
<speed>1.1</speed>
</trkpt>
<trkpt lat="47.341548" lon="8.785099">
<ele>537.2</ele>
<time>2003-07-19T09:09:35Z</time>
<speed>1.1</speed>
</trkpt>
<trkpt lat="47.341501" lon="8.785036">
<ele>538.0</ele>
<time>2003-07-19T09:09:40Z</time>
<speed>1.1</speed>
</trkpt>
<trkpt lat="47.341441" lon="8.784987">
<ele>537.3</ele>
<time>2003-07-19T09:09:45Z</time>
<speed>1.1</speed>
</trkpt>
<trkpt lat="47.341388" lon="8.784923">
<ele>538.7</ele>
<time>2003-07-19T09:09:50Z</time>
<speed>1.4</speed>
</trkpt>
<trkpt lat="47.341343" lon="8.784834">
<ele>539.2</ele>
<time>2003-07-19T09:09:55Z</time>
<speed>1.4</speed>
</trkpt>
<trkpt lat="47.341291" lon="8.784759">
<ele>539.1</ele>
<time>2003-07-19T09:10:00Z</time>
<speed>1.4</speed>
</trkpt>
<trkpt lat="47.341251" lon="8.784685">
<ele>539.1</ele>
<time>2003-07-19T09:10:05Z</time>
<speed>1.4</speed>
</trkpt>
<trkpt lat="47.341206" lon="8.784597">
<ele>539.6</ele>
<time>2003-07-19T09:10:10Z</time>
<speed>1.4</speed>
</trkpt>
<trkpt lat="47.341196" lon="8.784568">
<ele>539.3</ele>
<time>2003-07-19T09:10:15Z</time>
<speed>0.0</speed>
</trkpt>
<trkpt lat="47.341196" lon="8.784568">
<ele>539.3</ele>
<time>2003-07-19T09:10:20Z</time>
<speed>0.0</speed>
</trkpt>
<trkpt lat="47.341190" lon="8.784568">
<ele>538.6</ele>
<time>2003-07-19T09:10:25Z</time>
<speed>0.0</speed>
</trkpt>
<trkpt lat="47.341190" lon="8.784568">
<ele>538.6</ele>
<time>2003-07-19T09:10:30Z</time>
<speed>0.0</speed>
</trkpt>
<trkpt lat="47.341169" lon="8.784512">
<ele>538.1</ele>
<time>2003-07-19T09:10:35Z</time>
<speed>1.1</speed>
</trkpt>
<trkpt lat="47.341129" lon="8.784439">
<ele>538.0</ele>
<time>2003-07-19T09:10:40Z</time>
<speed>1.1</speed>
</trkpt>
<trkpt lat="47.341084" lon="8.784365">
<ele>537.2</ele>
<time>2003-07-19T09:10:45Z</time>
<speed>1.4</speed>
</trkpt>
<trkpt lat="47.341051" lon="8.784279">
<ele>537.8</ele>
<time>2003-07-19T09:10:50Z</time>
<speed>1.1</speed>
</trkpt>
<trkpt lat="47.341027" lon="8.784181">
<ele>537.6</ele>
<time>2003-07-19T09:10:55Z</time>
<speed>1.4</speed>
</trkpt>
<trkpt lat="47.341002" lon="8.784083">
<ele>537.4</ele>
<time>2003-07-19T09:11:00Z</time>
<speed>1.4</speed>
</trkpt>
<trkpt lat="47.340970" lon="8.783997">
<ele>538.0</ele>
<time>2003-07-19T09:11:05Z</time>
<speed>1.4</speed>
</trkpt>
<trkpt lat="47.340939" lon="8.783899">
<ele>537.1</ele>
<time>2003-07-19T09:11:10Z</time>
<speed>1.4</speed>
</trkpt>
<trkpt lat="47.340907" lon="8.783813">
<ele>537.7</ele>
<time>2003-07-19T09:11:15Z</time>
<speed>1.4</speed>
</trkpt>
<trkpt lat="47.340868" lon="8.783726">
<ele>537.5</ele>
<time>2003-07-19T09:11:20Z</time>
<speed>1.1</speed>
</trkpt>
<trkpt lat="47.340841" lon="8.783655">
<ele>537.6</ele>
<time>2003-07-19T09:11:25Z</time>
<speed>1.4</speed>
</trkpt>
<trkpt lat="47.340810" lon="8.783555">
<ele>538.1</ele>
<time>2003-07-19T09:11:30Z</time>
<speed>1.4</speed>
</trkpt>
<trkpt lat="47.340778" lon="8.783469">
<ele>538.6</ele>
<time>2003-07-19T09:11:35Z</time>
<speed>1.1</speed>
</trkpt>
<trkpt lat="47.340752" lon="8.783384">
<ele>538.6</ele>
<time>2003-07-19T09:11:40Z</time>
<speed>1.4</speed>
</trkpt>
<trkpt lat="47.340720" lon="8.783298">
<ele>539.1</ele>
<time>2003-07-19T09:11:45Z</time>
<speed>1.1</speed>
</trkpt>
<trkpt lat="47.340701" lon="8.783200">
<ele>539.7</ele>
<time>2003-07-19T09:11:50Z</time>
<speed>1.1</speed>
</trkpt>
<trkpt lat="47.340682" lon="8.783117">
<ele>538.9</ele>
<time>2003-07-19T09:11:55Z</time>
<speed>1.1</speed>
</trkpt>
<trkpt lat="47.340657" lon="8.783020">
<ele>538.8</ele>
<time>2003-07-19T09:12:00Z</time>
<speed>1.1</speed>
</trkpt>
<trkpt lat="47.340639" lon="8.782922">
<ele>539.3</ele>
<time>2003-07-19T09:12:05Z</time>
<speed>1.4</speed>
</trkpt>
<trkpt lat="47.340633" lon="8.782827">
<ele>539.9</ele>
<time>2003-07-19T09:12:10Z</time>
<speed>1.1</speed>
</trkpt>
<trkpt lat="47.340621" lon="8.782731">
<ele>539.8</ele>
<time>2003-07-19T09:12:15Z</time>
<speed>1.4</speed>
</trkpt>
<trkpt lat="47.340627" lon="8.782638">
<ele>540.5</ele>
<time>2003-07-19T09:12:20Z</time>
<speed>1.1</speed>
</trkpt>
<trkpt lat="47.340622" lon="8.782529">
<ele>541.0</ele>
<time>2003-07-19T09:12:25Z</time>
<speed>1.1</speed>
</trkpt>
<trkpt lat="47.340623" lon="8.782435">
<ele>540.9</ele>
<time>2003-07-19T09:12:30Z</time>
<speed>1.1</speed>
</trkpt>
<trkpt lat="47.340636" lon="8.782344">
<ele>540.9</ele>
<time>2003-07-19T09:12:35Z</time>
<speed>1.4</speed>
</trkpt>
<trkpt lat="47.340642" lon="8.782263">
<ele>541.7</ele>
<time>2003-07-19T09:12:40Z</time>
<speed>1.1</speed>
</trkpt>
<trkpt lat="47.340655" lon="8.782172">
<ele>541.7</ele>
<time>2003-07-19T09:12:45Z</time>
<speed>1.1</speed>
</trkpt>
<trkpt lat="47.340661" lon="8.782078">
<ele>542.4</ele>
<time>2003-07-19T09:12:50Z</time>
<speed>1.1</speed>
</trkpt>
<trkpt lat="47.340669" lon="8.781974">
<ele>541.6</ele>
<time>2003-07-19T09:12:55Z</time>
<speed>1.1</speed>
</trkpt>
<trkpt lat="47.340683" lon="8.781884">
<ele>540.2</ele>
<time>2003-07-19T09:13:00Z</time>
<speed>1.1</speed>
</trkpt>
<trkpt lat="47.340691" lon="8.781780">
<ele>539.4</ele>
<time>2003-07-19T09:13:05Z</time>
<speed>1.4</speed>
</trkpt>
<trkpt lat="47.340692" lon="8.781686">
<ele>539.3</ele>
<time>2003-07-19T09:13:10Z</time>
<speed>1.4</speed>
</trkpt>
<trkpt lat="47.340699" lon="8.781594">
<ele>538.6</ele>
<time>2003-07-19T09:13:15Z</time>
<speed>1.1</speed>
</trkpt>
<trkpt lat="47.340701" lon="8.781475">
<ele>538.3</ele>
<time>2003-07-19T09:13:20Z</time>
<speed>1.4</speed>
</trkpt>
<trkpt lat="47.340695" lon="8.781379">
<ele>539.0</ele>
<time>2003-07-19T09:13:25Z</time>
<speed>1.4</speed>
</trkpt>
<trkpt lat="47.340684" lon="8.781271">
<ele>538.7</ele>
<time>2003-07-19T09:13:30Z</time>
<speed>1.7</speed>
</trkpt>
<trkpt lat="47.340667" lon="8.781160">
<ele>539.2</ele>
<time>2003-07-19T09:13:35Z</time>
<speed>1.4</speed>
</trkpt>
<trkpt lat="47.340649" lon="8.781049">
<ele>539.6</ele>
<time>2003-07-19T09:13:40Z</time>
<speed>1.7</speed>
</trkpt>
<trkpt lat="47.340639" lon="8.780927">
<ele>539.3</ele>
<time>2003-07-19T09:13:45Z</time>
<speed>1.4</speed>
</trkpt>
<trkpt lat="47.340620" lon="8.780830">
<ele>539.8</ele>
<time>2003-07-19T09:13:50Z</time>
<speed>1.4</speed>
</trkpt>
<trkpt lat="47.340614" lon="8.780734">
<ele>540.5</ele>
<time>2003-07-19T09:13:55Z</time>
<speed>1.4</speed>
</trkpt>
<trkpt lat="47.340609" lon="8.780626">
<ele>541.0</ele>
<time>2003-07-19T09:14:00Z</time>
<speed>1.4</speed>
</trkpt>
<trkpt lat="47.340603" lon="8.780530">
<ele>541.6</ele>
<time>2003-07-19T09:14:05Z</time>
<speed>1.4</speed>
</trkpt>
<trkpt lat="47.340584" lon="8.780446">
<ele>542.2</ele>
<time>2003-07-19T09:14:10Z</time>
<speed>1.1</speed>
</trkpt>
<trkpt lat="47.340565" lon="8.780348">
<ele>542.8</ele>
<time>2003-07-19T09:14:15Z</time>
<speed>1.4</speed>
</trkpt>
<trkpt lat="47.340546" lon="8.780250">
<ele>543.3</ele>
<time>2003-07-19T09:14:20Z</time>
<speed>1.4</speed>
</trkpt>
<trkpt lat="47.340522" lon="8.780153">
<ele>543.2</ele>
<time>2003-07-19T09:14:25Z</time>
<speed>1.4</speed>
</trkpt>
<trkpt lat="47.340497" lon="8.780040">
<ele>544.3</ele>
<time>2003-07-19T09:14:31Z</time>
<speed>1.1</speed>
</trkpt>
<trkpt lat="47.340485" lon="8.779945">
<ele>544.1</ele>
<time>2003-07-19T09:14:36Z</time>
<speed>1.4</speed>
</trkpt>
<trkpt lat="47.340499" lon="8.779840">
<ele>544.1</ele>
<time>2003-07-19T09:14:41Z</time>
<speed>1.1</speed>
</trkpt>
<trkpt lat="47.340500" lon="8.779744">
<ele>545.4</ele>
<time>2003-07-19T09:14:46Z</time>
<speed>1.4</speed>
</trkpt>
<trkpt lat="47.340520" lon="8.779640">
<ele>546.0</ele>
<time>2003-07-19T09:14:51Z</time>
<speed>1.4</speed>
</trkpt>
<trkpt lat="47.340526" lon="8.779546">
<ele>546.7</ele>
<time>2003-07-19T09:14:56Z</time>
<speed>1.4</speed>
</trkpt>
<trkpt lat="47.340533" lon="8.779455">
<ele>546.0</ele>
<time>2003-07-19T09:15:01Z</time>
<speed>1.1</speed>
</trkpt>
<trkpt lat="47.340535" lon="8.779350">
<ele>544.4</ele>
<time>2003-07-19T09:15:06Z</time>
<speed>1.4</speed>
</trkpt>
<trkpt lat="47.340536" lon="8.779258">
<ele>543.0</ele>
<time>2003-07-19T09:15:11Z</time>
<speed>1.1</speed>
</trkpt>
<trkpt lat="47.340543" lon="8.779167">
<ele>542.3</ele>
<time>2003-07-19T09:15:16Z</time>
<speed>1.1</speed>
</trkpt>
<trkpt lat="47.340553" lon="8.779049">
<ele>541.3</ele>
<time>2003-07-19T09:15:21Z</time>
<speed>1.4</speed>
</trkpt>
<trkpt lat="47.340547" lon="8.778956">
<ele>540.5</ele>
<time>2003-07-19T09:15:26Z</time>
<speed>1.1</speed>
</trkpt>
<trkpt lat="47.340542" lon="8.778849">
<ele>539.6</ele>
<time>2003-07-19T09:15:31Z</time>
<speed>1.4</speed>
</trkpt>
<trkpt lat="47.340516" lon="8.778778">
<ele>539.7</ele>
<time>2003-07-19T09:15:36Z</time>
<speed>0.8</speed>
</trkpt>
<trkpt lat="47.340482" lon="8.778719">
<ele>539.1</ele>
<time>2003-07-19T09:15:41Z</time>
<speed>0.6</speed>
</trkpt>
<trkpt lat="47.340424" lon="8.778644">
<ele>538.2</ele>
<time>2003-07-19T09:15:46Z</time>
<speed>1.7</speed>
</trkpt>
<trkpt lat="47.340376" lon="8.778594">
<ele>539.0</ele>
<time>2003-07-19T09:15:51Z</time>
<speed>0.8</speed>
</trkpt>
<trkpt lat="47.340329" lon="8.778549">
<ele>537.1</ele>
<time>2003-07-19T09:15:56Z</time>
<speed>1.1</speed>
</trkpt>
<trkpt lat="47.340277" lon="8.778474">
<ele>537.0</ele>
<time>2003-07-19T09:16:01Z</time>
<speed>1.4</speed>
</trkpt>
<trkpt lat="47.340248" lon="8.778428">
<ele>537.2</ele>
<time>2003-07-19T09:16:06Z</time>
<speed>1.1</speed>
</trkpt>
<trkpt lat="47.340198" lon="8.778327">
<ele>536.9</ele>
<time>2003-07-19T09:16:11Z</time>
<speed>1.4</speed>
</trkpt>
<trkpt lat="47.340148" lon="8.778225">
<ele>536.5</ele>
<time>2003-07-19T09:16:16Z</time>
<speed>1.4</speed>
</trkpt>
<trkpt lat="47.340123" lon="8.778126">
<ele>537.8</ele>
<time>2003-07-19T09:16:21Z</time>
<speed>1.4</speed>
</trkpt>
<trkpt lat="47.340117" lon="8.778030">
<ele>538.4</ele>
<time>2003-07-19T09:16:26Z</time>
<speed>1.1</speed>
</trkpt>
<trkpt lat="47.340105" lon="8.777934">
<ele>538.3</ele>
<time>2003-07-19T09:16:31Z</time>
<speed>1.4</speed>
</trkpt>
<trkpt lat="47.340100" lon="8.777826">
<ele>538.8</ele>
<time>2003-07-19T09:16:36Z</time>
<speed>1.4</speed>
</trkpt>
<trkpt lat="47.340094" lon="8.777730">
<ele>539.4</ele>
<time>2003-07-19T09:16:41Z</time>
<speed>1.4</speed>
</trkpt>
<trkpt lat="47.340082" lon="8.777635">
<ele>539.3</ele>
<time>2003-07-19T09:16:46Z</time>
<speed>1.4</speed>
</trkpt>
<trkpt lat="47.340057" lon="8.777537">
<ele>539.1</ele>
<time>2003-07-19T09:16:51Z</time>
<speed>1.4</speed>
</trkpt>
<trkpt lat="47.340038" lon="8.777439">
<ele>539.6</ele>
<time>2003-07-19T09:16:56Z</time>
<speed>1.4</speed>
</trkpt>
<trkpt lat="47.340019" lon="8.777355">
<ele>540.3</ele>
<time>2003-07-19T09:17:01Z</time>
<speed>1.4</speed>
</trkpt>
<trkpt lat="47.339994" lon="8.777257">
<ele>540.1</ele>
<time>2003-07-19T09:17:06Z</time>
<speed>1.1</speed>
</trkpt>
<trkpt lat="47.339982" lon="8.777162">
<ele>540.0</ele>
<time>2003-07-19T09:17:11Z</time>
<speed>1.4</speed>
</trkpt>
<trkpt lat="47.339956" lon="8.777077">
<ele>539.9</ele>
<time>2003-07-19T09:17:16Z</time>
<speed>1.1</speed>
</trkpt>
<trkpt lat="47.339931" lon="8.776980">
<ele>539.7</ele>
<time>2003-07-19T09:17:21Z</time>
<speed>1.4</speed>
</trkpt>
<trkpt lat="47.339912" lon="8.776895">
<ele>540.4</ele>
<time>2003-07-19T09:17:26Z</time>
<speed>1.1</speed>
</trkpt>
<trkpt lat="47.339887" lon="8.776798">
<ele>540.2</ele>
<time>2003-07-19T09:17:31Z</time>
<speed>1.4</speed>
</trkpt>
<trkpt lat="47.339868" lon="8.776700">
<ele>540.7</ele>
<time>2003-07-19T09:17:36Z</time>
<speed>1.1</speed>
</trkpt>
<trkpt lat="47.339850" lon="8.776604">
<ele>539.9</ele>
<time>2003-07-19T09:17:41Z</time>
<speed>1.4</speed>
</trkpt>
<trkpt lat="47.339838" lon="8.776509">
<ele>539.8</ele>
<time>2003-07-19T09:17:46Z</time>
<speed>1.4</speed>
</trkpt>
<trkpt lat="47.339827" lon="8.776400">
<ele>539.5</ele>
<time>2003-07-19T09:17:51Z</time>
<speed>1.4</speed>
</trkpt>
<trkpt lat="47.339821" lon="8.776305">
<ele>540.2</ele>
<time>2003-07-19T09:17:56Z</time>
<speed>1.4</speed>
</trkpt>
<trkpt lat="47.339803" lon="8.776209">
<ele>539.3</ele>
<time>2003-07-19T09:18:01Z</time>
<speed>1.4</speed>
</trkpt>
<trkpt lat="47.339798" lon="8.776102">
<ele>538.4</ele>
<time>2003-07-19T09:18:06Z</time>
<speed>1.1</speed>
</trkpt>
<trkpt lat="47.339792" lon="8.776007">
<ele>539.0</ele>
<time>2003-07-19T09:18:11Z</time>
<speed>1.4</speed>
</trkpt>
<trkpt lat="47.339786" lon="8.775911">
<ele>539.6</ele>
<time>2003-07-19T09:18:16Z</time>
<speed>1.1</speed>
</trkpt>
<trkpt lat="47.339787" lon="8.775818">
<ele>539.6</ele>
<time>2003-07-19T09:18:21Z</time>
<speed>1.4</speed>
</trkpt>
<trkpt lat="47.339787" lon="8.775724">
<ele>539.5</ele>
<time>2003-07-19T09:18:26Z</time>
<speed>1.4</speed>
</trkpt>
<trkpt lat="47.339794" lon="8.775631">
<ele>540.2</ele>
<time>2003-07-19T09:18:31Z</time>
<speed>1.4</speed>
</trkpt>
<trkpt lat="47.339826" lon="8.775541">
<ele>541.0</ele>
<time>2003-07-19T09:18:36Z</time>
<speed>1.1</speed>
</trkpt>
<trkpt lat="47.339887" lon="8.775499">
<ele>540.2</ele>
<time>2003-07-19T09:18:41Z</time>
<speed>1.4</speed>
</trkpt>
<trkpt lat="47.339948" lon="8.775457">
<ele>539.4</ele>
<time>2003-07-19T09:18:46Z</time>
<speed>1.1</speed>
</trkpt>
<trkpt lat="47.340009" lon="8.775414">
<ele>538.6</ele>
<time>2003-07-19T09:18:51Z</time>
<speed>1.4</speed>
</trkpt>
<trkpt lat="47.340083" lon="8.775374">
<ele>537.8</ele>
<time>2003-07-19T09:18:57Z</time>
<speed>1.4</speed>
</trkpt>
<trkpt lat="47.340149" lon="8.775345">
<ele>537.8</ele>
<time>2003-07-19T09:19:02Z</time>
<speed>1.4</speed>
</trkpt>
<trkpt lat="47.340215" lon="8.775318">
<ele>536.4</ele>
<time>2003-07-19T09:19:07Z</time>
<speed>1.4</speed>
</trkpt>
<trkpt lat="47.340282" lon="8.775289">
<ele>536.5</ele>
<time>2003-07-19T09:19:12Z</time>
<speed>1.4</speed>
</trkpt>
<trkpt lat="47.340336" lon="8.775245">
<ele>536.3</ele>
<time>2003-07-19T09:19:17Z</time>
<speed>1.1</speed>
</trkpt>
<trkpt lat="47.340402" lon="8.775215">
<ele>536.3</ele>
<time>2003-07-19T09:19:22Z</time>
<speed>1.4</speed>
</trkpt>
<trkpt lat="47.340469" lon="8.775186">
<ele>536.3</ele>
<time>2003-07-19T09:19:27Z</time>
<speed>1.4</speed>
</trkpt>
<trkpt lat="47.340535" lon="8.775157">
<ele>536.4</ele>
<time>2003-07-19T09:19:32Z</time>
<speed>1.4</speed>
</trkpt>
<trkpt lat="47.340588" lon="8.775126">
<ele>536.3</ele>
<time>2003-07-19T09:19:37Z</time>
<speed>1.4</speed>
</trkpt>
<trkpt lat="47.340655" lon="8.775084">
<ele>536.2</ele>
<time>2003-07-19T09:19:42Z</time>
<speed>1.4</speed>
</trkpt>
<trkpt lat="47.340722" lon="8.775055">
<ele>536.2</ele>
<time>2003-07-19T09:19:47Z</time>
<speed>1.4</speed>
</trkpt>
<trkpt lat="47.340789" lon="8.775012">
<ele>536.2</ele>
<time>2003-07-19T09:19:52Z</time>
<speed>1.4</speed>
</trkpt>
<trkpt lat="47.340848" lon="8.774981">
<ele>536.8</ele>
<time>2003-07-19T09:19:57Z</time>
<speed>0.8</speed>
</trkpt>
<trkpt lat="47.340901" lon="8.774963">
<ele>536.9</ele>
<time>2003-07-19T09:20:02Z</time>
<speed>1.1</speed>
</trkpt>
<trkpt lat="47.340967" lon="8.774934">
<ele>536.9</ele>
<time>2003-07-19T09:20:07Z</time>
<speed>1.1</speed>
</trkpt>
<trkpt lat="47.341027" lon="8.774903">
<ele>537.6</ele>
<time>2003-07-19T09:20:12Z</time>
<speed>1.4</speed>
</trkpt>
<trkpt lat="47.341094" lon="8.774863">
<ele>536.1</ele>
<time>2003-07-19T09:20:17Z</time>
<speed>1.4</speed>
</trkpt>
<trkpt lat="47.341156" lon="8.774821">
<ele>535.3</ele>
<time>2003-07-19T09:20:22Z</time>
<speed>1.4</speed>
</trkpt>
<trkpt lat="47.341228" lon="8.774793">
<ele>534.6</ele>
<time>2003-07-19T09:20:27Z</time>
<speed>1.4</speed>
</trkpt>
<trkpt lat="47.341296" lon="8.774751">
<ele>534.6</ele>
<time>2003-07-19T09:20:32Z</time>
<speed>1.4</speed>
</trkpt>
<trkpt lat="47.341354" lon="8.774733">
<ele>535.4</ele>
<time>2003-07-19T09:20:37Z</time>
<speed>1.1</speed>
</trkpt>
<trkpt lat="47.341406" lon="8.774728">
<ele>535.5</ele>
<time>2003-07-19T09:20:42Z</time>
<speed>0.6</speed>
</trkpt>
<trkpt lat="47.341444" lon="8.774734">
<ele>535.7</ele>
<time>2003-07-19T09:20:47Z</time>
<speed>0.6</speed>
</trkpt>
<trkpt lat="47.341495" lon="8.774727">
<ele>537.3</ele>
<time>2003-07-19T09:20:52Z</time>
<speed>0.6</speed>
</trkpt>
<trkpt lat="47.341572" lon="8.774728">
<ele>536.2</ele>
<time>2003-07-19T09:20:57Z</time>
<speed>1.1</speed>
</trkpt>
<trkpt lat="47.341661" lon="8.774744">
<ele>535.2</ele>
<time>2003-07-19T09:21:02Z</time>
<speed>1.4</speed>
</trkpt>
<trkpt lat="47.341730" lon="8.774754">
<ele>536.3</ele>
<time>2003-07-19T09:21:07Z</time>
<speed>1.1</speed>
</trkpt>
<trkpt lat="47.341800" lon="8.774767">
<ele>535.9</ele>
<time>2003-07-19T09:21:12Z</time>
<speed>1.1</speed>
</trkpt>
<trkpt lat="47.341883" lon="8.774768">
<ele>535.6</ele>
<time>2003-07-19T09:21:17Z</time>
<speed>1.1</speed>
</trkpt>
<trkpt lat="47.341946" lon="8.774778">
<ele>535.9</ele>
<time>2003-07-19T09:21:22Z</time>
<speed>1.4</speed>
</trkpt>
<trkpt lat="47.342017" lon="8.774777">
<ele>535.4</ele>
<time>2003-07-19T09:21:27Z</time>
<speed>1.1</speed>
</trkpt>
<trkpt lat="47.342093" lon="8.774789">
<ele>535.8</ele>
<time>2003-07-19T09:21:32Z</time>
<speed>1.4</speed>
</trkpt>
<trkpt lat="47.342162" lon="8.774799">
<ele>536.9</ele>
<time>2003-07-19T09:21:37Z</time>
<speed>1.4</speed>
</trkpt>
<trkpt lat="47.342226" lon="8.774796">
<ele>537.1</ele>
<time>2003-07-19T09:21:42Z</time>
<speed>1.4</speed>
</trkpt>
<trkpt lat="47.342295" lon="8.774806">
<ele>538.2</ele>
<time>2003-07-19T09:21:47Z</time>
<speed>1.1</speed>
</trkpt>
<trkpt lat="47.342365" lon="8.774818">
<ele>537.9</ele>
<time>2003-07-19T09:21:52Z</time>
<speed>1.4</speed>
</trkpt>
<trkpt lat="47.342422" lon="8.774826">
<ele>538.9</ele>
<time>2003-07-19T09:21:57Z</time>
<speed>1.1</speed>
</trkpt>
<trkpt lat="47.342498" lon="8.774825">
<ele>539.1</ele>
<time>2003-07-19T09:22:02Z</time>
<speed>1.4</speed>
</trkpt>
<trkpt lat="47.342568" lon="8.774835">
<ele>540.2</ele>
<time>2003-07-19T09:22:07Z</time>
<speed>1.4</speed>
</trkpt>
<trkpt lat="47.342630" lon="8.774843">
<ele>541.9</ele>
<time>2003-07-19T09:22:12Z</time>
<speed>1.4</speed>
</trkpt>
<trkpt lat="47.342694" lon="8.774854">
<ele>542.3</ele>
<time>2003-07-19T09:22:17Z</time>
<speed>1.1</speed>
</trkpt>
<trkpt lat="47.342752" lon="8.774851">
<ele>541.8</ele>
<time>2003-07-19T09:22:22Z</time>
<speed>1.1</speed>
</trkpt>
<trkpt lat="47.342816" lon="8.774850">
<ele>540.6</ele>
<time>2003-07-19T09:22:27Z</time>
<speed>1.4</speed>
</trkpt>
<trkpt lat="47.342882" lon="8.774836">
<ele>539.3</ele>
<time>2003-07-19T09:22:32Z</time>
<speed>1.1</speed>
</trkpt>
<trkpt lat="47.342947" lon="8.774819">
<ele>539.4</ele>
<time>2003-07-19T09:22:37Z</time>
<speed>1.1</speed>
</trkpt>
<trkpt lat="47.343011" lon="8.774816">
<ele>539.6</ele>
<time>2003-07-19T09:22:42Z</time>
<speed>1.4</speed>
</trkpt>
<trkpt lat="47.343081" lon="8.774814">
<ele>540.6</ele>
<time>2003-07-19T09:22:47Z</time>
<speed>1.1</speed>
</trkpt>
<trkpt lat="47.343140" lon="8.774811">
<ele>540.1</ele>
<time>2003-07-19T09:22:52Z</time>
<speed>0.8</speed>
</trkpt>
<trkpt lat="47.343204" lon="8.774808">
<ele>540.3</ele>
<time>2003-07-19T09:22:57Z</time>
<speed>0.8</speed>
</trkpt>
<trkpt lat="47.343255" lon="8.774803">
<ele>540.5</ele>
<time>2003-07-19T09:23:02Z</time>
<speed>0.8</speed>
</trkpt>
<trkpt lat="47.343313" lon="8.774800">
<ele>540.0</ele>
<time>2003-07-19T09:23:07Z</time>
<speed>0.8</speed>
</trkpt>
<trkpt lat="47.343377" lon="8.774797">
<ele>540.2</ele>
<time>2003-07-19T09:23:12Z</time>
<speed>0.8</speed>
</trkpt>
<trkpt lat="47.343441" lon="8.774807">
<ele>540.5</ele>
<time>2003-07-19T09:23:17Z</time>
<speed>1.1</speed>
</trkpt>
<trkpt lat="47.343525" lon="8.774797">
<ele>538.6</ele>
<time>2003-07-19T09:23:22Z</time>
<speed>1.4</speed>
</trkpt>
<trkpt lat="47.343609" lon="8.774798">
<ele>538.3</ele>
<time>2003-07-19T09:23:27Z</time>
<speed>1.4</speed>
</trkpt>
<trkpt lat="47.343679" lon="8.774797">
<ele>537.8</ele>
<time>2003-07-19T09:23:32Z</time>
<speed>1.4</speed>
</trkpt>
<trkpt lat="47.343750" lon="8.774796">
<ele>537.4</ele>
<time>2003-07-19T09:23:37Z</time>
<speed>1.1</speed>
</trkpt>
<trkpt lat="47.343822" lon="8.774782">
<ele>536.8</ele>
<time>2003-07-19T09:23:42Z</time>
<speed>1.4</speed>
</trkpt>
<trkpt lat="47.343893" lon="8.774781">
<ele>536.4</ele>
<time>2003-07-19T09:23:47Z</time>
<speed>1.4</speed>
</trkpt>
<trkpt lat="47.343972" lon="8.774756">
<ele>535.1</ele>
<time>2003-07-19T09:23:52Z</time>
<speed>1.4</speed>
</trkpt>
<trkpt lat="47.344036" lon="8.774753">
<ele>535.3</ele>
<time>2003-07-19T09:23:57Z</time>
<speed>1.1</speed>
</trkpt>
<trkpt lat="47.344099" lon="8.774763">
<ele>535.6</ele>
<time>2003-07-19T09:24:02Z</time>
<speed>1.1</speed>
</trkpt>
<trkpt lat="47.344174" lon="8.774788">
<ele>536.1</ele>
<time>2003-07-19T09:24:07Z</time>
<speed>1.4</speed>
</trkpt>
<trkpt lat="47.344238" lon="8.774785">
<ele>536.3</ele>
<time>2003-07-19T09:24:12Z</time>
<speed>1.1</speed>
</trkpt>
<trkpt lat="47.344309" lon="8.774784">
<ele>535.9</ele>
<time>2003-07-19T09:24:17Z</time>
<speed>1.4</speed>
</trkpt>
<trkpt lat="47.344379" lon="8.774783">
<ele>535.4</ele>
<time>2003-07-19T09:24:22Z</time>
<speed>1.4</speed>
</trkpt>
<trkpt lat="47.344454" lon="8.774808">
<ele>535.9</ele>
<time>2003-07-19T09:24:27Z</time>
<speed>1.4</speed>
</trkpt>
<trkpt lat="47.344517" lon="8.774818">
<ele>536.3</ele>
<time>2003-07-19T09:24:32Z</time>
<speed>1.4</speed>
</trkpt>
<trkpt lat="47.344583" lon="8.774802">
<ele>536.4</ele>
<time>2003-07-19T09:24:37Z</time>
<speed>1.1</speed>
</trkpt>
<trkpt lat="47.344648" lon="8.774788">
<ele>535.1</ele>
<time>2003-07-19T09:24:42Z</time>
<speed>1.4</speed>
</trkpt>
<trkpt lat="47.344694" lon="8.774783">
<ele>534.5</ele>
<time>2003-07-19T09:24:47Z</time>
<speed>0.0</speed>
</trkpt>
<trkpt lat="47.344694" lon="8.774783">
<ele>534.5</ele>
<time>2003-07-19T09:24:52Z</time>
<speed>0.0</speed>
</trkpt>
<trkpt lat="47.344745" lon="8.774778">
<ele>534.7</ele>
<time>2003-07-19T09:24:57Z</time>
<speed>1.1</speed>
</trkpt>
<trkpt lat="47.344809" lon="8.774775">
<ele>534.9</ele>
<time>2003-07-19T09:25:02Z</time>
<speed>1.4</speed>
</trkpt>
<trkpt lat="47.344874" lon="8.774772">
<ele>535.1</ele>
<time>2003-07-19T09:25:07Z</time>
<speed>1.1</speed>
</trkpt>
<trkpt lat="47.344932" lon="8.774769">
<ele>534.6</ele>
<time>2003-07-19T09:25:12Z</time>
<speed>1.1</speed>
</trkpt>
<trkpt lat="47.344984" lon="8.774751">
<ele>534.7</ele>
<time>2003-07-19T09:25:17Z</time>
<speed>0.8</speed>
</trkpt>
<trkpt lat="47.345044" lon="8.774720">
<ele>535.4</ele>
<time>2003-07-19T09:25:22Z</time>
<speed>0.8</speed>
</trkpt>
<trkpt lat="47.345094" lon="8.774728">
<ele>535.6</ele>
<time>2003-07-19T09:25:27Z</time>
<speed>0.8</speed>
</trkpt>
<trkpt lat="47.345172" lon="8.774714">
<ele>535.8</ele>
<time>2003-07-19T09:25:32Z</time>
<speed>0.8</speed>
</trkpt>
<trkpt lat="47.345235" lon="8.774724">
<ele>536.2</ele>
<time>2003-07-19T09:25:37Z</time>
<speed>1.1</speed>
</trkpt>
<trkpt lat="47.345298" lon="8.774734">
<ele>536.5</ele>
<time>2003-07-19T09:25:42Z</time>
<speed>0.8</speed>
</trkpt>
<trkpt lat="47.345369" lon="8.774733">
<ele>536.0</ele>
<time>2003-07-19T09:25:47Z</time>
<speed>0.8</speed>
</trkpt>
<trkpt lat="47.345440" lon="8.774732">
<ele>535.6</ele>
<time>2003-07-19T09:25:52Z</time>
<speed>1.1</speed>
</trkpt>
<trkpt lat="47.345532" lon="8.774709">
<ele>534.3</ele>
<time>2003-07-19T09:25:57Z</time>
<speed>1.4</speed>
</trkpt>
<trkpt lat="47.345611" lon="8.774682">
<ele>534.4</ele>
<time>2003-07-19T09:26:02Z</time>
<speed>1.4</speed>
</trkpt>
<trkpt lat="47.345664" lon="8.774651">
<ele>534.4</ele>
<time>2003-07-19T09:26:07Z</time>
<speed>1.1</speed>
</trkpt>
<trkpt lat="47.345716" lon="8.774646">
<ele>534.5</ele>
<time>2003-07-19T09:26:12Z</time>
<speed>0.6</speed>
</trkpt>
<trkpt lat="47.345755" lon="8.774639">
<ele>534.6</ele>
<time>2003-07-19T09:26:17Z</time>
<speed>0.8</speed>
</trkpt>
<trkpt lat="47.345851" lon="8.774629">
<ele>534.2</ele>
<time>2003-07-19T09:26:22Z</time>
<speed>1.1</speed>
</trkpt>
<trkpt lat="47.345917" lon="8.774615">
<ele>532.9</ele>
<time>2003-07-19T09:26:27Z</time>
<speed>1.1</speed>
</trkpt>
<trkpt lat="47.345988" lon="8.774614">
<ele>532.5</ele>
<time>2003-07-19T09:26:32Z</time>
<speed>1.1</speed>
</trkpt>
<trkpt lat="47.346061" lon="8.774587">
<ele>531.8</ele>
<time>2003-07-19T09:26:37Z</time>
<speed>1.1</speed>
</trkpt>
<trkpt lat="47.346128" lon="8.774545">
<ele>531.8</ele>
<time>2003-07-19T09:26:42Z</time>
<speed>1.1</speed>
</trkpt>
<trkpt lat="47.346180" lon="8.774526">
<ele>531.8</ele>
<time>2003-07-19T09:26:47Z</time>
<speed>1.1</speed>
</trkpt>
<trkpt lat="47.346232" lon="8.774521">
<ele>532.0</ele>
<time>2003-07-19T09:26:52Z</time>
<speed>0.3</speed>
</trkpt>
<trkpt lat="47.346231" lon="8.774535">
<ele>532.1</ele>
<time>2003-07-19T09:26:57Z</time>
<speed>0.3</speed>
</trkpt>
<trkpt lat="47.346289" lon="8.774516">
<ele>532.9</ele>
<time>2003-07-19T09:27:02Z</time>
<speed>1.4</speed>
</trkpt>
<trkpt lat="47.346349" lon="8.774485">
<ele>533.6</ele>
<time>2003-07-19T09:27:07Z</time>
<speed>1.4</speed>
</trkpt>
<trkpt lat="47.346416" lon="8.774443">
<ele>533.5</ele>
<time>2003-07-19T09:27:12Z</time>
<speed>1.1</speed>
</trkpt>
<trkpt lat="47.346477" lon="8.774399">
<ele>534.1</ele>
<time>2003-07-19T09:27:17Z</time>
<speed>1.4</speed>
</trkpt>
<trkpt lat="47.346543" lon="8.774370">
<ele>534.1</ele>
<time>2003-07-19T09:27:22Z</time>
<speed>1.4</speed>
</trkpt>
<trkpt lat="47.346598" lon="8.774325">
<ele>533.9</ele>
<time>2003-07-19T09:27:27Z</time>
<speed>1.1</speed>
</trkpt>
<trkpt lat="47.346670" lon="8.774296">
<ele>534.7</ele>
<time>2003-07-19T09:27:32Z</time>
<speed>1.4</speed>
</trkpt>
<trkpt lat="47.346722" lon="8.774278">
<ele>534.7</ele>
<time>2003-07-19T09:27:37Z</time>
<speed>1.1</speed>
</trkpt>
<trkpt lat="47.346776" lon="8.774247">
<ele>534.7</ele>
<time>2003-07-19T09:27:42Z</time>
<speed>0.6</speed>
</trkpt>
<trkpt lat="47.346824" lon="8.774201">
<ele>535.2</ele>
<time>2003-07-19T09:27:48Z</time>
<speed>1.1</speed>
</trkpt>
<trkpt lat="47.346867" lon="8.774142">
<ele>534.9</ele>
<time>2003-07-19T09:27:53Z</time>
<speed>0.8</speed>
</trkpt>
<trkpt lat="47.346922" lon="8.774097">
<ele>534.7</ele>
<time>2003-07-19T09:27:58Z</time>
<speed>0.8</speed>
</trkpt>
<trkpt lat="47.346976" lon="8.774051">
<ele>536.0</ele>
<time>2003-07-19T09:28:03Z</time>
<speed>1.1</speed>
</trkpt>
<trkpt lat="47.347030" lon="8.774007">
<ele>535.9</ele>
<time>2003-07-19T09:28:08Z</time>
<speed>0.8</speed>
</trkpt>
<trkpt lat="47.347086" lon="8.773949">
<ele>535.6</ele>
<time>2003-07-19T09:28:13Z</time>
<speed>1.1</speed>
</trkpt>
<trkpt lat="47.347154" lon="8.773894">
<ele>535.4</ele>
<time>2003-07-19T09:28:18Z</time>
<speed>1.1</speed>
</trkpt>
<trkpt lat="47.347195" lon="8.773846">
<ele>536.6</ele>
<time>2003-07-19T09:28:23Z</time>
<speed>0.8</speed>
</trkpt>
<trkpt lat="47.347258" lon="8.773791">
<ele>535.7</ele>
<time>2003-07-19T09:28:28Z</time>
<speed>0.8</speed>
</trkpt>
<trkpt lat="47.347320" lon="8.773735">
<ele>534.8</ele>
<time>2003-07-19T09:28:33Z</time>
<speed>1.4</speed>
</trkpt>
<trkpt lat="47.347375" lon="8.773678">
<ele>534.5</ele>
<time>2003-07-19T09:28:38Z</time>
<speed>1.4</speed>
</trkpt>
<trkpt lat="47.347436" lon="8.773634">
<ele>535.1</ele>
<time>2003-07-19T09:28:43Z</time>
<speed>1.1</speed>
</trkpt>
<trkpt lat="47.347491" lon="8.773576">
<ele>534.8</ele>
<time>2003-07-19T09:28:48Z</time>
<speed>1.1</speed>
</trkpt>
<trkpt lat="47.347552" lon="8.773532">
<ele>535.4</ele>
<time>2003-07-19T09:28:53Z</time>
<speed>1.1</speed>
</trkpt>
<trkpt lat="47.347614" lon="8.773477">
<ele>534.5</ele>
<time>2003-07-19T09:28:58Z</time>
<speed>1.1</speed>
</trkpt>
<trkpt lat="47.347675" lon="8.773433">
<ele>535.1</ele>
<time>2003-07-19T09:29:03Z</time>
<speed>1.1</speed>
</trkpt>
<trkpt lat="47.347702" lon="8.773411">
<ele>535.0</ele>
<time>2003-07-19T09:29:08Z</time>
<speed>0.8</speed>
</trkpt>
<trkpt lat="47.347764" lon="8.773353">
<ele>535.5</ele>
<time>2003-07-19T09:29:13Z</time>
<speed>1.4</speed>
</trkpt>
<trkpt lat="47.347851" lon="8.773300">
<ele>536.1</ele>
<time>2003-07-19T09:29:18Z</time>
<speed>1.4</speed>
</trkpt>
<trkpt lat="47.347918" lon="8.773258">
<ele>536.0</ele>
<time>2003-07-19T09:29:23Z</time>
<speed>1.4</speed>
</trkpt>
<trkpt lat="47.347991" lon="8.773215">
<ele>536.7</ele>
<time>2003-07-19T09:29:28Z</time>
<speed>1.1</speed>
</trkpt>
<trkpt lat="47.348046" lon="8.773171">
<ele>536.5</ele>
<time>2003-07-19T09:29:33Z</time>
<speed>1.4</speed>
</trkpt>
<trkpt lat="47.348113" lon="8.773129">
<ele>536.4</ele>
<time>2003-07-19T09:29:38Z</time>
<speed>1.4</speed>
</trkpt>
<trkpt lat="47.348174" lon="8.773087">
<ele>535.6</ele>
<time>2003-07-19T09:29:43Z</time>
<speed>1.4</speed>
</trkpt>
<trkpt lat="47.348240" lon="8.773058">
<ele>535.6</ele>
<time>2003-07-19T09:29:48Z</time>
<speed>1.4</speed>
</trkpt>
<trkpt lat="47.348307" lon="8.773015">
<ele>535.6</ele>
<time>2003-07-19T09:29:53Z</time>
<speed>1.4</speed>
</trkpt>
<trkpt lat="47.348368" lon="8.772986">
<ele>534.8</ele>
<time>2003-07-19T09:29:58Z</time>
<speed>1.4</speed>
</trkpt>
<trkpt lat="47.348427" lon="8.772955">
<ele>535.5</ele>
<time>2003-07-19T09:30:03Z</time>
<speed>1.4</speed>
</trkpt>
<trkpt lat="47.348488" lon="8.772913">
<ele>534.7</ele>
<time>2003-07-19T09:30:08Z</time>
<speed>1.4</speed>
</trkpt>
<trkpt lat="47.348555" lon="8.772871">
<ele>534.6</ele>
<time>2003-07-19T09:30:13Z</time>
<speed>1.4</speed>
</trkpt>
<trkpt lat="47.348616" lon="8.772826">
<ele>535.2</ele>
<time>2003-07-19T09:30:18Z</time>
<speed>1.1</speed>
</trkpt>
<trkpt lat="47.348659" lon="8.772767">
<ele>534.9</ele>
<time>2003-07-19T09:30:23Z</time>
<speed>1.1</speed>
</trkpt>
<trkpt lat="47.348695" lon="8.772706">
<ele>535.2</ele>
<time>2003-07-19T09:30:28Z</time>
<speed>0.8</speed>
</trkpt>
<trkpt lat="47.348743" lon="8.772673">
<ele>535.9</ele>
<time>2003-07-19T09:30:33Z</time>
<speed>0.6</speed>
</trkpt>
<trkpt lat="47.348809" lon="8.772643">
<ele>535.9</ele>
<time>2003-07-19T09:30:38Z</time>
<speed>1.1</speed>
</trkpt>
<trkpt lat="47.348875" lon="8.772614">
<ele>535.9</ele>
<time>2003-07-19T09:30:43Z</time>
<speed>1.1</speed>
</trkpt>
<trkpt lat="47.348934" lon="8.772596">
<ele>536.7</ele>
<time>2003-07-19T09:30:48Z</time>
<speed>1.1</speed>
</trkpt>
<trkpt lat="47.348993" lon="8.772580">
<ele>536.1</ele>
<time>2003-07-19T09:30:53Z</time>
<speed>1.1</speed>
</trkpt>
<trkpt lat="47.349059" lon="8.772551">
<ele>536.1</ele>
<time>2003-07-19T09:30:58Z</time>
<speed>1.1</speed>
</trkpt>
<trkpt lat="47.349112" lon="8.772520">
<ele>536.1</ele>
<time>2003-07-19T09:31:03Z</time>
<speed>1.4</speed>
</trkpt>
<trkpt lat="47.349190" lon="8.772506">
<ele>536.2</ele>
<time>2003-07-19T09:31:08Z</time>
<speed>1.4</speed>
</trkpt>
<trkpt lat="47.349267" lon="8.772505">
<ele>536.5</ele>
<time>2003-07-19T09:31:13Z</time>
<speed>1.4</speed>
</trkpt>
<trkpt lat="47.349332" lon="8.772489">
<ele>536.7</ele>
<time>2003-07-19T09:31:18Z</time>
<speed>1.1</speed>
</trkpt>
<trkpt lat="47.349397" lon="8.772473">
<ele>536.8</ele>
<time>2003-07-19T09:31:23Z</time>
<speed>1.4</speed>
</trkpt>
<trkpt lat="47.349456" lon="8.772455">
<ele>537.6</ele>
<time>2003-07-19T09:31:28Z</time>
<speed>0.8</speed>
</trkpt>
<trkpt lat="47.349509" lon="8.772423">
<ele>537.5</ele>
<time>2003-07-19T09:31:33Z</time>
<speed>0.6</speed>
</trkpt>
<trkpt lat="47.349563" lon="8.772392">
<ele>537.5</ele>
<time>2003-07-19T09:31:38Z</time>
<speed>1.1</speed>
</trkpt>
<trkpt lat="47.349617" lon="8.772363">
<ele>536.0</ele>
<time>2003-07-19T09:31:43Z</time>
<speed>1.1</speed>
</trkpt>
<trkpt lat="47.349690" lon="8.772321">
<ele>536.7</ele>
<time>2003-07-19T09:31:48Z</time>
<speed>1.4</speed>
</trkpt>
<trkpt lat="47.349752" lon="8.772266">
<ele>535.8</ele>
<time>2003-07-19T09:31:53Z</time>
<speed>1.4</speed>
</trkpt>
<trkpt lat="47.349813" lon="8.772221">
<ele>536.3</ele>
<time>2003-07-19T09:31:58Z</time>
<speed>1.4</speed>
</trkpt>
<trkpt lat="47.349881" lon="8.772166">
<ele>536.2</ele>
<time>2003-07-19T09:32:03Z</time>
<speed>1.4</speed>
</trkpt>
<trkpt lat="47.349931" lon="8.772109">
<ele>535.2</ele>
<time>2003-07-19T09:32:08Z</time>
<speed>1.4</speed>
</trkpt>
<trkpt lat="47.349999" lon="8.772053">
<ele>535.0</ele>
<time>2003-07-19T09:32:13Z</time>
<speed>1.4</speed>
</trkpt>
<trkpt lat="47.350067" lon="8.771998">
<ele>534.8</ele>
<time>2003-07-19T09:32:19Z</time>
<speed>1.4</speed>
</trkpt>
<trkpt lat="47.350121" lon="8.771967">
<ele>534.7</ele>
<time>2003-07-19T09:32:24Z</time>
<speed>1.1</speed>
</trkpt>
<trkpt lat="47.350187" lon="8.771938">
<ele>534.8</ele>
<time>2003-07-19T09:32:29Z</time>
<speed>1.4</speed>
</trkpt>
<trkpt lat="47.350252" lon="8.771922">
<ele>534.9</ele>
<time>2003-07-19T09:32:34Z</time>
<speed>1.4</speed>
</trkpt>
<trkpt lat="47.350324" lon="8.771908">
<ele>534.3</ele>
<time>2003-07-19T09:32:39Z</time>
<speed>1.1</speed>
</trkpt>
<trkpt lat="47.350396" lon="8.771879">
<ele>535.1</ele>
<time>2003-07-19T09:32:44Z</time>
<speed>1.4</speed>
</trkpt>
<trkpt lat="47.350450" lon="8.771847">
<ele>535.1</ele>
<time>2003-07-19T09:32:49Z</time>
<speed>1.1</speed>
</trkpt>
<trkpt lat="47.350482" lon="8.771838">
<ele>535.8</ele>
<time>2003-07-19T09:32:54Z</time>
<speed>0.0</speed>
</trkpt>
<trkpt lat="47.350527" lon="8.771831">
<ele>536.6</ele>
<time>2003-07-19T09:32:59Z</time>
<speed>0.8</speed>
</trkpt>
<trkpt lat="47.350567" lon="8.771811">
<ele>536.6</ele>
<time>2003-07-19T09:33:04Z</time>
<speed>0.3</speed>
</trkpt>
<trkpt lat="47.350646" lon="8.771784">
<ele>536.7</ele>
<time>2003-07-19T09:33:09Z</time>
<speed>1.1</speed>
</trkpt>
<trkpt lat="47.350725" lon="8.771742">
<ele>538.1</ele>
<time>2003-07-19T09:33:14Z</time>
<speed>1.4</speed>
</trkpt>
<trkpt lat="47.350811" lon="8.771704">
<ele>537.4</ele>
<time>2003-07-19T09:33:19Z</time>
<speed>1.1</speed>
</trkpt>
<trkpt lat="47.350884" lon="8.771674">
<ele>538.2</ele>
<time>2003-07-19T09:33:24Z</time>
<speed>1.1</speed>
</trkpt>
<trkpt lat="47.350942" lon="8.771656">
<ele>539.0</ele>
<time>2003-07-19T09:33:29Z</time>
<speed>1.4</speed>
</trkpt>
<trkpt lat="47.351016" lon="8.771614">
<ele>539.6</ele>
<time>2003-07-19T09:33:34Z</time>
<speed>1.4</speed>
</trkpt>
<trkpt lat="47.351077" lon="8.771557">
<ele>540.1</ele>
<time>2003-07-19T09:33:39Z</time>
<speed>1.1</speed>
</trkpt>
<trkpt lat="47.351131" lon="8.771511">
<ele>541.4</ele>
<time>2003-07-19T09:33:44Z</time>
<speed>1.1</speed>
</trkpt>
<trkpt lat="47.351193" lon="8.771453">
<ele>541.8</ele>
<time>2003-07-19T09:33:49Z</time>
<speed>1.1</speed>
</trkpt>
<trkpt lat="47.351215" lon="8.771418">
<ele>540.9</ele>
<time>2003-07-19T09:33:54Z</time>
<speed>0.3</speed>
</trkpt>
<trkpt lat="47.351267" lon="8.771335">
<ele>539.7</ele>
<time>2003-07-19T09:33:59Z</time>
<speed>1.4</speed>
</trkpt>
<trkpt lat="47.351318" lon="8.771249">
<ele>539.9</ele>
<time>2003-07-19T09:34:04Z</time>
<speed>1.1</speed>
</trkpt>
<trkpt lat="47.351356" lon="8.771162">
<ele>540.1</ele>
<time>2003-07-19T09:34:09Z</time>
<speed>1.4</speed>
</trkpt>
<trkpt lat="47.351400" lon="8.771089">
<ele>539.7</ele>
<time>2003-07-19T09:34:14Z</time>
<speed>0.8</speed>
</trkpt>
<trkpt lat="47.351442" lon="8.771041">
<ele>540.9</ele>
<time>2003-07-19T09:34:19Z</time>
<speed>0.6</speed>
</trkpt>
<trkpt lat="47.351485" lon="8.770982">
<ele>540.5</ele>
<time>2003-07-19T09:34:24Z</time>
<speed>0.8</speed>
</trkpt>
<trkpt lat="47.351547" lon="8.770911">
<ele>540.9</ele>
<time>2003-07-19T09:34:29Z</time>
<speed>1.1</speed>
</trkpt>
<trkpt lat="47.351610" lon="8.770841">
<ele>541.3</ele>
<time>2003-07-19T09:34:34Z</time>
<speed>1.1</speed>
</trkpt>
<trkpt lat="47.351672" lon="8.770768">
<ele>543.1</ele>
<time>2003-07-19T09:34:39Z</time>
<speed>1.1</speed>
</trkpt>
<trkpt lat="47.351735" lon="8.770698">
<ele>543.5</ele>
<time>2003-07-19T09:34:44Z</time>
<speed>1.1</speed>
</trkpt>
<trkpt lat="47.351778" lon="8.770639">
<ele>543.1</ele>
<time>2003-07-19T09:34:49Z</time>
<speed>0.8</speed>
</trkpt>
<trkpt lat="47.351833" lon="8.770581">
<ele>542.9</ele>
<time>2003-07-19T09:34:54Z</time>
<speed>0.8</speed>
</trkpt>
<trkpt lat="47.351883" lon="8.770524">
<ele>541.9</ele>
<time>2003-07-19T09:34:59Z</time>
<speed>1.4</speed>
</trkpt>
<trkpt lat="47.351937" lon="8.770480">
<ele>541.8</ele>
<time>2003-07-19T09:35:04Z</time>
<speed>1.1</speed>
</trkpt>
<trkpt lat="47.351999" lon="8.770422">
<ele>542.2</ele>
<time>2003-07-19T09:35:09Z</time>
<speed>1.4</speed>
</trkpt>
<trkpt lat="47.352047" lon="8.770378">
<ele>541.4</ele>
<time>2003-07-19T09:35:14Z</time>
<speed>0.8</speed>
</trkpt>
<trkpt lat="47.352107" lon="8.770362">
<ele>540.7</ele>
<time>2003-07-19T09:35:19Z</time>
<speed>1.1</speed>
</trkpt>
<trkpt lat="47.352180" lon="8.770322">
<ele>540.0</ele>
<time>2003-07-19T09:35:24Z</time>
<speed>1.4</speed>
</trkpt>
<trkpt lat="47.352241" lon="8.770280">
<ele>539.2</ele>
<time>2003-07-19T09:35:29Z</time>
<speed>1.1</speed>
</trkpt>
<trkpt lat="47.352315" lon="8.770237">
<ele>539.8</ele>
<time>2003-07-19T09:35:34Z</time>
<speed>1.4</speed>
</trkpt>
<trkpt lat="47.352381" lon="8.770208">
<ele>539.8</ele>
<time>2003-07-19T09:35:39Z</time>
<speed>1.4</speed>
</trkpt>
<trkpt lat="47.352447" lon="8.770179">
<ele>539.9</ele>
<time>2003-07-19T09:35:44Z</time>
<speed>1.4</speed>
</trkpt>
<trkpt lat="47.352513" lon="8.770150">
<ele>539.9</ele>
<time>2003-07-19T09:35:49Z</time>
<speed>1.4</speed>
</trkpt>
<trkpt lat="47.352580" lon="8.770108">
<ele>539.8</ele>
<time>2003-07-19T09:35:54Z</time>
<speed>1.4</speed>
</trkpt>
<trkpt lat="47.352634" lon="8.770076">
<ele>539.8</ele>
<time>2003-07-19T09:35:59Z</time>
<speed>1.4</speed>
</trkpt>
<trkpt lat="47.352695" lon="8.770032">
<ele>540.3</ele>
<time>2003-07-19T09:36:04Z</time>
<speed>1.4</speed>
</trkpt>
<trkpt lat="47.352761" lon="8.770003">
<ele>540.4</ele>
<time>2003-07-19T09:36:09Z</time>
<speed>1.4</speed>
</trkpt>
<trkpt lat="47.352816" lon="8.769946">
<ele>540.1</ele>
<time>2003-07-19T09:36:14Z</time>
<speed>1.1</speed>
</trkpt>
<trkpt lat="47.352876" lon="8.769917">
<ele>539.4</ele>
<time>2003-07-19T09:36:19Z</time>
<speed>1.4</speed>
</trkpt>
<trkpt lat="47.352945" lon="8.769861">
<ele>539.2</ele>
<time>2003-07-19T09:36:25Z</time>
<speed>1.1</speed>
</trkpt>
<trkpt lat="47.353012" lon="8.769821">
<ele>537.7</ele>
<time>2003-07-19T09:36:30Z</time>
<speed>1.4</speed>
</trkpt>
<trkpt lat="47.353071" lon="8.769803">
<ele>538.5</ele>
<time>2003-07-19T09:36:35Z</time>
<speed>1.4</speed>
</trkpt>
<trkpt lat="47.353138" lon="8.769761">
<ele>538.4</ele>
<time>2003-07-19T09:36:40Z</time>
<speed>1.1</speed>
</trkpt>
<trkpt lat="47.353193" lon="8.769717">
<ele>538.3</ele>
<time>2003-07-19T09:36:45Z</time>
<speed>1.1</speed>
</trkpt>
<trkpt lat="47.353253" lon="8.769672">
<ele>538.9</ele>
<time>2003-07-19T09:36:50Z</time>
<speed>1.4</speed>
</trkpt>
<trkpt lat="47.353320" lon="8.769630">
<ele>538.8</ele>
<time>2003-07-19T09:36:55Z</time>
<speed>1.4</speed>
</trkpt>
<trkpt lat="47.353380" lon="8.769599">
<ele>539.5</ele>
<time>2003-07-19T09:37:00Z</time>
<speed>1.4</speed>
</trkpt>
<trkpt lat="47.353445" lon="8.769581">
<ele>541.0</ele>
<time>2003-07-19T09:37:05Z</time>
<speed>1.4</speed>
</trkpt>
<trkpt lat="47.353513" lon="8.769525">
<ele>540.8</ele>
<time>2003-07-19T09:37:10Z</time>
<speed>1.4</speed>
</trkpt>
<trkpt lat="47.353568" lon="8.769481">
<ele>540.7</ele>
<time>2003-07-19T09:37:15Z</time>
<speed>0.8</speed>
</trkpt>
<trkpt lat="47.353622" lon="8.769437">
<ele>540.5</ele>
<time>2003-07-19T09:37:20Z</time>
<speed>1.1</speed>
</trkpt>
<trkpt lat="47.353682" lon="8.769408">
<ele>539.8</ele>
<time>2003-07-19T09:37:25Z</time>
<speed>1.1</speed>
</trkpt>
<trkpt lat="47.353742" lon="8.769379">
<ele>539.1</ele>
<time>2003-07-19T09:37:30Z</time>
<speed>1.4</speed>
</trkpt>
<trkpt lat="47.353814" lon="8.769365">
<ele>538.5</ele>
<time>2003-07-19T09:37:35Z</time>
<speed>1.1</speed>
</trkpt>
<trkpt lat="47.353880" lon="8.769335">
<ele>538.6</ele>
<time>2003-07-19T09:37:40Z</time>
<speed>1.4</speed>
</trkpt>
<trkpt lat="47.353945" lon="8.769319">
<ele>538.7</ele>
<time>2003-07-19T09:37:45Z</time>
<speed>1.1</speed>
</trkpt>
<trkpt lat="47.354018" lon="8.769292">
<ele>538.0</ele>
<time>2003-07-19T09:37:50Z</time>
<speed>1.4</speed>
</trkpt>
<trkpt lat="47.354089" lon="8.769276">
<ele>538.9</ele>
<time>2003-07-19T09:37:55Z</time>
<speed>1.4</speed>
</trkpt>
<trkpt lat="47.354142" lon="8.769258">
<ele>538.9</ele>
<time>2003-07-19T09:38:00Z</time>
<speed>1.1</speed>
</trkpt>
<trkpt lat="47.354195" lon="8.769227">
<ele>538.9</ele>
<time>2003-07-19T09:38:05Z</time>
<speed>0.8</speed>
</trkpt>
<trkpt lat="47.354222" lon="8.769220">
<ele>537.5</ele>
<time>2003-07-19T09:38:10Z</time>
<speed>0.6</speed>
</trkpt>
<trkpt lat="47.354309" lon="8.769182">
<ele>536.8</ele>
<time>2003-07-19T09:38:15Z</time>
<speed>1.4</speed>
</trkpt>
<trkpt lat="47.354382" lon="8.769141">
<ele>536.1</ele>
<time>2003-07-19T09:38:20Z</time>
<speed>1.4</speed>
</trkpt>
<trkpt lat="47.354455" lon="8.769114">
<ele>535.4</ele>
<time>2003-07-19T09:38:25Z</time>
<speed>1.1</speed>
</trkpt>
<trkpt lat="47.354534" lon="8.769087">
<ele>535.5</ele>
<time>2003-07-19T09:38:30Z</time>
<speed>1.4</speed>
</trkpt>
<trkpt lat="47.354607" lon="8.769045">
<ele>536.2</ele>
<time>2003-07-19T09:38:35Z</time>
<speed>1.4</speed>
</trkpt>
<trkpt lat="47.354673" lon="8.769016">
<ele>536.2</ele>
<time>2003-07-19T09:38:40Z</time>
<speed>1.4</speed>
</trkpt>
<trkpt lat="47.354739" lon="8.768987">
<ele>536.2</ele>
<time>2003-07-19T09:38:45Z</time>
<speed>1.4</speed>
</trkpt>
<trkpt lat="47.354806" lon="8.768958">
<ele>536.2</ele>
<time>2003-07-19T09:38:50Z</time>
<speed>1.1</speed>
</trkpt>
<trkpt lat="47.354847" lon="8.768924">
<ele>536.1</ele>
<time>2003-07-19T09:38:55Z</time>
<speed>1.1</speed>
</trkpt>
<trkpt lat="47.354906" lon="8.768893">
<ele>536.8</ele>
<time>2003-07-19T09:39:00Z</time>
<speed>1.1</speed>
</trkpt>
<trkpt lat="47.354972" lon="8.768864">
<ele>536.8</ele>
<time>2003-07-19T09:39:05Z</time>
<speed>1.1</speed>
</trkpt>
<trkpt lat="47.355012" lon="8.768844">
<ele>536.8</ele>
<time>2003-07-19T09:39:10Z</time>
<speed>0.6</speed>
</trkpt>
<trkpt lat="47.355052" lon="8.768824">
<ele>536.8</ele>
<time>2003-07-19T09:39:15Z</time>
<speed>0.6</speed>
</trkpt>
<trkpt lat="47.355112" lon="8.768793">
<ele>537.5</ele>
<time>2003-07-19T09:39:20Z</time>
<speed>0.6</speed>
</trkpt>
<trkpt lat="47.355165" lon="8.768761">
<ele>537.5</ele>
<time>2003-07-19T09:39:25Z</time>
<speed>0.8</speed>
</trkpt>
<trkpt lat="47.355233" lon="8.768719">
<ele>537.4</ele>
<time>2003-07-19T09:39:30Z</time>
<speed>0.8</speed>
</trkpt>
<trkpt lat="47.355286" lon="8.768688">
<ele>537.3</ele>
<time>2003-07-19T09:39:35Z</time>
<speed>0.8</speed>
</trkpt>
<trkpt lat="47.355347" lon="8.768644">
<ele>537.9</ele>
<time>2003-07-19T09:39:40Z</time>
<speed>0.8</speed>
</trkpt>
<trkpt lat="47.355395" lon="8.768600">
<ele>537.0</ele>
<time>2003-07-19T09:39:45Z</time>
<speed>1.1</speed>
</trkpt>
<trkpt lat="47.355455" lon="8.768568">
<ele>537.7</ele>
<time>2003-07-19T09:39:50Z</time>
<speed>1.1</speed>
</trkpt>
<trkpt lat="47.355522" lon="8.768526">
<ele>537.6</ele>
<time>2003-07-19T09:39:55Z</time>
<speed>1.1</speed>
</trkpt>
<trkpt lat="47.355582" lon="8.768497">
<ele>536.9</ele>
<time>2003-07-19T09:40:00Z</time>
<speed>1.4</speed>
</trkpt>
<trkpt lat="47.355643" lon="8.768453">
<ele>537.5</ele>
<time>2003-07-19T09:40:05Z</time>
<speed>1.1</speed>
</trkpt>
<trkpt lat="47.355704" lon="8.768411">
<ele>536.7</ele>
<time>2003-07-19T09:40:10Z</time>
<speed>1.1</speed>
</trkpt>
<trkpt lat="47.355765" lon="8.768366">
<ele>537.3</ele>
<time>2003-07-19T09:40:15Z</time>
<speed>1.1</speed>
</trkpt>
<trkpt lat="47.355825" lon="8.768322">
<ele>537.9</ele>
<time>2003-07-19T09:40:20Z</time>
<speed>1.1</speed>
</trkpt>
<trkpt lat="47.355900" lon="8.768267">
<ele>538.4</ele>
<time>2003-07-19T09:40:25Z</time>
<speed>1.4</speed>
</trkpt>
<trkpt lat="47.355961" lon="8.768224">
<ele>537.6</ele>
<time>2003-07-19T09:40:30Z</time>
<speed>1.1</speed>
</trkpt>
<trkpt lat="47.356015" lon="8.768180">
<ele>537.4</ele>
<time>2003-07-19T09:40:35Z</time>
<speed>1.4</speed>
</trkpt>
<trkpt lat="47.356056" lon="8.768147">
<ele>537.3</ele>
<time>2003-07-19T09:40:40Z</time>
<speed>0.0</speed>
</trkpt>
<trkpt lat="47.356097" lon="8.768114">
<ele>537.2</ele>
<time>2003-07-19T09:40:45Z</time>
<speed>1.1</speed>
</trkpt>
<trkpt lat="47.356158" lon="8.768072">
<ele>536.4</ele>
<time>2003-07-19T09:40:50Z</time>
<speed>1.1</speed>
</trkpt>
<trkpt lat="47.356226" lon="8.768016">
<ele>536.2</ele>
<time>2003-07-19T09:40:55Z</time>
<speed>1.4</speed>
</trkpt>
<trkpt lat="47.356293" lon="8.767974">
<ele>536.1</ele>
<time>2003-07-19T09:41:00Z</time>
<speed>1.1</speed>
</trkpt>
<trkpt lat="47.356367" lon="8.767932">
<ele>536.8</ele>
<time>2003-07-19T09:41:05Z</time>
<speed>1.4</speed>
</trkpt>
<trkpt lat="47.356421" lon="8.767888">
<ele>536.6</ele>
<time>2003-07-19T09:41:10Z</time>
<speed>1.1</speed>
</trkpt>
<trkpt lat="47.356482" lon="8.767843">
<ele>537.2</ele>
<time>2003-07-19T09:41:15Z</time>
<speed>1.4</speed>
</trkpt>
<trkpt lat="47.356537" lon="8.767799">
<ele>537.1</ele>
<time>2003-07-19T09:41:20Z</time>
<speed>0.8</speed>
</trkpt>
<trkpt lat="47.356598" lon="8.767757">
<ele>536.3</ele>
<time>2003-07-19T09:41:25Z</time>
<speed>1.1</speed>
</trkpt>
<trkpt lat="47.356648" lon="8.767684">
<ele>536.6</ele>
<time>2003-07-19T09:41:30Z</time>
<speed>1.1</speed>
</trkpt>
<trkpt lat="47.356696" lon="8.767638">
<ele>537.1</ele>
<time>2003-07-19T09:41:35Z</time>
<speed>0.8</speed>
</trkpt>
<trkpt lat="47.356733" lon="8.767659">
<ele>536.0</ele>
<time>2003-07-19T09:41:40Z</time>
<speed>0.8</speed>
</trkpt>
<trkpt lat="47.356754" lon="8.767731">
<ele>535.2</ele>
<time>2003-07-19T09:41:45Z</time>
<speed>1.1</speed>
</trkpt>
<trkpt lat="47.356772" lon="8.767828">
<ele>534.7</ele>
<time>2003-07-19T09:41:50Z</time>
<speed>1.1</speed>
</trkpt>
<trkpt lat="47.356799" lon="8.767900">
<ele>534.7</ele>
<time>2003-07-19T09:41:55Z</time>
<speed>1.1</speed>
</trkpt>
<trkpt lat="47.356824" lon="8.767997">
<ele>534.9</ele>
<time>2003-07-19T09:42:00Z</time>
<speed>1.4</speed>
</trkpt>
<trkpt lat="47.356849" lon="8.768095">
<ele>535.0</ele>
<time>2003-07-19T09:42:05Z</time>
<speed>1.4</speed>
</trkpt>
<trkpt lat="47.356873" lon="8.768193">
<ele>535.2</ele>
<time>2003-07-19T09:42:10Z</time>
<speed>1.1</speed>
</trkpt>
<trkpt lat="47.356899" lon="8.768277">
<ele>535.3</ele>
<time>2003-07-19T09:42:15Z</time>
<speed>1.4</speed>
</trkpt>
<trkpt lat="47.356931" lon="8.768362">
<ele>536.1</ele>
<time>2003-07-19T09:42:20Z</time>
<speed>1.1</speed>
</trkpt>
<trkpt lat="47.356949" lon="8.768457">
<ele>537.0</ele>
<time>2003-07-19T09:42:25Z</time>
<speed>1.1</speed>
</trkpt>
<trkpt lat="47.356995" lon="8.768533">
<ele>536.4</ele>
<time>2003-07-19T09:42:30Z</time>
<speed>1.1</speed>
</trkpt>
<trkpt lat="47.357035" lon="8.768593">
<ele>536.3</ele>
<time>2003-07-19T09:42:35Z</time>
<speed>0.8</speed>
</trkpt>
<trkpt lat="47.357064" lon="8.768639">
<ele>536.1</ele>
<time>2003-07-19T09:42:40Z</time>
<speed>0.6</speed>
</trkpt>
<trkpt lat="47.357093" lon="8.768684">
<ele>535.8</ele>
<time>2003-07-19T09:42:45Z</time>
<speed>0.8</speed>
</trkpt>
<trkpt lat="47.357104" lon="8.768712">
<ele>536.1</ele>
<time>2003-07-19T09:42:50Z</time>
<speed>0.6</speed>
</trkpt>
<trkpt lat="47.357152" lon="8.768761">
<ele>535.3</ele>
<time>2003-07-19T09:42:55Z</time>
<speed>0.8</speed>
</trkpt>
<trkpt lat="47.357185" lon="8.768835">
<ele>534.6</ele>
<time>2003-07-19T09:43:00Z</time>
<speed>1.1</speed>
</trkpt>
<trkpt lat="47.357219" lon="8.768895">
<ele>533.8</ele>
<time>2003-07-19T09:43:05Z</time>
<speed>0.6</speed>
</trkpt>
<trkpt lat="47.357243" lon="8.768927">
<ele>532.7</ele>
<time>2003-07-19T09:43:10Z</time>
<speed>0.6</speed>
</trkpt>
<trkpt lat="47.357266" lon="8.768958">
<ele>533.1</ele>
<time>2003-07-19T09:43:15Z</time>
<speed>0.6</speed>
</trkpt>
<trkpt lat="47.357278" lon="8.768973">
<ele>533.2</ele>
<time>2003-07-19T09:43:20Z</time>
<speed>0.0</speed>
</trkpt>
<trkpt lat="47.357248" lon="8.768940">
<ele>533.6</ele>
<time>2003-07-19T09:43:25Z</time>
<speed>1.1</speed>
</trkpt>
<trkpt lat="47.357219" lon="8.768895">
<ele>533.8</ele>
<time>2003-07-19T09:43:30Z</time>
<speed>0.8</speed>
</trkpt>
<trkpt lat="47.357207" lon="8.768893">
<ele>533.7</ele>
<time>2003-07-19T09:43:35Z</time>
<speed>0.6</speed>
</trkpt>
<trkpt lat="47.357225" lon="8.768910">
<ele>533.2</ele>
<time>2003-07-19T09:43:40Z</time>
<speed>0.0</speed>
</trkpt>
<trkpt lat="47.357243" lon="8.768927">
<ele>532.7</ele>
<time>2003-07-19T09:43:45Z</time>
<speed>0.6</speed>
</trkpt>
<trkpt lat="47.357271" lon="8.768971">
<ele>533.9</ele>
<time>2003-07-19T09:43:50Z</time>
<speed>0.6</speed>
</trkpt>
<trkpt lat="47.357290" lon="8.768975">
<ele>533.3</ele>
<time>2003-07-19T09:43:55Z</time>
<speed>0.0</speed>
</trkpt>
<trkpt lat="47.357290" lon="8.768975">
<ele>533.3</ele>
<time>2003-07-19T09:44:00Z</time>
<speed>0.0</speed>
</trkpt>
<trkpt lat="47.357279" lon="8.768960">
<ele>533.1</ele>
<time>2003-07-19T09:44:05Z</time>
<speed>0.6</speed>
</trkpt>
<trkpt lat="47.357243" lon="8.768912">
<ele>534.0</ele>
<time>2003-07-19T09:44:10Z</time>
<speed>0.8</speed>
</trkpt>
<trkpt lat="47.357209" lon="8.768867">
<ele>533.5</ele>
<time>2003-07-19T09:44:15Z</time>
<speed>0.6</speed>
</trkpt>
<trkpt lat="47.357210" lon="8.768854">
<ele>533.4</ele>
<time>2003-07-19T09:44:20Z</time>
<speed>0.0</speed>
</trkpt>
<trkpt lat="47.357210" lon="8.768854">
<ele>533.4</ele>
<time>2003-07-19T09:44:25Z</time>
<speed>0.0</speed>
</trkpt>
<trkpt lat="47.357210" lon="8.768854">
<ele>533.4</ele>
<time>2003-07-19T09:44:30Z</time>
<speed>0.0</speed>
</trkpt>
<trkpt lat="47.357210" lon="8.768854">
<ele>533.4</ele>
<time>2003-07-19T09:44:35Z</time>
<speed>0.0</speed>
</trkpt>
<trkpt lat="47.357210" lon="8.768854">
<ele>533.4</ele>
<time>2003-07-19T09:44:40Z</time>
<speed>0.0</speed>
</trkpt>
<trkpt lat="47.357210" lon="8.768854">
<ele>533.4</ele>
<time>2003-07-19T09:44:45Z</time>
<speed>0.0</speed>
</trkpt>
<trkpt lat="47.357210" lon="8.768854">
<ele>533.4</ele>
<time>2003-07-19T09:44:50Z</time>
<speed>0.0</speed>
</trkpt>
<trkpt lat="47.357210" lon="8.768854">
<ele>533.4</ele>
<time>2003-07-19T09:44:55Z</time>
<speed>0.0</speed>
</trkpt>
<trkpt lat="47.357203" lon="8.768852">
<ele>534.1</ele>
<time>2003-07-19T09:45:00Z</time>
<speed>0.3</speed>
</trkpt>
<trkpt lat="47.357197" lon="8.768852">
<ele>533.4</ele>
<time>2003-07-19T09:45:05Z</time>
<speed>0.0</speed>
</trkpt>
<trkpt lat="47.357197" lon="8.768852">
<ele>533.4</ele>
<time>2003-07-19T09:45:10Z</time>
<speed>0.0</speed>
</trkpt>
<trkpt lat="47.357197" lon="8.768852">
<ele>533.4</ele>
<time>2003-07-19T09:45:15Z</time>
<speed>0.0</speed>
</trkpt>
<trkpt lat="47.357197" lon="8.768852">
<ele>533.4</ele>
<time>2003-07-19T09:45:20Z</time>
<speed>0.3</speed>
</trkpt>
<trkpt lat="47.357197" lon="8.768852">
<ele>533.4</ele>
<time>2003-07-19T09:45:25Z</time>
<speed>0.0</speed>
</trkpt>
<trkpt lat="47.357209" lon="8.768867">
<ele>533.5</ele>
<time>2003-07-19T09:45:30Z</time>
<speed>0.0</speed>
</trkpt>
<trkpt lat="47.357202" lon="8.768865">
<ele>534.2</ele>
<time>2003-07-19T09:45:35Z</time>
<speed>0.0</speed>
</trkpt>
<trkpt lat="47.357202" lon="8.768865">
<ele>534.2</ele>
<time>2003-07-19T09:45:40Z</time>
<speed>0.0</speed>
</trkpt>
<trkpt lat="47.357202" lon="8.768865">
<ele>534.2</ele>
<time>2003-07-19T09:45:45Z</time>
<speed>0.0</speed>
</trkpt>
<trkpt lat="47.357202" lon="8.768865">
<ele>534.2</ele>
<time>2003-07-19T09:45:50Z</time>
<speed>0.0</speed>
</trkpt>
<trkpt lat="47.357202" lon="8.768865">
<ele>534.2</ele>
<time>2003-07-19T09:45:55Z</time>
<speed>0.0</speed>
</trkpt>
<trkpt lat="47.357202" lon="8.768865">
<ele>534.2</ele>
<time>2003-07-19T09:46:00Z</time>
<speed>0.0</speed>
</trkpt>
<trkpt lat="47.357202" lon="8.768865">
<ele>534.2</ele>
<time>2003-07-19T09:46:05Z</time>
<speed>0.0</speed>
</trkpt>
<trkpt lat="47.357161" lon="8.768818">
<ele>534.4</ele>
<time>2003-07-19T09:46:10Z</time>
<speed>0.8</speed>
</trkpt>
<trkpt lat="47.357127" lon="8.768759">
<ele>533.7</ele>
<time>2003-07-19T09:46:15Z</time>
<speed>0.8</speed>
</trkpt>
<trkpt lat="47.357091" lon="8.768712">
<ele>534.6</ele>
<time>2003-07-19T09:46:20Z</time>
<speed>0.8</speed>
</trkpt>
<trkpt lat="47.357080" lon="8.768697">
<ele>534.5</ele>
<time>2003-07-19T09:46:25Z</time>
<speed>0.0</speed>
</trkpt>
<trkpt lat="47.357080" lon="8.768697">
<ele>534.5</ele>
<time>2003-07-19T09:46:30Z</time>
<speed>0.0</speed>
</trkpt>
<trkpt lat="47.357080" lon="8.768697">
<ele>534.5</ele>
<time>2003-07-19T09:46:35Z</time>
<speed>0.0</speed>
</trkpt>
<trkpt lat="47.357083" lon="8.768658">
<ele>534.2</ele>
<time>2003-07-19T09:46:40Z</time>
<speed>0.6</speed>
</trkpt>
<trkpt lat="47.357125" lon="8.768611">
<ele>533.9</ele>
<time>2003-07-19T09:46:45Z</time>
<speed>1.1</speed>
</trkpt>
<trkpt lat="47.357180" lon="8.768554">
<ele>533.7</ele>
<time>2003-07-19T09:46:50Z</time>
<speed>1.4</speed>
</trkpt>
<trkpt lat="47.357235" lon="8.768510">
<ele>533.5</ele>
<time>2003-07-19T09:46:55Z</time>
<speed>1.1</speed>
</trkpt>
<trkpt lat="47.357297" lon="8.768454">
<ele>532.6</ele>
<time>2003-07-19T09:47:00Z</time>
<speed>1.4</speed>
</trkpt>
<trkpt lat="47.357352" lon="8.768410">
<ele>532.5</ele>
<time>2003-07-19T09:47:05Z</time>
<speed>1.1</speed>
</trkpt>
<trkpt lat="47.357412" lon="8.768366">
<ele>533.1</ele>
<time>2003-07-19T09:47:10Z</time>
<speed>1.4</speed>
</trkpt>
<trkpt lat="47.357480" lon="8.768311">
<ele>532.9</ele>
<time>2003-07-19T09:47:15Z</time>
<speed>1.4</speed>
</trkpt>
<trkpt lat="47.357535" lon="8.768266">
<ele>532.7</ele>
<time>2003-07-19T09:47:20Z</time>
<speed>1.4</speed>
</trkpt>
<trkpt lat="47.357590" lon="8.768222">
<ele>532.6</ele>
<time>2003-07-19T09:47:25Z</time>
<speed>1.4</speed>
</trkpt>
<trkpt lat="47.357651" lon="8.768180">
<ele>531.8</ele>
<time>2003-07-19T09:47:30Z</time>
<speed>1.4</speed>
</trkpt>
<trkpt lat="47.357719" lon="8.768125">
<ele>531.6</ele>
<time>2003-07-19T09:47:35Z</time>
<speed>1.4</speed>
</trkpt>
<trkpt lat="47.357767" lon="8.768078">
<ele>532.1</ele>
<time>2003-07-19T09:47:40Z</time>
<speed>1.4</speed>
</trkpt>
<trkpt lat="47.357834" lon="8.768036">
<ele>532.0</ele>
<time>2003-07-19T09:47:45Z</time>
<speed>1.4</speed>
</trkpt>
<trkpt lat="47.357900" lon="8.768007">
<ele>532.0</ele>
<time>2003-07-19T09:47:50Z</time>
<speed>1.4</speed>
</trkpt>
<trkpt lat="47.357965" lon="8.767991">
<ele>532.2</ele>
<time>2003-07-19T09:47:55Z</time>
<speed>1.4</speed>
</trkpt>
<trkpt lat="47.358032" lon="8.767962">
<ele>532.2</ele>
<time>2003-07-19T09:48:00Z</time>
<speed>1.4</speed>
</trkpt>
<trkpt lat="47.358098" lon="8.767933">
<ele>532.2</ele>
<time>2003-07-19T09:48:05Z</time>
<speed>1.4</speed>
</trkpt>
<trkpt lat="47.358164" lon="8.767903">
<ele>532.2</ele>
<time>2003-07-19T09:48:10Z</time>
<speed>1.4</speed>
</trkpt>
<trkpt lat="47.358236" lon="8.767874">
<ele>533.0</ele>
<time>2003-07-19T09:48:15Z</time>
<speed>1.4</speed>
</trkpt>
<trkpt lat="47.358300" lon="8.767871">
<ele>533.2</ele>
<time>2003-07-19T09:48:20Z</time>
<speed>1.1</speed>
</trkpt>
<trkpt lat="47.358365" lon="8.767868">
<ele>533.4</ele>
<time>2003-07-19T09:48:25Z</time>
<speed>1.4</speed>
</trkpt>
<trkpt lat="47.358435" lon="8.767867">
<ele>533.0</ele>
<time>2003-07-19T09:48:30Z</time>
<speed>1.4</speed>
</trkpt>
<trkpt lat="47.358489" lon="8.767836">
<ele>532.9</ele>
<time>2003-07-19T09:48:35Z</time>
<speed>1.1</speed>
</trkpt>
<trkpt lat="47.358495" lon="8.767758">
<ele>532.3</ele>
<time>2003-07-19T09:48:40Z</time>
<speed>0.8</speed>
</trkpt>
<trkpt lat="47.358501" lon="8.767664">
<ele>533.0</ele>
<time>2003-07-19T09:48:45Z</time>
<speed>1.4</speed>
</trkpt>
<trkpt lat="47.358509" lon="8.767559">
<ele>532.2</ele>
<time>2003-07-19T09:48:50Z</time>
<speed>1.4</speed>
</trkpt>
<trkpt lat="47.358496" lon="8.767477">
<ele>532.2</ele>
<time>2003-07-19T09:48:55Z</time>
<speed>1.1</speed>
</trkpt>
<trkpt lat="47.358491" lon="8.767368">
<ele>532.7</ele>
<time>2003-07-19T09:49:00Z</time>
<speed>1.4</speed>
</trkpt>
<trkpt lat="47.358492" lon="8.767275">
<ele>532.6</ele>
<time>2003-07-19T09:49:05Z</time>
<speed>1.4</speed>
</trkpt>
<trkpt lat="47.358506" lon="8.767170">
<ele>532.5</ele>
<time>2003-07-19T09:49:10Z</time>
<speed>1.4</speed>
</trkpt>
<trkpt lat="47.358506" lon="8.767089">
<ele>532.6</ele>
<time>2003-07-19T09:49:15Z</time>
<speed>1.1</speed>
</trkpt>
<trkpt lat="47.358505" lon="8.767009">
<ele>532.6</ele>
<time>2003-07-19T09:49:20Z</time>
<speed>0.6</speed>
</trkpt>
<trkpt lat="47.358514" lon="8.766970">
<ele>533.1</ele>
<time>2003-07-19T09:49:25Z</time>
<speed>0.0</speed>
</trkpt>
<trkpt lat="47.358522" lon="8.766944">
<ele>533.6</ele>
<time>2003-07-19T09:49:30Z</time>
<speed>0.8</speed>
</trkpt>
<trkpt lat="47.358522" lon="8.766863">
<ele>533.6</ele>
<time>2003-07-19T09:49:35Z</time>
<speed>1.1</speed>
</trkpt>
<trkpt lat="47.358516" lon="8.766767">
<ele>534.3</ele>
<time>2003-07-19T09:49:40Z</time>
<speed>1.4</speed>
</trkpt>
<trkpt lat="47.358510" lon="8.766674">
<ele>533.5</ele>
<time>2003-07-19T09:49:45Z</time>
<speed>1.1</speed>
</trkpt>
<trkpt lat="47.358503" lon="8.766591">
<ele>534.2</ele>
<time>2003-07-19T09:49:50Z</time>
<speed>0.8</speed>
</trkpt>
<trkpt lat="47.358498" lon="8.766576">
<ele>534.8</ele>
<time>2003-07-19T09:49:55Z</time>
<speed>0.3</speed>
</trkpt>
<trkpt lat="47.358510" lon="8.766498">
<ele>534.9</ele>
<time>2003-07-19T09:50:00Z</time>
<speed>1.1</speed>
</trkpt>
<trkpt lat="47.358522" lon="8.766419">
<ele>535.0</ele>
<time>2003-07-19T09:50:05Z</time>
<speed>1.1</speed>
</trkpt>
<trkpt lat="47.358516" lon="8.766324">
<ele>535.6</ele>
<time>2003-07-19T09:50:10Z</time>
<speed>1.1</speed>
</trkpt>
<trkpt lat="47.358498" lon="8.766228">
<ele>534.7</ele>
<time>2003-07-19T09:50:15Z</time>
<speed>1.1</speed>
</trkpt>
<trkpt lat="47.358495" lon="8.766174">
<ele>535.0</ele>
<time>2003-07-19T09:50:20Z</time>
<speed>0.6</speed>
</trkpt>
<trkpt lat="47.358522" lon="8.766150">
<ele>536.3</ele>
<time>2003-07-19T09:50:25Z</time>
<speed>0.3</speed>
</trkpt>
<trkpt lat="47.358548" lon="8.766140">
<ele>536.4</ele>
<time>2003-07-19T09:50:30Z</time>
<speed>0.3</speed>
</trkpt>
<trkpt lat="47.358564" lon="8.766103">
<ele>536.1</ele>
<time>2003-07-19T09:50:35Z</time>
<speed>0.3</speed>
</trkpt>
<trkpt lat="47.358601" lon="8.766122">
<ele>536.4</ele>
<time>2003-07-19T09:50:40Z</time>
<speed>0.6</speed>
</trkpt>
<trkpt lat="47.358638" lon="8.766142">
<ele>536.7</ele>
<time>2003-07-19T09:50:45Z</time>
<speed>0.0</speed>
</trkpt>
<trkpt lat="47.358662" lon="8.766157">
<ele>538.4</ele>
<time>2003-07-19T09:50:50Z</time>
<speed>0.3</speed>
</trkpt>
<trkpt lat="47.358679" lon="8.766187">
<ele>538.0</ele>
<time>2003-07-19T09:50:55Z</time>
<speed>0.6</speed>
</trkpt>
<trkpt lat="47.358739" lon="8.766238">
<ele>537.2</ele>
<time>2003-07-19T09:51:00Z</time>
<speed>1.1</speed>
</trkpt>
<trkpt lat="47.358793" lon="8.766285">
<ele>538.5</ele>
<time>2003-07-19T09:51:05Z</time>
<speed>0.6</speed>
</trkpt>
<trkpt lat="47.358836" lon="8.766307">
<ele>538.1</ele>
<time>2003-07-19T09:51:10Z</time>
<speed>0.0</speed>
</trkpt>
<trkpt lat="47.358867" lon="8.766326">
<ele>537.7</ele>
<time>2003-07-19T09:51:15Z</time>
<speed>0.6</speed>
</trkpt>
<trkpt lat="47.358917" lon="8.766349">
<ele>536.7</ele>
<time>2003-07-19T09:51:20Z</time>
<speed>0.3</speed>
</trkpt>
<trkpt lat="47.358934" lon="8.766377">
<ele>537.7</ele>
<time>2003-07-19T09:51:25Z</time>
<speed>0.6</speed>
</trkpt>
<trkpt lat="47.358989" lon="8.766413">
<ele>537.5</ele>
<time>2003-07-19T09:51:30Z</time>
<speed>0.6</speed>
</trkpt>
<trkpt lat="47.359044" lon="8.766450">
<ele>537.3</ele>
<time>2003-07-19T09:51:35Z</time>
<speed>0.8</speed>
</trkpt>
<trkpt lat="47.359091" lon="8.766495">
<ele>539.3</ele>
<time>2003-07-19T09:51:40Z</time>
<speed>0.6</speed>
</trkpt>
<trkpt lat="47.359119" lon="8.766538">
<ele>540.4</ele>
<time>2003-07-19T09:51:45Z</time>
<speed>0.3</speed>
</trkpt>
<trkpt lat="47.359188" lon="8.766563">
<ele>540.2</ele>
<time>2003-07-19T09:51:50Z</time>
<speed>1.1</speed>
</trkpt>
<trkpt lat="47.359247" lon="8.766628">
<ele>539.5</ele>
<time>2003-07-19T09:51:55Z</time>
<speed>0.8</speed>
</trkpt>
<trkpt lat="47.359322" lon="8.766653">
<ele>540.0</ele>
<time>2003-07-19T09:52:00Z</time>
<speed>0.8</speed>
</trkpt>
<trkpt lat="47.359378" lon="8.766676">
<ele>539.7</ele>
<time>2003-07-19T09:52:05Z</time>
<speed>0.8</speed>
</trkpt>
<trkpt lat="47.359439" lon="8.766712">
<ele>540.3</ele>
<time>2003-07-19T09:52:10Z</time>
<speed>0.6</speed>
</trkpt>
<trkpt lat="47.359508" lon="8.766753">
<ele>538.7</ele>
<time>2003-07-19T09:52:15Z</time>
<speed>0.8</speed>
</trkpt>
<trkpt lat="47.359550" lon="8.766787">
<ele>538.5</ele>
<time>2003-07-19T09:52:20Z</time>
<speed>0.6</speed>
</trkpt>
<trkpt lat="47.359601" lon="8.766795">
<ele>538.7</ele>
<time>2003-07-19T09:52:25Z</time>
<speed>0.6</speed>
</trkpt>
<trkpt lat="47.359663" lon="8.766818">
<ele>539.2</ele>
<time>2003-07-19T09:52:30Z</time>
<speed>0.8</speed>
</trkpt>
<trkpt lat="47.359726" lon="8.766830">
<ele>538.1</ele>
<time>2003-07-19T09:52:35Z</time>
<speed>0.8</speed>
</trkpt>
<trkpt lat="47.359813" lon="8.766871">
<ele>538.8</ele>
<time>2003-07-19T09:52:40Z</time>
<speed>1.1</speed>
</trkpt>
<trkpt lat="47.359873" lon="8.766920">
<ele>539.4</ele>
<time>2003-07-19T09:52:45Z</time>
<speed>1.1</speed>
</trkpt>
<trkpt lat="47.359924" lon="8.766930">
<ele>538.3</ele>
<time>2003-07-19T09:52:50Z</time>
<speed>0.8</speed>
</trkpt>
<trkpt lat="47.359979" lon="8.766966">
<ele>538.1</ele>
<time>2003-07-19T09:52:55Z</time>
<speed>0.8</speed>
</trkpt>
<trkpt lat="47.360040" lon="8.767000">
<ele>540.0</ele>
<time>2003-07-19T09:53:00Z</time>
<speed>0.8</speed>
</trkpt>
<trkpt lat="47.360089" lon="8.767024">
<ele>539.0</ele>
<time>2003-07-19T09:53:05Z</time>
<speed>0.6</speed>
</trkpt>
<trkpt lat="47.360152" lon="8.767049">
<ele>538.0</ele>
<time>2003-07-19T09:53:10Z</time>
<speed>0.8</speed>
</trkpt>
<trkpt lat="47.360213" lon="8.767085">
<ele>538.5</ele>
<time>2003-07-19T09:53:15Z</time>
<speed>0.6</speed>
</trkpt>
<trkpt lat="47.360262" lon="8.767119">
<ele>539.0</ele>
<time>2003-07-19T09:53:20Z</time>
<speed>0.6</speed>
</trkpt>
<trkpt lat="47.360311" lon="8.767140">
<ele>539.4</ele>
<time>2003-07-19T09:53:25Z</time>
<speed>0.3</speed>
</trkpt>
<trkpt lat="47.360360" lon="8.767160">
<ele>541.2</ele>
<time>2003-07-19T09:53:30Z</time>
<speed>0.6</speed>
</trkpt>
<trkpt lat="47.360423" lon="8.767185">
<ele>540.2</ele>
<time>2003-07-19T09:53:35Z</time>
<speed>0.6</speed>
</trkpt>
<trkpt lat="47.360497" lon="8.767225">
<ele>539.4</ele>
<time>2003-07-19T09:53:40Z</time>
<speed>0.6</speed>
</trkpt>
<trkpt lat="47.360566" lon="8.767250">
<ele>539.1</ele>
<time>2003-07-19T09:53:45Z</time>
<speed>0.6</speed>
</trkpt>
<trkpt lat="47.360628" lon="8.767271">
<ele>541.0</ele>
<time>2003-07-19T09:53:50Z</time>
<speed>0.8</speed>
</trkpt>
<trkpt lat="47.360683" lon="8.767308">
<ele>540.8</ele>
<time>2003-07-19T09:53:55Z</time>
<speed>0.6</speed>
</trkpt>
<trkpt lat="47.360751" lon="8.767333">
<ele>540.6</ele>
<time>2003-07-19T09:54:00Z</time>
<speed>0.8</speed>
</trkpt>
<trkpt lat="47.360802" lon="8.767343">
<ele>539.4</ele>
<time>2003-07-19T09:54:05Z</time>
<speed>0.6</speed>
</trkpt>
<trkpt lat="47.360853" lon="8.767353">
<ele>538.3</ele>
<time>2003-07-19T09:54:10Z</time>
<speed>0.3</speed>
</trkpt>
<trkpt lat="47.360916" lon="8.767378">
<ele>537.3</ele>
<time>2003-07-19T09:54:15Z</time>
<speed>0.8</speed>
</trkpt>
<trkpt lat="47.360999" lon="8.767379">
<ele>536.9</ele>
<time>2003-07-19T09:54:20Z</time>
<speed>1.1</speed>
</trkpt>
<trkpt lat="47.361070" lon="8.767378">
<ele>536.5</ele>
<time>2003-07-19T09:54:25Z</time>
<speed>1.4</speed>
</trkpt>
<trkpt lat="47.361147" lon="8.767377">
<ele>536.8</ele>
<time>2003-07-19T09:54:30Z</time>
<speed>0.8</speed>
</trkpt>
<trkpt lat="47.361206" lon="8.767361">
<ele>536.2</ele>
<time>2003-07-19T09:54:35Z</time>
<speed>1.1</speed>
</trkpt>
<trkpt lat="47.361282" lon="8.767360">
<ele>536.5</ele>
<time>2003-07-19T09:54:40Z</time>
<speed>1.1</speed>
</trkpt>
<trkpt lat="47.361349" lon="8.767331">
<ele>536.5</ele>
<time>2003-07-19T09:54:45Z</time>
<speed>1.1</speed>
</trkpt>
<trkpt lat="47.361414" lon="8.767315">
<ele>536.6</ele>
<time>2003-07-19T09:54:50Z</time>
<speed>1.4</speed>
</trkpt>
<trkpt lat="47.361479" lon="8.767299">
<ele>536.7</ele>
<time>2003-07-19T09:54:55Z</time>
<speed>1.1</speed>
</trkpt>
<trkpt lat="47.361550" lon="8.767298">
<ele>536.3</ele>
<time>2003-07-19T09:55:00Z</time>
<speed>1.1</speed>
</trkpt>
<trkpt lat="47.361607" lon="8.767293">
<ele>537.2</ele>
<time>2003-07-19T09:55:05Z</time>
<speed>1.1</speed>
</trkpt>
<trkpt lat="47.361673" lon="8.767277">
<ele>537.3</ele>
<time>2003-07-19T09:55:10Z</time>
<speed>1.1</speed>
</trkpt>
<trkpt lat="47.361725" lon="8.767259">
<ele>537.4</ele>
<time>2003-07-19T09:55:15Z</time>
<speed>0.8</speed>
</trkpt>
<trkpt lat="47.361771" lon="8.767241">
<ele>536.7</ele>
<time>2003-07-19T09:55:20Z</time>
<speed>0.8</speed>
</trkpt>
<trkpt lat="47.361819" lon="8.767207">
<ele>537.3</ele>
<time>2003-07-19T09:55:25Z</time>
<speed>1.1</speed>
</trkpt>
<trkpt lat="47.361866" lon="8.767174">
<ele>537.9</ele>
<time>2003-07-19T09:55:30Z</time>
<speed>0.8</speed>
</trkpt>
<trkpt lat="47.361914" lon="8.767130">
<ele>537.1</ele>
<time>2003-07-19T09:55:35Z</time>
<speed>0.6</speed>
</trkpt>
<trkpt lat="47.361967" lon="8.767112">
<ele>537.1</ele>
<time>2003-07-19T09:55:40Z</time>
<speed>0.8</speed>
</trkpt>
<trkpt lat="47.362019" lon="8.767094">
<ele>537.2</ele>
<time>2003-07-19T09:55:45Z</time>
<speed>0.8</speed>
</trkpt>
<trkpt lat="47.362091" lon="8.767080">
<ele>536.6</ele>
<time>2003-07-19T09:55:50Z</time>
<speed>0.8</speed>
</trkpt>
<trkpt lat="47.362156" lon="8.767064">
<ele>536.8</ele>
<time>2003-07-19T09:55:55Z</time>
<speed>0.8</speed>
</trkpt>
<trkpt lat="47.362222" lon="8.767035">
<ele>536.8</ele>
<time>2003-07-19T09:56:00Z</time>
<speed>0.6</speed>
</trkpt>
<trkpt lat="47.362281" lon="8.767018">
<ele>536.2</ele>
<time>2003-07-19T09:56:05Z</time>
<speed>0.6</speed>
</trkpt>
<trkpt lat="47.362333" lon="8.767013">
<ele>536.3</ele>
<time>2003-07-19T09:56:10Z</time>
<speed>0.6</speed>
</trkpt>
<trkpt lat="47.362399" lon="8.766984">
<ele>536.3</ele>
<time>2003-07-19T09:56:15Z</time>
<speed>0.8</speed>
</trkpt>
<trkpt lat="47.362444" lon="8.766979">
<ele>535.8</ele>
<time>2003-07-19T09:56:20Z</time>
<speed>0.8</speed>
</trkpt>
</trkseg>
</trk>
</gpx>
